Right Now

Temperature THW Index 112.71°

97.36° 1.26

Humidity

58.76% 5.81

Dew Point

83.56° 1.19

Pressure

1016.88mb 0.12

Wind

6.05mph 0.72 S

Rain

0"

Last Week

Filter Columns:
Timestamp Temp Ground Temp Est. Temp THW Index Wet Bulb Humidity Dew Point Pressure Wind Speed Wind Gust Lightning Rainfall
373563 6/15/2024 11:59pm 89.71° F --° F 89.71° F 129.26° F 85.32° F 100.00% 89.71° F 1012.09mb 0.76mph N 4.11mph 0 0.000"
373562 6/15/2024 11:54pm 89.60° F --° F 89.60° F 128.82° F 85.21° F 100.00% 89.60° F 1012.07mb 0.62mph N 2.74mph 0 0.000"
373561 6/15/2024 11:49pm 90.25° F --° F 90.25° F 132.18° F 85.86° F 100.00% 90.25° F 1012.04mb 0.76mph N 3.43mph 0 0.000"
373560 6/15/2024 11:44pm 90.77° F --° F 90.77° F 134.20° F 86.39° F 100.00% 90.77° F 1012.16mb 1.54mph N 4.11mph 0 0.000"
373559 6/15/2024 11:39pm 90.57° F --° F 90.57° F 130.80° F 86.19° F 100.00% 90.57° F 1012.16mb 3.68mph S 7.54mph 0 0.000"
373558 6/15/2024 11:34pm 89.91° F --° F 89.91° F 129.27° F 85.52° F 100.00% 89.91° F 1012.18mb 1.75mph WNW 6.85mph 0 0.000"
373557 6/15/2024 11:29pm 89.53° F --° F 89.53° F 125.96° F 85.14° F 100.00% 89.53° F 1012.21mb 2.94mph S 6.85mph 0 0.000"
373556 6/15/2024 11:23pm 90.18° F --° F 90.18° F 128.91° F 85.79° F 100.00% 90.18° F 1012.26mb 3.45mph S 7.54mph 0 0.000"
373555 6/15/2024 11:18pm 90.81° F --° F 90.81° F 133.71° F 86.43° F 100.00% 90.81° F 1012.30mb 2.21mph NNW 4.11mph 0 0.000"
373554 6/15/2024 11:13pm 90.91° F --° F 90.91° F 135.42° F 86.53° F 100.00% 90.91° F 1012.24mb 1.13mph NNW 4.80mph 0 0.000"
373553 6/15/2024 11:08pm 90.86° F --° F 90.86° F 134.95° F 86.48° F 100.00% 90.86° F 1012.26mb 1.31mph NNW 3.43mph 0 0.000"
373552 6/15/2024 11:03pm 90.52° F --° F 90.52° F 131.66° F 86.14° F 100.00% 90.52° F 1012.20mb 2.62mph S 6.85mph 0 0.000"
373551 6/15/2024 10:58pm 90.23° F --° F 90.23° F 129.24° F 85.85° F 100.00% 90.23° F 1012.20mb 3.40mph S 8.23mph 0 0.000"
373550 6/15/2024 10:53pm 91.04° F --° F 91.04° F 132.05° F 86.52° F 99.07% 90.80° F 1012.11mb 3.98mph S 7.54mph 0 0.000"
373549 6/15/2024 10:48pm 91.69° F --° F 91.69° F 136.44° F 87.12° F 98.61% 91.32° F 1012.08mb 2.76mph S 4.80mph 0 0.000"
373548 6/15/2024 10:43pm 91.63° F --° F 91.63° F 132.85° F 86.79° F 96.60% 90.73° F 1011.98mb 3.63mph S 6.18mph 0 0.000"
373547 6/15/2024 10:38pm 91.38° F --° F 91.38° F 128.00° F 86.43° F 95.96% 90.31° F 1012.01mb 6.23mph S 10.30mph 0 0.000"
373546 6/15/2024 10:33pm 90.73° F --° F 90.73° F 125.47° F 85.82° F 96.06% 89.69° F 1011.84mb 5.52mph S 10.30mph 0 0.000"
373545 6/15/2024 10:28pm 90.41° F --° F 90.41° F 116.03° F 84.36° F 88.22% 87.19° F 1011.85mb 5.65mph S 8.92mph 0 0.000"
373544 6/15/2024 10:23pm 91.36° F --° F 91.36° F 116.71° F 84.49° F 83.23% 86.64° F 1011.81mb 4.46mph S 8.23mph 0 0.000"
373543 6/15/2024 10:17pm 92.08° F --° F 92.08° F 117.96° F 84.95° F 81.77% 86.89° F 1011.80mb 4.78mph S 8.92mph 0 0.000"
373542 6/15/2024 10:12pm 91.87° F --° F 91.87° F 116.17° F 84.66° F 81.29% 86.53° F 1011.67mb 5.20mph S 9.61mph 0 0.000"
373541 6/15/2024 10:07pm 91.29° F --° F 91.29° F 115.12° F 84.18° F 81.76% 86.12° F 1011.70mb 4.39mph S 9.61mph 0 0.000"
373540 6/15/2024 10:02pm 90.86° F --° F 90.86° F 109.89° F 83.34° F 79.17% 84.89° F 1011.66mb 5.56mph S 13.03mph 0 0.000"
373539 6/15/2024 9:57pm 91.72° F --° F 91.72° F 109.70° F 83.55° F 75.66% 84.58° F 1011.64mb 5.88mph S 10.96mph 0 0.000"
373538 6/15/2024 9:52pm 92.71° F --° F 92.71° F 113.06° F 84.24° F 74.23% 85.05° F 1011.64mb 4.92mph S 11.65mph 0 0.000"
373537 6/15/2024 9:47pm 92.73° F --° F 92.73° F 113.94° F 84.51° F 75.69% 85.56° F 1011.65mb 5.45mph S 9.61mph 0 0.000"
373536 6/15/2024 9:42pm 92.62° F --° F 92.62° F 117.15° F 84.65° F 76.97% 85.87° F 1011.61mb 3.20mph S 8.92mph 0 0.000"
373535 6/15/2024 9:37pm 92.32° F --° F 92.32° F 118.04° F 84.66° F 78.65% 86.13° F 1011.58mb 2.78mph S 6.18mph 0 0.000"
373534 6/15/2024 9:32pm 91.71° F --° F 91.71° F 115.16° F 84.35° F 80.25% 86.05° F 1011.56mb 4.62mph S 10.30mph 0 0.000"
373533 6/15/2024 9:27pm 92.12° F --° F 92.12° F 110.67° F 83.69° F 74.31% 84.51° F 1011.55mb 5.22mph S 8.92mph 0 0.000"
373532 6/15/2024 9:22pm 93.00° F --° F 93.00° F 111.93° F 84.20° F 72.59% 84.76° F 1011.61mb 5.54mph S 11.65mph 0 0.000"
373531 6/15/2024 9:17pm 93.27° F --° F 93.27° F 113.25° F 84.29° F 71.83% 84.75° F 1011.46mb 4.55mph S 8.92mph 0 0.000"
373530 6/15/2024 9:11pm 93.36° F --° F 93.36° F 113.20° F 84.01° F 69.97% 84.18° F 1011.37mb 3.29mph S 6.85mph 0 0.000"
373529 6/15/2024 9:06pm 93.49° F --° F 93.49° F 109.30° F 83.75° F 68.00% 83.59° F 1011.44mb 5.68mph S 11.65mph 0 0.000"
373528 6/15/2024 9:01pm 93.49° F --° F 93.49° F 107.31° F 83.42° F 66.38% 82.99° F 1011.33mb 6.21mph S 11.65mph 0 0.000"
373527 6/15/2024 8:56pm 93.36° F --° F 93.36° F 106.52° F 83.08° F 65.37% 82.49° F 1011.24mb 5.75mph S 8.92mph 0 0.000"
373526 6/15/2024 8:51pm 92.91° F --° F 92.91° F 104.25° F 82.40° F 64.07% 81.58° F 1011.25mb 5.59mph S 10.30mph 0 0.000"
373525 6/15/2024 8:46pm 93.33° F --° F 93.33° F 99.03° F 81.31° F 57.65% 79.39° F 1011.18mb 6.99mph S 13.72mph 0 0.000"
373524 6/15/2024 8:41pm 94.55° F --° F 94.55° F 100.91° F 81.75° F 54.97% 79.35° F 1011.18mb 6.37mph S 10.96mph 0 0.000"
373523 6/15/2024 8:36pm 94.96° F --° F 94.96° F 100.19° F 81.80° F 53.78% 79.19° F 1011.08mb 7.19mph S 13.72mph 0 0.000"
373522 6/15/2024 8:31pm 95.09° F --° F 95.09° F 99.35° F 81.48° F 52.10% 78.54° F 1011.07mb 7.10mph S 14.41mph 0 0.000"
373521 6/15/2024 8:26pm 95.23° F --° F 95.23° F 97.18° F 81.20° F 50.60% 77.96° F 1010.98mb 8.41mph S 13.72mph 0 0.000"
373520 6/15/2024 8:21pm 95.41° F --° F 95.41° F 98.38° F 81.06° F 49.58% 77.63° F 1011.00mb 7.01mph S 13.72mph 0 0.000"
373519 6/15/2024 8:16pm 95.58° F --° F 95.58° F 97.56° F 80.99° F 48.81% 77.41° F 1011.02mb 7.63mph S 13.72mph 0 0.000"
373518 6/15/2024 8:10pm 95.65° F --° F 95.65° F 97.64° F 80.84° F 48.07% 77.11° F 1010.92mb 7.22mph S 18.53mph 0 0.000"
373517 6/15/2024 8:05pm 95.77° F --° F 95.77° F 98.88° F 80.80° F 47.61% 76.98° F 1010.84mb 6.02mph S 10.96mph 0 0.000"
373516 6/15/2024 8:00pm 95.97° F --° F 95.97° F 98.64° F 80.78° F 46.94% 76.82° F 1010.86mb 6.23mph S 12.34mph 0 0.000"
373515 6/15/2024 7:55pm 96.12° F --° F 96.12° F 98.61° F 80.68° F 46.20% 76.58° F 1010.82mb 6.09mph S 14.41mph 0 0.000"
373514 6/15/2024 7:50pm 96.28° F --° F 96.28° F 98.44° F 80.57° F 45.41% 76.31° F 1010.81mb 6.07mph S 16.46mph 0 0.000"
373513 6/15/2024 7:45pm 96.51° F --° F 96.51° F 98.74° F 80.57° F 44.75% 76.16° F 1010.78mb 5.84mph S 15.08mph 0 0.000"
373512 6/15/2024 7:40pm 96.89° F --° F 96.89° F 98.34° F 80.67° F 44.07% 76.14° F 1010.72mb 6.55mph S 16.46mph 0 0.000"
373511 6/15/2024 7:35pm 97.09° F --° F 97.09° F 99.28° F 80.71° F 43.72% 76.12° F 1010.72mb 5.86mph S 19.88mph 0 0.000"
373510 6/15/2024 7:30pm 97.29° F --° F 97.29° F 99.22° F 80.64° F 42.96% 75.88° F 1010.79mb 5.82mph S 12.34mph 0 0.000"
373509 6/15/2024 7:25pm 97.45° F --° F 97.45° F 97.28° F 80.57° F 42.32% 75.67° F 1010.77mb 7.54mph S 16.46mph 0 0.000"
373508 6/15/2024 7:20pm 97.72° F --° F 97.72° F 96.35° F 80.53° F 41.58% 75.48° F 1010.67mb 8.46mph S 14.41mph 0 0.000"
373507 6/15/2024 7:14pm 97.86° F --° F 97.86° F 97.97° F 80.49° F 41.10% 75.33° F 1010.74mb 6.92mph S 13.03mph 0 0.000"
373506 6/15/2024 7:09pm 98.19° F --° F 98.19° F 99.40° F 80.61° F 40.66% 75.36° F 1010.68mb 5.95mph S 14.41mph 0 0.000"
373505 6/15/2024 7:04pm 98.58° F --° F 98.58° F 101.88° F 80.65° F 39.90% 75.26° F 1010.63mb 3.91mph S 12.34mph 0 0.000"
373504 6/15/2024 6:59pm 98.82° F --° F 98.82° F 95.76° F 80.54° F 39.04% 74.95° F 1010.59mb 9.52mph S 16.46mph 0 0.000"
373503 6/15/2024 6:54pm 98.92° F --° F 98.92° F 98.97° F 80.68° F 39.20% 75.13° F 1010.67mb 6.83mph S 15.08mph 0 0.000"
373502 6/15/2024 6:49pm 99.14° F --° F 99.14° F 101.20° F 80.72° F 38.79% 75.08° F 1010.67mb 4.90mph S 10.30mph 0 0.000"
373501 6/15/2024 6:44pm 99.43° F --° F 99.43° F 102.50° F 80.73° F 38.20% 74.96° F 1010.56mb 3.86mph S 8.92mph 0 0.000"
373500 6/15/2024 6:39pm 99.75° F --° F 99.75° F 100.11° F 80.62° F 37.23% 74.63° F 1010.65mb 6.05mph S 10.96mph 0 0.000"
373499 6/15/2024 6:34pm 100.00° F --° F 100.00° F 99.47° F 80.79° F 37.15% 74.80° F 1010.58mb 7.08mph S 16.46mph 0 0.000"
373498 6/15/2024 6:29pm 100.20° F --° F 100.20° F 101.10° F 81.07° F 37.48% 75.18° F 1010.64mb 6.18mph S 14.41mph 0 0.000"
373497 6/15/2024 6:24pm 100.36° F --° F 100.36° F 97.84° F 81.02° F 36.99% 75.00° F 1010.72mb 9.19mph S 20.57mph 0 0.000"
373496 6/15/2024 6:19pm 100.40° F --° F 100.40° F 99.12° F 81.09° F 37.10% 75.11° F 1010.65mb 8.16mph S 13.72mph 0 0.000"
373495 6/15/2024 6:13pm 100.60° F --° F 100.60° F 102.48° F 81.43° F 37.58% 75.58° F 1010.74mb 5.77mph S 11.65mph 0 0.000"
373494 6/15/2024 6:08pm 100.87° F --° F 100.87° F 101.97° F 81.58° F 37.42% 75.71° F 1010.79mb 6.67mph S 13.03mph 0 0.000"
373493 6/15/2024 6:03pm 101.03° F --° F 101.03° F 102.04° F 81.55° F 37.01% 75.59° F 1010.70mb 6.62mph S 11.65mph 0 0.000"
373492 6/15/2024 5:58pm 101.17° F --° F 101.17° F 101.33° F 81.38° F 36.26% 75.23° F 1010.78mb 7.01mph S 13.72mph 0 0.000"
373491 6/15/2024 5:53pm 101.26° F --° F 101.26° F 103.83° F 81.21° F 35.69% 74.93° F 1010.84mb 4.44mph S 12.34mph 0 0.000"
373490 6/15/2024 5:48pm 101.48° F --° F 101.48° F 99.42° F 81.22° F 35.29% 74.85° F 1010.88mb 8.69mph S 19.88mph 0 0.000"
373489 6/15/2024 5:43pm 101.55° F --° F 101.55° F 102.66° F 81.64° F 36.15% 75.48° F 1010.88mb 6.44mph S 12.34mph 0 0.000"
373488 6/15/2024 5:38pm 101.93° F --° F 101.93° F 102.12° F 82.00° F 36.31% 75.91° F 1010.93mb 7.84mph S 15.08mph 0 0.000"
373487 6/15/2024 5:33pm 102.13° F --° F 102.13° F 104.26° F 82.34° F 36.76% 76.37° F 1010.95mb 6.60mph S 15.08mph 0 0.000"
373486 6/15/2024 5:28pm 102.34° F --° F 102.34° F 99.71° F 82.17° F 35.95% 76.02° F 1010.93mb 10.64mph S 18.53mph 0 0.000"
373485 6/15/2024 5:23pm 102.45° F --° F 102.45° F 101.90° F 82.13° F 35.64% 75.91° F 1011.00mb 8.57mph S 14.41mph 0 0.000"
373484 6/15/2024 5:18pm 102.51° F --° F 102.51° F 100.15° F 82.38° F 36.12% 76.28° F 1011.03mb 10.71mph S 17.84mph 0 0.000"
373483 6/15/2024 5:12pm 102.61° F --° F 102.61° F 98.53° F 82.57° F 36.38% 76.54° F 1011.12mb 12.64mph S 21.95mph 0 0.000"
373482 6/15/2024 5:07pm 102.74° F --° F 102.74° F 102.57° F 82.57° F 36.13% 76.48° F 1011.06mb 8.94mph S 20.57mph 0 0.000"
373481 6/15/2024 5:02pm 102.56° F --° F 102.56° F 99.80° F 82.83° F 37.15% 76.99° F 1011.10mb 11.98mph S 26.76mph 0 0.000"
373480 6/15/2024 4:57pm 102.78° F --° F 102.78° F 106.82° F 82.92° F 36.93% 77.04° F 1011.15mb 5.72mph S 11.65mph 0 0.000"
373479 6/15/2024 4:52pm 102.92° F --° F 102.92° F 103.89° F 82.81° F 36.37% 76.79° F 1011.13mb 8.28mph S 16.46mph 0 0.000"
373478 6/15/2024 4:47pm 103.14° F --° F 103.14° F 103.09° F 82.79° F 35.94% 76.70° F 1011.18mb 9.13mph S 16.46mph 0 0.000"
373477 6/15/2024 4:42pm 103.24° F --° F 103.24° F 101.79° F 82.78° F 35.69% 76.62° F 1011.28mb 10.34mph S 19.22mph 0 0.000"
373476 6/15/2024 4:37pm 103.15° F --° F 103.15° F 104.14° F 83.27° F 37.07% 77.45° F 1011.23mb 9.13mph S 19.88mph 0 0.000"
373475 6/15/2024 4:32pm 103.37° F --° F 103.37° F 108.36° F 83.50° F 37.21% 77.73° F 1011.28mb 5.79mph S 13.72mph 0 0.000"
373474 6/15/2024 4:27pm 103.35° F --° F 103.35° F 105.84° F 83.47° F 37.18% 77.69° F 1011.18mb 8.07mph S 26.76mph 0 0.000"
373473 6/15/2024 4:22pm 103.44° F --° F 103.44° F 103.91° F 83.56° F 37.23% 77.80° F 1011.35mb 10.11mph S 20.57mph 0 0.000"
373472 6/15/2024 4:16pm 103.39° F --° F 103.39° F 103.95° F 83.41° F 36.95% 77.57° F 1011.36mb 9.72mph S 15.77mph 0 0.000"
373471 6/15/2024 4:11pm 103.35° F --° F 103.35° F 101.13° F 83.35° F 36.85% 77.48° F 1011.41mb 12.18mph S 18.53mph 0 0.000"
373470 6/15/2024 4:06pm 103.50° F --° F 103.50° F 104.34° F 83.73° F 37.53% 78.04° F 1011.42mb 10.11mph S 23.33mph 0 0.000"
373469 6/15/2024 4:01pm 103.44° F --° F 103.44° F 103.54° F 83.65° F 37.44% 77.93° F 1011.55mb 10.64mph S 19.88mph 0 0.000"
373468 6/15/2024 3:56pm 103.41° F --° F 103.41° F 100.74° F 83.52° F 37.18% 77.74° F 1011.62mb 12.96mph S 27.45mph 0 0.000"
373467 6/15/2024 3:51pm 103.50° F --° F 103.50° F 101.73° F 83.38° F 36.65% 77.47° F 1011.65mb 11.77mph S 20.57mph 0 0.000"
373466 6/15/2024 3:46pm 103.42° F --° F 103.42° F 110.67° F 84.23° F 38.95% 78.87° F 1011.75mb 5.31mph S 12.34mph 0 0.000"
373465 6/15/2024 3:41pm 103.62° F --° F 103.62° F 105.12° F 84.34° F 38.80% 78.95° F 1011.66mb 10.80mph S 19.22mph 0 0.000"
373464 6/15/2024 3:36pm 103.39° F --° F 103.39° F 107.46° F 84.09° F 38.64% 78.65° F 1011.77mb 7.95mph S 19.22mph 0 0.000"
373463 6/15/2024 3:31pm 103.42° F --° F 103.42° F 101.59° F 83.93° F 38.16% 78.38° F 1011.83mb 13.06mph S 23.33mph 0 0.000"
373462 6/15/2024 3:26pm 103.55° F --° F 103.55° F 107.15° F 84.56° F 39.57% 79.37° F 1011.84mb 9.47mph S 24.00mph 0 0.000"
373461 6/15/2024 3:20pm 103.15° F --° F 103.15° F 104.41° F 84.26° F 39.61% 79.04° F 1011.73mb 11.13mph S 24.69mph 0 0.000"
373460 6/15/2024 3:15pm 102.33° F --° F 102.33° F 104.64° F 84.20° F 41.28% 79.33° F 1011.78mb 10.53mph S 18.53mph 0 0.000"
373459 6/15/2024 3:10pm 100.72° F --° F 100.72° F 105.26° F 83.05° F 41.72% 78.18° F 1011.77mb 6.64mph S 19.22mph 0 0.000"
373458 6/15/2024 3:05pm 100.38° F --° F 100.38° F 101.25° F 82.34° F 40.48% 77.16° F 1011.75mb 8.64mph S 19.22mph 0 0.000"
373457 6/15/2024 3:00pm 101.19° F --° F 101.19° F 97.99° F 82.74° F 39.81% 77.47° F 1011.91mb 12.90mph S 24.00mph 0 0.000"
373456 6/15/2024 2:55pm 102.31° F --° F 102.31° F 108.30° F 83.91° F 40.50% 78.85° F 1011.99mb 6.37mph S 18.53mph 0 0.000"
373455 6/15/2024 2:50pm 102.79° F --° F 102.79° F 104.81° F 83.97° F 39.63% 78.74° F 1011.90mb 9.95mph S 18.53mph 0 0.000"
373454 6/15/2024 2:45pm 101.88° F --° F 101.88° F 107.86° F 84.31° F 42.59% 79.70° F 1011.95mb 7.65mph S 15.08mph 0 0.000"
373453 6/15/2024 2:40pm 99.95° F --° F 99.95° F 101.88° F 82.89° F 43.12% 78.31° F 1011.92mb 9.19mph S 19.88mph 0 0.000"
373452 6/15/2024 2:35pm 98.80° F --° F 98.80° F 99.14° F 81.22° F 40.98% 76.08° F 1011.97mb 7.65mph S 17.15mph 0 0.000"
373451 6/15/2024 2:29pm 98.76° F --° F 98.76° F 99.24° F 81.19° F 41.00% 76.06° F 1011.99mb 7.49mph S 14.41mph 0 0.000"
373450 6/15/2024 2:24pm 98.83° F --° F 98.83° F 98.27° F 81.45° F 41.60% 76.47° F 1012.11mb 8.96mph S 16.46mph 0 0.000"
373449 6/15/2024 2:19pm 98.83° F --° F 98.83° F 95.78° F 81.40° F 41.44% 76.37° F 1012.23mb 11.17mph S 19.22mph 0 0.000"
373448 6/15/2024 2:14pm 99.14° F --° F 99.14° F 99.17° F 82.06° F 42.63% 77.32° F 1012.29mb 9.54mph S 20.57mph 0 0.000"
373447 6/15/2024 2:09pm 99.19° F --° F 99.19° F 101.00° F 81.80° F 41.76% 76.87° F 1012.27mb 7.29mph S 21.95mph 0 0.000"
373446 6/15/2024 2:04pm 99.64° F --° F 99.64° F 98.06° F 82.13° F 41.65% 77.20° F 1012.32mb 10.92mph S 19.88mph 0 0.000"
373445 6/15/2024 1:59pm 100.29° F --° F 100.29° F 101.34° F 82.72° F 41.80% 77.86° F 1012.34mb 9.40mph S 15.08mph 0 0.000"
373444 6/15/2024 1:54pm 101.10° F --° F 101.10° F 103.36° F 83.62° F 42.44% 78.93° F 1012.47mb 9.88mph S 18.53mph 0 0.000"
373443 6/15/2024 1:49pm 100.63° F --° F 100.63° F 107.19° F 83.75° F 43.98% 79.38° F 1012.50mb 6.53mph S 11.65mph 0 0.000"
373442 6/15/2024 1:44pm 100.24° F --° F 100.24° F 111.47° F 84.65° F 47.80% 81.07° F 1012.51mb 4.97mph S 11.65mph 0 0.000"
373441 6/15/2024 1:39pm 99.81° F --° F 99.81° F 120.12° F 86.45° F 55.27% 84.28° F 1012.53mb 2.99mph NW 10.30mph 0 0.000"
373440 6/15/2024 1:33pm 99.59° F --° F 99.59° F 124.17° F 87.20° F 58.82% 85.64° F 1012.50mb 2.30mph NNW 7.54mph 0 0.000"
373439 6/15/2024 1:28pm 98.56° F --° F 98.56° F 120.78° F 86.29° F 58.83% 84.69° F 1012.59mb 2.23mph NNW 3.43mph 0 0.000"
373438 6/15/2024 1:23pm 98.62° F --° F 98.62° F 120.94° F 86.09° F 57.94% 84.37° F 1012.69mb 1.36mph NNW 4.11mph 0 0.000"
373437 6/15/2024 1:18pm 99.18° F --° F 99.18° F 117.66° F 85.62° F 54.22% 83.22° F 1012.77mb 2.39mph NNW 6.18mph 0 0.000"
373436 6/15/2024 1:13pm 99.93° F --° F 99.93° F 119.31° F 86.08° F 53.53% 83.59° F 1012.91mb 2.32mph NNW 4.11mph 0 0.000"
373435 6/15/2024 1:08pm 100.67° F --° F 100.67° F 119.22° F 86.41° F 52.39% 83.72° F 1012.95mb 3.38mph NNW 6.18mph 0 0.000"
373434 6/15/2024 1:03pm 101.08° F --° F 101.08° F 122.86° F 87.51° F 55.04% 85.33° F 1012.90mb 4.07mph NNW 9.61mph 0 0.000"
373433 6/15/2024 12:58pm 101.10° F --° F 101.10° F 121.06° F 87.45° F 54.72% 85.20° F 1012.91mb 5.45mph NW 13.72mph 0 0.000"
373432 6/15/2024 12:53pm 100.80° F --° F 100.80° F 124.32° F 87.57° F 56.14% 85.57° F 1013.01mb 3.06mph NNW 5.49mph 0 0.000"
373431 6/15/2024 12:48pm 100.63° F --° F 100.63° F 118.02° F 86.65° F 53.38% 84.15° F 1012.98mb 5.42mph NNW 11.65mph 0 0.000"
373430 6/15/2024 12:43pm 100.53° F --° F 100.53° F 121.27° F 87.01° F 54.96% 84.79° F 1013.10mb 3.77mph NNW 6.18mph 0 0.000"
373429 6/15/2024 12:38pm 100.33° F --° F 100.33° F 119.72° F 86.94° F 55.40% 84.81° F 1013.09mb 5.08mph NNW 17.84mph 0 0.000"
373428 6/15/2024 12:33pm 100.13° F --° F 100.13° F 124.44° F 87.58° F 58.40% 85.95° F 1013.15mb 3.33mph NNW 5.49mph 0 0.000"
373427 6/15/2024 12:28pm 99.88° F --° F 99.88° F 122.46° F 87.04° F 57.26% 85.23° F 1013.26mb 3.13mph NNW 5.49mph 0 0.000"
373426 6/15/2024 12:23pm 99.81° F --° F 99.81° F 123.54° F 87.26° F 58.28% 85.61° F 1013.22mb 3.01mph NNW 4.80mph 0 0.000"
373425 6/15/2024 12:18pm 99.66° F --° F 99.66° F 123.85° F 87.45° F 59.59% 86.03° F 1013.34mb 3.68mph NNW 7.54mph 0 0.000"
373424 6/15/2024 12:13pm 99.52° F --° F 99.52° F 121.45° F 86.88° F 57.88% 85.17° F 1013.34mb 3.61mph NNW 6.85mph 0 0.000"
373423 6/15/2024 12:08pm 99.50° F --° F 99.50° F 123.38° F 87.26° F 59.40% 85.80° F 1013.35mb 3.38mph NNW 6.85mph 0 0.000"
373422 6/15/2024 12:02pm 99.32° F --° F 99.32° F 121.48° F 86.90° F 58.59% 85.29° F 1013.38mb 3.70mph NNW 10.30mph 0 0.000"
373421 6/15/2024 11:57am 99.25° F --° F 99.25° F 122.38° F 87.08° F 59.58% 85.65° F 1013.36mb 3.70mph NNW 6.85mph 0 0.000"
373420 6/15/2024 11:52am 99.10° F --° F 99.10° F 123.47° F 87.13° F 60.26% 85.80° F 1013.36mb 2.94mph NNW 4.80mph 0 0.000"
373419 6/15/2024 11:47am 98.85° F --° F 98.85° F 124.87° F 87.58° F 63.09% 86.73° F 1013.52mb 3.91mph NNW 10.96mph 0 0.000"
373418 6/15/2024 11:42am 98.55° F --° F 98.55° F 119.74° F 86.22° F 58.61% 84.59° F 1013.54mb 2.94mph NNW 5.49mph 0 0.000"
373417 6/15/2024 11:37am 98.49° F --° F 98.49° F 122.93° F 87.06° F 62.21% 86.04° F 1013.59mb 3.54mph NNW 5.49mph 0 0.000"
373416 6/15/2024 11:32am 98.38° F --° F 98.38° F 121.34° F 86.71° F 61.24% 85.54° F 1013.55mb 3.63mph NNW 6.85mph 0 0.000"
373415 6/15/2024 11:27am 98.13° F --° F 98.13° F 125.95° F 87.55° F 65.82% 87.13° F 1013.50mb 3.45mph NNW 7.54mph 0 0.000"
373414 6/15/2024 11:22am 98.11° F --° F 98.11° F 123.97° F 87.35° F 65.00% 86.79° F 1013.76mb 4.32mph NNW 10.30mph 0 0.000"
373413 6/15/2024 11:17am 97.97° F --° F 97.97° F 128.66° F 87.98° F 68.35% 87.94° F 1013.63mb 3.22mph NNW 5.49mph 0 0.000"
373412 6/15/2024 11:12am 97.90° F --° F 97.90° F 133.97° F 88.78° F 72.50% 89.39° F 1013.73mb 2.92mph NNW 4.80mph 0 0.000"
373411 6/15/2024 11:07am 97.77° F --° F 97.77° F 132.22° F 88.53° F 71.92% 89.06° F 1013.67mb 3.33mph NW 5.49mph 0 0.000"
373410 6/15/2024 11:02am 97.50° F --° F 97.50° F 134.72° F 88.83° F 74.57% 89.74° F 1013.78mb 3.13mph NNW 6.18mph 0 0.000"
373409 6/15/2024 10:57am 97.30° F --° F 97.30° F 137.95° F 89.28° F 77.99% 90.71° F 1013.60mb 3.54mph NNW 6.18mph 0 0.000"
373408 6/15/2024 10:52am 97.03° F --° F 97.03° F 144.43° F 90.02° F 83.43% 92.21° F 1013.69mb 3.36mph NNW 6.18mph 0 0.000"
373407 6/15/2024 10:47am 96.73° F --° F 96.73° F 145.58° F 90.05° F 85.30% 92.50° F 1013.65mb 3.36mph NW 6.18mph 0 0.000"
373406 6/15/2024 10:42am 96.24° F --° F 96.24° F 150.52° F 90.51° F 90.89% 93.69° F 1013.66mb 3.93mph NNW 13.03mph 0 0.000"
373405 6/15/2024 10:36am 95.86° F --° F 95.86° F 145.47° F 90.00° F 90.01% 93.06° F 1013.65mb 5.45mph NNW 14.41mph 0 0.000"
373404 6/15/2024 10:31am 95.16° F --° F 95.16° F 157.11° F 90.62° F 98.71% 94.81° F 1013.70mb 2.80mph NNW 4.80mph 0 0.000"
373403 6/15/2024 10:26am 94.24° F --° F 94.24° F 151.44° F 89.75° F 99.15% 94.01° F 1013.76mb 3.38mph NNW 8.92mph 0 0.000"
373402 6/15/2024 10:21am 94.55° F --° F 94.55° F 151.41° F 89.88° F 97.99% 94.01° F 1013.65mb 3.61mph NNW 9.61mph 0 0.000"
373401 6/15/2024 10:16am 95.14° F --° F 95.14° F 153.22° F 90.34° F 96.89% 94.30° F 1013.74mb 3.75mph NNW 10.30mph 0 0.000"
373400 6/15/2024 10:11am 94.84° F --° F 94.84° F 156.77° F 90.49° F 100.00% 94.84° F 1013.69mb 3.06mph NNW 5.49mph 0 0.000"
373399 6/15/2024 10:06am 94.24° F --° F 94.24° F 152.89° F 89.89° F 100.00% 94.24° F 1013.65mb 3.17mph NNW 6.18mph 0 0.000"
373398 6/15/2024 10:01am 93.42° F --° F 93.42° F 147.85° F 89.05° F 100.00% 93.42° F 1013.75mb 3.17mph NNW 6.18mph 0 0.000"
373397 6/15/2024 9:56am 93.54° F --° F 93.54° F 148.41° F 89.18° F 100.00% 93.54° F 1013.77mb 3.33mph NNW 11.65mph 0 0.000"
373396 6/15/2024 9:51am 94.08° F --° F 94.08° F 151.55° F 89.72° F 100.00% 94.08° F 1013.74mb 3.49mph NNW 7.54mph 0 0.000"
373395 6/15/2024 9:46am 94.30° F --° F 94.30° F 153.19° F 89.94° F 100.00% 94.30° F 1013.79mb 3.24mph NNW 5.49mph 0 0.000"
373394 6/15/2024 9:41am 93.74° F --° F 93.74° F 150.22° F 89.38° F 100.00% 93.74° F 1013.82mb 2.78mph NNW 4.11mph 0 0.000"
373393 6/15/2024 9:36am 92.62° F --° F 92.62° F 143.41° F 88.26° F 100.00% 92.62° F 1013.78mb 2.85mph NNW 4.80mph 0 0.000"
373392 6/15/2024 9:31am 92.08° F --° F 92.08° F 140.54° F 87.71° F 100.00% 92.08° F 1013.85mb 2.57mph N 5.49mph 0 0.000"
373391 6/15/2024 9:26am 92.48° F --° F 92.48° F 142.39° F 88.11° F 100.00% 92.48° F 1013.75mb 3.03mph NNW 6.18mph 0 0.000"
373390 6/15/2024 9:21am 92.86° F --° F 92.86° F 147.07° F 88.49° F 100.00% 92.86° F 1013.74mb 0.76mph NNW 2.74mph 0 0.000"
373389 6/15/2024 9:16am 92.68° F --° F 92.68° F 144.08° F 88.31° F 100.00% 92.68° F 1013.74mb 2.55mph NNW 4.11mph 0 0.000"
373388 6/15/2024 9:11am 91.83° F --° F 91.83° F 139.54° F 87.46° F 100.00% 91.83° F 1013.79mb 2.16mph NNW 6.85mph 0 0.000"
373387 6/15/2024 9:05am 90.70° F --° F 90.70° F 131.73° F 86.32° F 100.00% 90.70° F 1013.78mb 3.49mph NNW 8.92mph 0 0.000"
373386 6/15/2024 9:00am 90.19° F --° F 90.19° F 128.36° F 85.81° F 100.00% 90.19° F 1013.83mb 4.02mph NW 10.30mph 0 0.000"
373385 6/15/2024 8:55am 90.50° F --° F 90.50° F 131.55° F 86.12° F 100.00% 90.50° F 1013.77mb 2.62mph NNW 6.85mph 0 0.000"
373384 6/15/2024 8:50am 90.79° F --° F 90.79° F 130.62° F 86.41° F 100.00% 90.79° F 1013.77mb 4.99mph NNW 10.96mph 0 0.000"
373383 6/15/2024 8:45am 91.72° F --° F 91.72° F 137.23° F 87.35° F 100.00% 91.72° F 1013.80mb 3.72mph NNW 8.92mph 0 0.000"
373382 6/15/2024 8:40am 91.42° F --° F 91.42° F 135.41° F 87.04° F 100.00% 91.42° F 1013.81mb 3.82mph NNW 11.65mph 0 0.000"
373381 6/15/2024 8:35am 90.45° F --° F 90.45° F 130.84° F 86.06° F 100.00% 90.45° F 1013.83mb 3.03mph N 4.80mph 0 0.000"
373380 6/15/2024 8:30am 88.84° F --° F 88.84° F 122.19° F 84.45° F 100.00% 88.84° F 1013.85mb 3.08mph NNW 11.65mph 0 0.000"
373379 6/15/2024 8:25am 88.30° F --° F 88.30° F 122.21° F 83.91° F 100.00% 88.30° F 1013.85mb 0.48mph NNW 2.74mph 0 0.000"
373378 6/15/2024 8:20am 88.05° F --° F 88.05° F 119.83° F 83.65° F 100.00% 88.05° F 1013.75mb 1.52mph NNW 9.61mph 0 0.000"
373377 6/15/2024 8:15am 88.61° F --° F 88.61° F 122.18° F 84.21° F 100.00% 88.61° F 1013.74mb 1.98mph NNW 4.80mph 0 0.000"
373376 6/15/2024 8:10am 89.29° F --° F 89.29° F 125.93° F 84.90° F 100.00% 89.29° F 1013.58mb 1.79mph NNW 4.80mph 0 0.000"
373375 6/15/2024 8:05am 90.09° F --° F 90.09° F 130.03° F 85.70° F 100.00% 90.09° F 1013.51mb 1.95mph NNW 4.11mph 0 0.000"
373374 6/15/2024 8:00am 89.53° F --° F 89.53° F 124.09° F 85.14° F 100.00% 89.53° F 1013.46mb 4.69mph NNW 10.30mph 0 0.000"
373373 6/15/2024 7:55am 87.94° F --° F 87.94° F 118.61° F 83.54° F 100.00% 87.94° F 1013.43mb 2.14mph NNW 6.85mph 0 0.000"
373372 6/15/2024 7:50am 86.68° F --° F 86.68° F 109.82° F 82.27° F 100.00% 86.68° F 1013.41mb 4.60mph NNW 13.72mph 0 0.000"
373371 6/15/2024 7:45am 86.81° F --° F 86.81° F 115.05° F 82.40° F 100.00% 86.81° F 1013.41mb 0.30mph N 2.07mph 0 0.000"
373370 6/15/2024 7:39am 87.12° F --° F 87.12° F 114.91° F 82.71° F 100.00% 87.12° F 1013.35mb 1.82mph NNW 5.49mph 0 0.000"
373369 6/15/2024 7:34am 87.60° F --° F 87.60° F 115.76° F 83.20° F 100.00% 87.60° F 1013.30mb 3.22mph NNW 7.54mph 0 0.000"
373368 6/15/2024 7:29am 87.89° F --° F 87.89° F 115.95° F 83.49° F 100.00% 87.89° F 1013.35mb 4.39mph NW 10.30mph 0 0.000"
373367 6/15/2024 7:24am 86.74° F --° F 86.74° F 111.85° F 82.33° F 100.00% 86.74° F 1013.17mb 2.97mph NNW 6.85mph 0 0.000"
373366 6/15/2024 7:19am 85.48° F --° F 85.48° F 105.67° F 81.06° F 100.00% 85.48° F 1013.19mb 3.26mph NNW 8.23mph 0 0.000"
373365 6/15/2024 7:14am 85.96° F --° F 85.96° F 109.03° F 81.55° F 100.00% 85.96° F 1013.20mb 2.18mph NNW 6.85mph 0 0.000"
373364 6/15/2024 7:09am 86.56° F --° F 86.56° F 112.43° F 82.15° F 100.00% 86.56° F 1013.07mb 1.63mph NNW 7.54mph 0 0.000"
373363 6/15/2024 7:04am 87.39° F --° F 87.39° F 117.12° F 82.98° F 100.00% 87.39° F 1013.07mb 0.99mph N 2.74mph 0 0.000"
373362 6/15/2024 6:59am 87.49° F --° F 87.49° F 118.01° F 83.09° F 100.00% 87.49° F 1012.97mb 0.62mph NNW 2.07mph 0 0.000"
373361 6/15/2024 6:54am 86.52° F --° F 86.52° F 110.44° F 82.11° F 100.00% 86.52° F 1012.98mb 3.31mph NNW 8.23mph 0 0.000"
373360 6/15/2024 6:49am 84.74° F --° F 84.74° F 103.49° F 80.32° F 100.00% 84.74° F 1012.88mb 2.21mph NNW 8.92mph 0 0.000"
373359 6/15/2024 6:44am 83.48° F --° F 83.48° F 98.75° F 79.05° F 100.00% 83.48° F 1012.75mb 1.61mph NNW 14.41mph 0 0.000"
373358 6/15/2024 6:39am 83.62° F --° F 83.62° F 101.06° F 79.19° F 100.00% 83.62° F 1012.77mb 0.00mph -- 0.00mph 0 0.000"
373357 6/15/2024 6:34am 83.86° F --° F 83.86° F 102.07° F 79.43° F 100.00% 83.86° F 1012.64mb 0.00mph -- 0.00mph 0 0.000"
373356 6/15/2024 6:29am 84.15° F --° F 84.15° F 103.30° F 79.72° F 100.00% 84.15° F 1012.69mb 0.00mph -- 0.00mph 0 0.000"
373355 6/15/2024 6:24am 84.49° F --° F 84.49° F 104.77° F 80.06° F 100.00% 84.49° F 1012.65mb 0.00mph -- 0.00mph 0 0.000"
373354 6/15/2024 6:19am 84.96° F --° F 84.96° F 106.78° F 80.53° F 100.00% 84.96° F 1012.52mb 0.05mph N 1.38mph 0 0.000"
373353 6/15/2024 6:14am 85.57° F --° F 85.57° F 106.76° F 81.15° F 100.00% 85.57° F 1012.51mb 2.62mph NNW 4.11mph 0 0.000"
373352 6/15/2024 6:08am 85.91° F --° F 85.91° F 108.13° F 81.49° F 100.00% 85.91° F 1012.44mb 2.80mph NNW 4.11mph 0 0.000"
373351 6/15/2024 6:03am 85.23° F --° F 85.23° F 105.13° F 80.81° F 100.00% 85.23° F 1012.43mb 2.71mph NNW 4.11mph 0 0.000"
373350 6/15/2024 5:58am 84.04° F --° F 84.04° F 99.47° F 79.61° F 100.00% 84.04° F 1012.50mb 3.13mph NNW 4.80mph 0 0.000"
373349 6/15/2024 5:53am 83.44° F --° F 83.44° F 98.11° F 79.01° F 100.00% 83.44° F 1012.42mb 2.05mph NNW 6.18mph 0 0.000"
373348 6/15/2024 5:48am 83.98° F --° F 83.98° F 102.57° F 79.55° F 100.00% 83.98° F 1012.43mb 0.00mph -- 0.00mph 0 0.000"
373347 6/15/2024 5:43am 84.47° F --° F 84.47° F 104.68° F 80.04° F 100.00% 84.47° F 1012.33mb 0.00mph -- 0.00mph 0 0.000"
373346 6/15/2024 5:38am 85.06° F --° F 85.06° F 104.98° F 80.64° F 100.00% 85.06° F 1012.24mb 2.14mph NNW 4.80mph 0 0.000"
373345 6/15/2024 5:33am 85.57° F --° F 85.57° F 105.72° F 81.15° F 100.00% 85.57° F 1012.19mb 3.59mph NNW 5.49mph 0 0.000"
373344 6/15/2024 5:28am 84.74° F --° F 84.74° F 103.28° F 80.32° F 100.00% 84.74° F 1012.22mb 2.41mph NNW 2.74mph 0 0.000"
373343 6/15/2024 5:23am 83.43° F --° F 83.43° F 99.01° F 78.99° F 100.00% 83.43° F 1012.10mb 1.17mph NNW 3.43mph 0 0.000"
373342 6/15/2024 5:18am 82.83° F --° F 82.83° F 97.82° F 78.39° F 100.00% 82.83° F 1012.01mb 0.00mph -- 0.00mph 0 0.000"
373341 6/15/2024 5:13am 83.05° F --° F 83.05° F 98.71° F 78.61° F 100.00% 83.05° F 1012.08mb 0.00mph -- 0.00mph 0 0.000"
373340 6/15/2024 5:08am 83.23° F --° F 83.23° F 99.44° F 78.79° F 100.00% 83.23° F 1011.94mb 0.00mph -- 0.00mph 0 0.000"
373339 6/15/2024 5:03am 83.64° F --° F 83.64° F 101.14° F 79.21° F 100.00% 83.64° F 1011.96mb 0.00mph -- 0.00mph 0 0.000"
373338 6/15/2024 4:58am 84.16° F --° F 84.16° F 103.34° F 79.74° F 100.00% 84.16° F 1012.01mb 0.00mph -- 0.00mph 0 0.000"
373337 6/15/2024 4:53am 84.72° F --° F 84.72° F 105.77° F 80.30° F 100.00% 84.72° F 1011.93mb 0.00mph -- 0.00mph 0 0.000"
373336 6/15/2024 4:48am 85.41° F --° F 85.41° F 108.83° F 80.99° F 100.00% 85.41° F 1011.93mb 0.02mph N 0.69mph 0 0.000"
373335 6/15/2024 4:43am 85.41° F --° F 85.41° F 107.96° F 80.99° F 100.00% 85.41° F 1011.85mb 0.83mph NNW 3.43mph 0 0.000"
373334 6/15/2024 4:38am 84.83° F --° F 84.83° F 104.60° F 80.41° F 100.00% 84.83° F 1011.86mb 1.54mph NNW 2.74mph 0 0.000"
373333 6/15/2024 4:32am 83.93° F --° F 83.93° F 101.15° F 79.50° F 100.00% 83.93° F 1011.83mb 1.13mph NNW 2.74mph 0 0.000"
373332 6/15/2024 4:27am 83.64° F --° F 83.64° F 101.14° F 79.21° F 100.00% 83.64° F 1011.78mb 0.00mph -- 0.00mph 0 0.000"
373331 6/15/2024 4:22am 84.06° F --° F 84.06° F 102.92° F 79.63° F 100.00% 84.06° F 1011.78mb 0.00mph -- 0.00mph 0 0.000"
373330 6/15/2024 4:17am 84.51° F --° F 84.51° F 104.85° F 80.08° F 100.00% 84.51° F 1011.74mb 0.00mph -- 0.00mph 0 0.000"
373329 6/15/2024 4:12am 85.08° F --° F 85.08° F 107.36° F 80.66° F 100.00% 85.08° F 1011.78mb 0.00mph -- 0.00mph 0 0.000"
373328 6/15/2024 4:07am 85.77° F --° F 85.77° F 110.49° F 81.35° F 100.00% 85.77° F 1011.78mb 0.00mph -- 0.00mph 0 0.000"
373327 6/15/2024 4:02am 86.52° F --° F 86.52° F 113.99° F 82.11° F 100.00% 86.52° F 1011.64mb 0.00mph -- 0.69mph 0 0.000"
373326 6/15/2024 3:57am 86.52° F --° F 86.52° F 113.97° F 82.11° F 100.00% 86.52° F 1011.66mb 0.02mph N 0.69mph 0 0.000"
373325 6/15/2024 3:52am 85.80° F --° F 85.80° F 110.63° F 81.39° F 100.00% 85.80° F 1011.66mb 0.00mph -- 0.00mph 0 0.000"
373324 6/15/2024 3:47am 84.61° F --° F 84.61° F 105.29° F 80.19° F 100.00% 84.61° F 1011.66mb 0.00mph -- 0.00mph 0 0.000"
373323 6/15/2024 3:42am 84.43° F --° F 84.43° F 104.51° F 80.01° F 100.00% 84.43° F 1011.62mb 0.00mph -- 0.69mph 0 0.000"
373322 6/15/2024 3:37am 84.65° F --° F 84.65° F 105.46° F 80.23° F 100.00% 84.65° F 1011.70mb 0.00mph -- 0.00mph 0 0.000"
373321 6/15/2024 3:32am 84.94° F --° F 84.94° F 106.74° F 80.52° F 100.00% 84.94° F 1011.56mb 0.00mph -- 0.00mph 0 0.000"
373320 6/15/2024 3:27am 85.32° F --° F 85.32° F 108.42° F 80.90° F 100.00% 85.32° F 1011.62mb 0.02mph N 0.69mph 0 0.000"
373319 6/15/2024 3:22am 85.71° F --° F 85.71° F 110.21° F 81.30° F 100.00% 85.71° F 1011.68mb 0.00mph -- 0.00mph 0 0.000"
373318 6/15/2024 3:17am 86.27° F --° F 86.27° F 112.81° F 81.86° F 100.00% 86.27° F 1011.70mb 0.00mph -- 0.00mph 0 0.000"
373317 6/15/2024 3:12am 86.63° F --° F 86.63° F 114.46° F 82.22° F 100.00% 86.63° F 1011.70mb 0.05mph N 1.38mph 0 0.000"
373316 6/15/2024 3:07am 86.22° F --° F 86.22° F 111.64° F 81.80° F 100.00% 86.22° F 1011.76mb 0.87mph NNW 3.43mph 0 0.000"
373315 6/15/2024 3:02am 85.51° F --° F 85.51° F 109.03° F 81.10° F 100.00% 85.51° F 1011.65mb 0.25mph NNW 2.74mph 0 0.000"
373314 6/15/2024 2:56am 84.92° F --° F 84.92° F 106.65° F 80.50° F 100.00% 84.92° F 1011.72mb 0.00mph -- 0.00mph 0 0.000"
373313 6/15/2024 2:51am 85.19° F --° F 85.19° F 107.86° F 80.77° F 100.00% 85.19° F 1011.79mb 0.00mph -- 0.00mph 0 0.000"
373312 6/15/2024 2:46am 85.59° F --° F 85.59° F 109.66° F 81.17° F 100.00% 85.59° F 1011.75mb 0.00mph -- 0.00mph 0 0.000"
373311 6/15/2024 2:41am 86.07° F --° F 86.07° F 111.87° F 81.66° F 100.00% 86.07° F 1011.70mb 0.00mph -- 0.00mph 0 0.000"
373310 6/15/2024 2:36am 86.67° F --° F 86.67° F 114.70° F 82.26° F 100.00% 86.67° F 1011.73mb 0.00mph -- 0.00mph 0 0.000"
373309 6/15/2024 2:31am 87.28° F --° F 87.28° F 117.64° F 82.87° F 100.00% 87.28° F 1011.84mb 0.00mph -- 0.00mph 0 0.000"
373308 6/15/2024 2:26am 87.12° F --° F 87.12° F 116.77° F 82.71° F 100.00% 87.12° F 1011.80mb 0.09mph N 2.07mph 0 0.000"
373307 6/15/2024 2:21am 86.59° F --° F 86.59° F 114.15° F 82.18° F 100.00% 86.59° F 1011.93mb 0.16mph N 2.74mph 0 0.000"
373306 6/15/2024 2:16am 85.80° F --° F 85.80° F 110.19° F 81.39° F 100.00% 85.80° F 1011.98mb 0.41mph N 3.43mph 0 0.000"
373305 6/15/2024 2:11am 86.11° F --° F 86.11° F 112.06° F 81.69° F 100.00% 86.11° F 1012.00mb 0.00mph -- 0.00mph 0 0.000"
373304 6/15/2024 2:06am 86.59° F --° F 86.59° F 114.32° F 82.18° F 100.00% 86.59° F 1012.00mb 0.00mph -- 0.00mph 0 0.000"
373303 6/15/2024 2:01am 87.15° F --° F 87.15° F 117.01° F 82.75° F 100.00% 87.15° F 1012.16mb 0.00mph -- 0.00mph 0 0.000"
373302 6/15/2024 1:56am 87.89° F --° F 87.89° F 120.66° F 83.49° F 100.00% 87.89° F 1012.16mb 0.00mph -- 0.00mph 0 0.000"
373301 6/15/2024 1:51am 87.85° F --° F 87.85° F 120.46° F 83.45° F 100.00% 87.85° F 1012.29mb 0.00mph -- 0.00mph 0 0.000"
373300 6/15/2024 1:46am 87.19° F --° F 87.19° F 117.20° F 82.78° F 100.00% 87.19° F 1012.36mb 0.00mph -- 0.00mph 0 0.000"
373299 6/15/2024 1:41am 86.00° F --° F 86.00° F 111.55° F 81.59° F 100.00% 86.00° F 1012.24mb 0.00mph -- 0.00mph 0 0.000"
373298 6/15/2024 1:36am 86.16° F --° F 86.16° F 112.29° F 81.75° F 100.00% 86.16° F 1012.23mb 0.00mph -- 0.00mph 0 0.000"
373297 6/15/2024 1:31am 86.61° F --° F 86.61° F 114.41° F 82.20° F 100.00% 86.61° F 1012.24mb 0.00mph -- 0.00mph 0 0.000"
373296 6/15/2024 1:26am 87.21° F --° F 87.21° F 117.30° F 82.80° F 100.00% 87.21° F 1012.21mb 0.00mph -- 0.00mph 0 0.000"
373295 6/15/2024 1:21am 87.75° F --° F 87.75° F 119.96° F 83.34° F 100.00% 87.75° F 1012.25mb 0.00mph -- 0.00mph 0 0.000"
373294 6/15/2024 1:16am 87.55° F --° F 87.55° F 118.97° F 83.14° F 100.00% 87.55° F 1012.21mb 0.00mph -- 0.00mph 0 0.000"
373293 6/15/2024 1:10am 87.01° F --° F 87.01° F 116.33° F 82.60° F 100.00% 87.01° F 1012.31mb 0.00mph -- 0.00mph 0 0.000"
373292 6/15/2024 1:05am 87.01° F --° F 87.01° F 116.33° F 82.60° F 100.00% 87.01° F 1012.34mb 0.00mph -- 0.00mph 0 0.000"
373291 6/15/2024 1:00am 87.60° F --° F 87.60° F 119.21° F 83.20° F 100.00% 87.60° F 1012.40mb 0.00mph -- 0.00mph 0 0.000"
373290 6/15/2024 12:55am 88.29° F --° F 88.29° F 122.67° F 83.89° F 100.00% 88.29° F 1012.46mb 0.00mph -- 0.69mph 0 0.000"
373289 6/15/2024 12:50am 88.43° F --° F 88.43° F 122.91° F 84.03° F 100.00% 88.43° F 1012.45mb 0.44mph NNW 2.07mph 0 0.000"
373288 6/15/2024 12:45am 87.94° F --° F 87.94° F 120.85° F 83.54° F 100.00% 87.94° F 1012.57mb 0.05mph N 0.69mph 0 0.000"
373287 6/15/2024 12:40am 87.35° F --° F 87.35° F 117.98° F 82.94° F 100.00% 87.35° F 1012.59mb 0.00mph -- 0.00mph 0 0.000"
373286 6/15/2024 12:35am 87.62° F --° F 87.62° F 119.31° F 83.22° F 100.00% 87.62° F 1012.55mb 0.00mph -- 0.00mph 0 0.000"
373285 6/15/2024 12:30am 88.18° F --° F 88.18° F 122.12° F 83.78° F 100.00% 88.18° F 1012.64mb 0.00mph -- 0.00mph 0 0.000"
373284 6/15/2024 12:25am 88.79° F --° F 88.79° F 125.21° F 84.39° F 100.00% 88.79° F 1012.69mb 0.02mph N 0.69mph 0 0.000"
373283 6/15/2024 12:20am 88.84° F --° F 88.84° F 125.42° F 84.45° F 100.00% 88.84° F 1012.71mb 0.07mph N 1.38mph 0 0.000"
373282 6/15/2024 12:15am 88.77° F --° F 88.77° F 125.01° F 84.38° F 100.00% 88.77° F 1012.67mb 0.11mph N 2.07mph 0 0.000"
373281 6/15/2024 12:10am 88.34° F --° F 88.34° F 122.93° F 83.94° F 100.00% 88.34° F 1012.72mb 0.00mph -- 0.00mph 0 0.000"
373280 6/15/2024 12:05am 88.75° F --° F 88.75° F 125.03° F 84.36° F 100.00% 88.75° F 1012.71mb 0.00mph -- 0.00mph 0 0.000"
373279 6/14/2024 11:59pm 89.44° F --° F 89.44° F 128.64° F 85.05° F 100.00% 89.44° F 1012.58mb 0.00mph -- 0.69mph 0 0.000"
373278 6/14/2024 11:54pm 89.74° F --° F 89.74° F 127.87° F 85.36° F 100.00% 89.74° F 1012.59mb 2.21mph NW 4.80mph 0 0.000"
373277 6/14/2024 11:49pm 89.37° F --° F 89.37° F 128.10° F 84.97° F 100.00% 89.37° F 1012.64mb 0.16mph NNW 3.43mph 0 0.000"
373276 6/14/2024 11:44pm 88.81° F --° F 88.81° F 125.34° F 84.41° F 100.00% 88.81° F 1012.70mb 0.00mph -- 0.00mph 0 0.000"
373275 6/14/2024 11:39pm 89.28° F --° F 89.28° F 127.79° F 84.88° F 100.00% 89.28° F 1012.57mb 0.00mph -- 0.00mph 0 0.000"
373274 6/14/2024 11:34pm 89.96° F --° F 89.96° F 131.42° F 85.57° F 100.00% 89.96° F 1012.62mb 0.00mph -- 0.69mph 0 0.000"
373273 6/14/2024 11:29pm 90.18° F --° F 90.18° F 132.39° F 85.79° F 100.00% 90.18° F 1012.65mb 0.21mph NNW 2.07mph 0 0.000"
373272 6/14/2024 11:24pm 89.73° F --° F 89.73° F 130.18° F 85.34° F 100.00% 89.73° F 1012.63mb 0.00mph -- 0.00mph 0 0.000"
373271 6/14/2024 11:19pm 89.20° F --° F 89.20° F 127.37° F 84.81° F 100.00% 89.20° F 1012.64mb 0.00mph -- 0.00mph 0 0.000"
373270 6/14/2024 11:14pm 89.67° F --° F 89.67° F 129.86° F 85.28° F 100.00% 89.67° F 1012.59mb 0.00mph -- 0.00mph 0 0.000"
373269 6/14/2024 11:09pm 90.43° F --° F 90.43° F 133.98° F 86.04° F 100.00% 90.43° F 1012.65mb 0.00mph -- 0.00mph 0 0.000"
373268 6/14/2024 11:04pm 91.08° F --° F 91.08° F 137.59° F 86.70° F 100.00% 91.08° F 1012.59mb 0.00mph -- 0.69mph 0 0.000"
373267 6/14/2024 10:59pm 90.68° F --° F 90.68° F 134.75° F 86.30° F 100.00% 90.68° F 1012.54mb 0.57mph NNW 2.07mph 0 0.000"
373266 6/14/2024 10:54pm 90.03° F --° F 90.03° F 130.37° F 85.65° F 100.00% 90.03° F 1012.57mb 1.33mph W 4.11mph 0 0.000"
373265 6/14/2024 10:49pm 89.51° F --° F 89.51° F 128.82° F 85.12° F 100.00% 89.51° F 1012.61mb 0.18mph N 2.74mph 0 0.000"
373264 6/14/2024 10:44pm 90.07° F --° F 90.07° F 131.71° F 85.68° F 100.00% 90.07° F 1012.67mb 0.28mph N 2.74mph 0 0.000"
373263 6/14/2024 10:39pm 90.77° F --° F 90.77° F 135.79° F 86.36° F 99.94% 90.75° F 1012.68mb 0.00mph -- 0.00mph 0 0.000"
373262 6/14/2024 10:34pm 91.11° F --° F 91.11° F 137.24° F 86.73° F 100.00% 91.11° F 1012.56mb 0.48mph NNW 3.43mph 0 0.000"
373261 6/14/2024 10:28pm 90.82° F --° F 90.82° F 135.54° F 86.44° F 100.00% 90.82° F 1012.51mb 0.55mph N 3.43mph 0 0.000"
373260 6/14/2024 10:23pm 90.32° F --° F 90.32° F 132.52° F 85.94° F 100.00% 90.32° F 1012.46mb 0.80mph N 3.43mph 0 0.000"
373259 6/14/2024 10:18pm 90.43° F --° F 90.43° F 128.51° F 85.64° F 97.16% 89.68° F 1012.42mb 2.30mph NNW 4.80mph 0 0.000"
373258 6/14/2024 10:13pm 91.18° F --° F 91.18° F 129.87° F 86.09° F 94.88% 89.82° F 1012.43mb 2.41mph NW 4.80mph 0 0.000"
373257 6/14/2024 10:08pm 91.74° F --° F 91.74° F 132.59° F 86.65° F 94.93% 90.38° F 1012.37mb 2.64mph NNW 4.80mph 0 0.000"
373256 6/14/2024 10:03pm 91.53° F --° F 91.53° F 132.30° F 86.46° F 95.11% 90.22° F 1012.33mb 2.07mph S 7.54mph 0 0.000"
373255 6/14/2024 9:58pm 91.13° F --° F 91.13° F 130.52° F 86.23° F 96.22% 90.13° F 1012.27mb 2.92mph S 5.49mph 0 0.000"
373254 6/14/2024 9:53pm 90.81° F --° F 90.81° F 123.32° F 85.12° F 90.72% 88.30° F 1012.27mb 2.80mph S 5.49mph 0 0.000"
373253 6/14/2024 9:48pm 91.51° F --° F 91.51° F 124.57° F 85.43° F 88.15% 88.25° F 1012.18mb 2.25mph NNW 4.11mph 0 0.000"
373252 6/14/2024 9:43pm 91.99° F --° F 91.99° F 126.64° F 85.95° F 88.44% 88.80° F 1012.13mb 2.69mph S 6.18mph 0 0.000"
373251 6/14/2024 9:38pm 91.94° F --° F 91.94° F 123.96° F 85.76° F 87.69% 88.53° F 1012.06mb 4.23mph S 8.23mph 0 0.000"
373250 6/14/2024 9:33pm 91.65° F --° F 91.65° F 122.23° F 85.44° F 87.45% 88.18° F 1012.07mb 4.37mph S 8.92mph 0 0.000"
373249 6/14/2024 9:28pm 91.65° F --° F 91.65° F 114.75° F 83.75° F 77.18% 85.01° F 1011.96mb 2.18mph S 8.23mph 0 0.000"
373248 6/14/2024 9:23pm 92.48° F --° F 92.48° F 114.51° F 84.01° F 74.20% 84.82° F 1011.98mb 2.76mph S 6.18mph 0 0.000"
373247 6/14/2024 9:17pm 92.98° F --° F 92.98° F 116.42° F 84.40° F 73.80% 85.16° F 1011.87mb 2.34mph S 4.80mph 0 0.000"
373246 6/14/2024 9:12pm 92.97° F --° F 92.97° F 113.77° F 84.23° F 72.91% 84.84° F 1011.85mb 4.00mph S 6.85mph 0 0.000"
373245 6/14/2024 9:07pm 92.84° F --° F 92.84° F 113.90° F 84.07° F 72.70% 84.65° F 1011.85mb 3.26mph S 6.18mph 0 0.000"
373244 6/14/2024 9:02pm 92.52° F --° F 92.52° F 111.41° F 83.81° F 72.93% 84.42° F 1011.76mb 4.71mph S 8.92mph 0 0.000"
373243 6/14/2024 8:57pm 92.03° F --° F 92.03° F 107.61° F 83.15° F 71.93% 83.61° F 1011.74mb 5.86mph S 10.30mph 0 0.000"
373242 6/14/2024 8:52pm 92.77° F --° F 92.77° F 105.60° F 82.44° F 64.87% 81.75° F 1011.69mb 4.53mph S 9.61mph 0 0.000"
373241 6/14/2024 8:47pm 93.72° F --° F 93.72° F 104.78° F 82.81° F 62.56% 81.74° F 1011.69mb 6.21mph S 13.03mph 0 0.000"
373240 6/14/2024 8:42pm 93.92° F --° F 93.92° F 106.94° F 82.69° F 61.28% 81.42° F 1011.59mb 3.77mph S 6.85mph 0 0.000"
373239 6/14/2024 8:37pm 94.03° F --° F 94.03° F 105.21° F 82.54° F 60.13% 81.06° F 1011.57mb 4.80mph S 8.23mph 0 0.000"
373238 6/14/2024 8:32pm 94.03° F --° F 94.03° F 104.85° F 82.31° F 59.19% 80.67° F 1011.50mb 4.44mph S 10.30mph 0 0.000"
373237 6/14/2024 8:27pm 93.81° F --° F 93.81° F 102.38° F 82.02° F 58.77% 80.29° F 1011.45mb 5.86mph S 10.96mph 0 0.000"
373236 6/14/2024 8:21pm 93.51° F --° F 93.51° F 100.45° F 81.74° F 58.74% 80.01° F 1011.45mb 6.87mph S 12.34mph 0 0.000"
373235 6/14/2024 8:16pm 94.03° F --° F 94.03° F 99.59° F 81.37° F 55.34% 79.03° F 1011.41mb 6.60mph S 12.34mph 0 0.000"
373234 6/14/2024 8:11pm 95.13° F --° F 95.13° F 101.35° F 81.86° F 53.48% 79.21° F 1011.33mb 6.30mph S 11.65mph 0 0.000"
373233 6/14/2024 8:06pm 95.68° F --° F 95.68° F 102.10° F 82.11° F 52.52% 79.27° F 1011.21mb 6.23mph S 10.30mph 0 0.000"
373232 6/14/2024 8:01pm 96.13° F --° F 96.13° F 102.70° F 81.97° F 50.58% 78.76° F 1011.20mb 5.33mph S 10.30mph 0 0.000"
373231 6/14/2024 7:56pm 96.46° F --° F 96.46° F 100.68° F 81.60° F 48.31% 77.95° F 1011.20mb 6.34mph S 10.30mph 0 0.000"
373230 6/14/2024 7:51pm 96.71° F --° F 96.71° F 100.14° F 81.14° F 46.04% 77.02° F 1011.12mb 5.82mph S 8.23mph 0 0.000"
373229 6/14/2024 7:46pm 96.91° F --° F 96.91° F 101.53° F 81.11° F 45.45% 76.89° F 1011.18mb 4.55mph S 12.34mph 0 0.000"
373228 6/14/2024 7:41pm 97.25° F --° F 97.25° F 98.23° F 81.09° F 44.43% 76.65° F 1011.04mb 7.65mph S 15.77mph 0 0.000"
373227 6/14/2024 7:36pm 97.41° F --° F 97.41° F 97.80° F 80.95° F 43.63% 76.36° F 1010.96mb 7.84mph S 15.77mph 0 0.000"
373226 6/14/2024 7:31pm 97.65° F --° F 97.65° F 97.63° F 81.03° F 43.26% 76.36° F 1010.94mb 8.25mph S 13.03mph 0 0.000"
373225 6/14/2024 7:25pm 97.84° F --° F 97.84° F 101.51° F 81.06° F 42.84% 76.30° F 1010.90mb 4.74mph S 13.03mph 0 0.000"
373224 6/14/2024 7:20pm 97.97° F --° F 97.97° F 101.50° F 81.10° F 42.62% 76.29° F 1010.92mb 4.87mph S 8.92mph 0 0.000"
373223 6/14/2024 7:15pm 97.99° F --° F 97.99° F 102.09° F 80.99° F 42.25% 76.10° F 1010.97mb 4.11mph S 9.61mph 0 0.000"
373222 6/14/2024 7:10pm 98.26° F --° F 98.26° F 100.67° F 80.76° F 40.95% 75.59° F 1010.92mb 5.10mph S 8.92mph 0 0.000"
373221 6/14/2024 7:05pm 98.38° F --° F 98.38° F 101.36° F 80.87° F 40.96% 75.70° F 1010.95mb 4.71mph S 9.61mph 0 0.000"
373220 6/14/2024 7:00pm 98.56° F --° F 98.56° F 101.82° F 80.80° F 40.32% 75.49° F 1010.95mb 4.21mph S 13.72mph 0 0.000"
373219 6/14/2024 6:55pm 98.65° F --° F 98.65° F 101.71° F 80.68° F 39.80% 75.26° F 1010.97mb 4.14mph S 8.23mph 0 0.000"
373218 6/14/2024 6:50pm 98.89° F --° F 98.89° F 104.14° F 80.92° F 39.96% 75.56° F 1010.88mb 2.46mph S 6.18mph 0 0.000"
373217 6/14/2024 6:45pm 99.28° F --° F 99.28° F 101.03° F 80.94° F 39.11% 75.39° F 1010.83mb 5.56mph S 10.30mph 0 0.000"
373216 6/14/2024 6:40pm 99.30° F --° F 99.30° F 104.64° F 81.31° F 40.06% 75.98° F 1010.79mb 2.90mph S 8.92mph 0 0.000"
373215 6/14/2024 6:35pm 99.75° F --° F 99.75° F 102.37° F 81.49° F 39.57% 76.07° F 1010.85mb 5.59mph S 10.96mph 0 0.000"
373214 6/14/2024 6:30pm 99.81° F --° F 99.81° F 103.69° F 81.65° F 39.92% 76.34° F 1010.79mb 4.74mph S 11.65mph 0 0.000"
373213 6/14/2024 6:24pm 99.82° F --° F 99.82° F 103.36° F 81.48° F 39.38% 76.02° F 1010.76mb 4.67mph S 10.30mph 0 0.000"
373212 6/14/2024 6:19pm 100.13° F --° F 100.13° F 106.76° F 82.15° F 40.54% 76.98° F 1010.69mb 3.01mph S 6.85mph 0 0.000"
373211 6/14/2024 6:14pm 100.40° F --° F 100.40° F 104.62° F 82.01° F 39.58% 76.64° F 1010.75mb 4.85mph S 10.30mph 0 0.000"
373210 6/14/2024 6:09pm 100.62° F --° F 100.62° F 104.75° F 82.14° F 39.44% 76.75° F 1010.77mb 5.08mph S 10.96mph 0 0.000"
373209 6/14/2024 6:04pm 100.60° F --° F 100.60° F 102.96° F 82.24° F 39.77% 76.93° F 1010.79mb 6.97mph S 13.03mph 0 0.000"
373208 6/14/2024 5:59pm 100.63° F --° F 100.63° F 107.65° F 82.64° F 40.76% 77.55° F 1010.79mb 3.43mph S 8.92mph 0 0.000"
373207 6/14/2024 5:54pm 101.19° F --° F 101.19° F 105.44° F 82.48° F 39.09% 77.03° F 1010.78mb 5.38mph S 11.65mph 0 0.000"
373206 6/14/2024 5:49pm 101.26° F --° F 101.26° F 105.60° F 82.66° F 39.43% 77.30° F 1010.71mb 5.65mph S 10.96mph 0 0.000"
373205 6/14/2024 5:44pm 101.52° F --° F 101.52° F 103.44° F 82.75° F 39.12% 77.33° F 1010.74mb 7.98mph S 12.34mph 0 0.000"
373204 6/14/2024 5:39pm 101.66° F --° F 101.66° F 105.42° F 83.09° F 39.74% 77.83° F 1010.66mb 6.94mph S 13.72mph 0 0.000"
373203 6/14/2024 5:34pm 101.75° F --° F 101.75° F 106.11° F 83.42° F 40.40% 78.31° F 1010.60mb 7.06mph S 15.08mph 0 0.000"
373202 6/14/2024 5:29pm 101.73° F --° F 101.73° F 106.19° F 83.50° F 40.65% 78.44° F 1010.64mb 7.15mph S 15.08mph 0 0.000"
373201 6/14/2024 5:23pm 101.88° F --° F 101.88° F 106.76° F 83.54° F 40.44% 78.44° F 1010.78mb 6.78mph S 11.65mph 0 0.000"
373200 6/14/2024 5:18pm 101.70° F --° F 101.70° F 110.15° F 83.75° F 41.46% 78.89° F 1010.76mb 4.09mph S 9.61mph 0 0.000"
373199 6/14/2024 5:13pm 101.88° F --° F 101.88° F 107.39° F 83.73° F 40.96% 78.75° F 1010.73mb 6.64mph S 19.22mph 0 0.000"
373198 6/14/2024 5:08pm 102.09° F --° F 102.09° F 107.62° F 83.87° F 40.87% 78.88° F 1010.72mb 6.83mph S 12.34mph 0 0.000"
373197 6/14/2024 5:03pm 102.06° F --° F 102.06° F 106.55° F 83.69° F 40.46% 78.61° F 1010.74mb 7.40mph S 17.15mph 0 0.000"
373196 6/14/2024 4:58pm 102.16° F --° F 102.16° F 105.18° F 83.70° F 40.22% 78.56° F 1010.70mb 8.69mph S 15.77mph 0 0.000"
373195 6/14/2024 4:53pm 102.15° F --° F 102.15° F 104.87° F 83.79° F 40.52% 78.73° F 1010.73mb 9.22mph S 18.53mph 0 0.000"
373194 6/14/2024 4:48pm 102.15° F --° F 102.15° F 105.81° F 83.97° F 41.03% 79.03° F 1010.77mb 8.80mph S 19.88mph 0 0.000"
373193 6/14/2024 4:43pm 102.07° F --° F 102.07° F 107.31° F 84.02° F 41.34% 79.14° F 1010.64mb 7.49mph S 13.72mph 0 0.000"
373192 6/14/2024 4:38pm 102.13° F --° F 102.13° F 105.80° F 84.33° F 42.05% 79.61° F 1010.78mb 9.68mph S 22.64mph 0 0.000"
373191 6/14/2024 4:33pm 102.00° F --° F 102.00° F 110.52° F 84.63° F 43.24% 80.17° F 1010.83mb 6.05mph S 11.65mph 0 0.000"
373190 6/14/2024 4:28pm 101.70° F --° F 101.70° F 113.76° F 84.79° F 44.41% 80.56° F 1010.75mb 3.38mph NNW 10.96mph 0 0.000"
373189 6/14/2024 4:22pm 101.91° F --° F 101.91° F 113.15° F 85.11° F 44.83% 80.98° F 1010.75mb 4.87mph S 8.92mph 0 0.000"
373188 6/14/2024 4:17pm 101.95° F --° F 101.95° F 113.35° F 85.06° F 44.58% 80.87° F 1010.73mb 4.55mph S 10.96mph 0 0.000"
373187 6/14/2024 4:12pm 101.61° F --° F 101.61° F 109.03° F 84.91° F 45.02% 80.81° F 1010.84mb 8.14mph S 18.53mph 0 0.000"
373186 6/14/2024 4:07pm 100.89° F --° F 100.89° F 112.46° F 84.65° F 46.03% 80.72° F 1010.91mb 4.07mph S 10.96mph 0 0.000"
373185 6/14/2024 4:02pm 101.48° F --° F 101.48° F 113.62° F 84.73° F 44.78% 80.57° F 1010.99mb 3.31mph NNW 8.92mph 0 0.000"
373184 6/14/2024 3:57pm 101.70° F --° F 101.70° F 110.44° F 84.68° F 44.09% 80.38° F 1010.86mb 6.18mph S 13.72mph 0 0.000"
373183 6/14/2024 3:52pm 101.41° F --° F 101.41° F 111.01° F 84.90° F 45.51% 80.90° F 1010.81mb 6.25mph S 13.72mph 0 0.000"
373182 6/14/2024 3:47pm 101.44° F --° F 101.44° F 110.33° F 84.60° F 44.48% 80.37° F 1010.87mb 6.00mph S 10.96mph 0 0.000"
373181 6/14/2024 3:42pm 101.21° F --° F 101.21° F 111.67° F 85.33° F 47.35% 81.70° F 1010.86mb 6.87mph S 16.46mph 0 0.000"
373180 6/14/2024 3:37pm 100.33° F --° F 100.33° F 107.51° F 84.01° F 45.54% 79.96° F 1010.94mb 6.87mph S 13.03mph 0 0.000"
373179 6/14/2024 3:32pm 99.82° F --° F 99.82° F 108.23° F 83.53° F 45.38% 79.43° F 1010.97mb 4.83mph S 13.03mph 0 0.000"
373178 6/14/2024 3:27pm 100.99° F --° F 100.99° F 114.35° F 84.83° F 46.32% 80.96° F 1011.00mb 2.83mph NNW 9.61mph 0 0.000"
373177 6/14/2024 3:21pm 101.03° F --° F 101.03° F 115.16° F 85.89° F 49.63% 82.70° F 1011.01mb 5.38mph S 19.22mph 0 0.000"
373176 6/14/2024 3:16pm 100.54° F --° F 100.54° F 120.18° F 86.81° F 54.20% 84.45° F 1011.05mb 4.00mph S 9.61mph 0 0.000"
373175 6/14/2024 3:11pm 99.75° F --° F 99.75° F 120.28° F 86.47° F 55.54% 84.34° F 1011.13mb 2.94mph NW 6.18mph 0 0.000"
373174 6/14/2024 3:06pm 99.16° F --° F 99.16° F 115.95° F 85.24° F 52.91% 82.60° F 1011.19mb 2.67mph NNW 6.85mph 0 0.000"
373173 6/14/2024 3:01pm 99.63° F --° F 99.63° F 117.52° F 85.73° F 53.23% 83.18° F 1011.18mb 2.83mph NNW 8.23mph 0 0.000"
373172 6/14/2024 2:56pm 99.09° F --° F 99.09° F 116.15° F 85.26° F 53.26% 82.70° F 1011.29mb 2.62mph NNW 4.80mph 0 0.000"
373171 6/14/2024 2:51pm 98.92° F --° F 98.92° F 113.31° F 84.39° F 50.65% 81.31° F 1011.23mb 2.41mph NNW 4.11mph 0 0.000"
373170 6/14/2024 2:46pm 99.75° F --° F 99.75° F 112.59° F 84.57° F 48.86% 81.17° F 1011.30mb 3.63mph S 10.30mph 0 0.000"
373169 6/14/2024 2:41pm 100.29° F --° F 100.29° F 113.55° F 85.10° F 49.10% 81.77° F 1011.35mb 4.37mph S 8.92mph 0 0.000"
373168 6/14/2024 2:36pm 100.04° F --° F 100.04° F 115.59° F 85.12° F 49.89% 81.94° F 1011.39mb 2.55mph NW 6.18mph 0 0.000"
373167 6/14/2024 2:31pm 101.08° F --° F 101.08° F 115.03° F 85.38° F 47.83% 81.83° F 1011.45mb 3.86mph NW 8.23mph 0 0.000"
373166 6/14/2024 2:26pm 101.59° F --° F 101.59° F 114.84° F 85.69° F 47.46% 82.09° F 1011.41mb 5.03mph S 9.61mph 0 0.000"
373165 6/14/2024 2:21pm 101.25° F --° F 101.25° F 118.25° F 86.48° F 50.93% 83.54° F 1011.55mb 4.44mph S 8.23mph 0 0.000"
373164 6/14/2024 2:16pm 100.89° F --° F 100.89° F 115.98° F 85.41° F 48.44% 81.97° F 1011.53mb 3.06mph NNW 5.49mph 0 0.000"
373163 6/14/2024 2:10pm 100.80° F --° F 100.80° F 113.14° F 85.20° F 48.01% 81.67° F 1011.67mb 5.06mph NNW 13.72mph 0 0.000"
373162 6/14/2024 2:05pm 100.87° F --° F 100.87° F 115.90° F 86.10° F 50.76% 83.11° F 1011.68mb 5.38mph NNW 14.41mph 0 0.000"
373161 6/14/2024 2:00pm 100.96° F --° F 100.96° F 116.05° F 86.32° F 51.27% 83.44° F 1011.72mb 6.02mph NW 13.03mph 0 0.000"
373160 6/14/2024 1:55pm 100.81° F --° F 100.81° F 115.39° F 85.64° F 49.41% 82.39° F 1011.80mb 4.34mph NNW 8.92mph 0 0.000"
373159 6/14/2024 1:50pm 100.80° F --° F 100.80° F 116.47° F 86.10° F 50.97% 83.15° F 1011.83mb 4.87mph NNW 13.72mph 0 0.000"
373158 6/14/2024 1:45pm 100.67° F --° F 100.67° F 117.40° F 86.11° F 51.40% 83.25° F 1011.89mb 4.07mph NNW 7.54mph 0 0.000"
373157 6/14/2024 1:40pm 100.36° F --° F 100.36° F 111.95° F 85.61° F 50.58% 82.57° F 1011.85mb 7.47mph NW 15.77mph 0 0.000"
373156 6/14/2024 1:35pm 100.22° F --° F 100.22° F 117.62° F 86.38° F 53.72% 83.94° F 1011.92mb 4.94mph NNW 15.77mph 0 0.000"
373155 6/14/2024 1:30pm 100.27° F --° F 100.27° F 120.99° F 86.90° F 55.41% 84.76° F 1012.04mb 3.72mph NNW 8.92mph 0 0.000"
373154 6/14/2024 1:25pm 99.73° F --° F 99.73° F 117.05° F 86.32° F 55.02% 84.09° F 1012.07mb 5.36mph NW 11.65mph 0 0.000"
373153 6/14/2024 1:20pm 99.64° F --° F 99.64° F 116.73° F 86.18° F 54.76% 83.89° F 1012.12mb 5.13mph NNW 13.72mph 0 0.000"
373152 6/14/2024 1:15pm 99.14° F --° F 99.14° F 120.37° F 86.73° F 58.56% 85.11° F 1012.15mb 4.14mph NNW 10.30mph 0 0.000"
373151 6/14/2024 1:10pm 98.26° F --° F 98.26° F 118.97° F 86.39° F 60.33% 85.05° F 1012.26mb 4.51mph NNW 13.72mph 0 0.000"
373150 6/14/2024 1:05pm 98.19° F --° F 98.19° F 113.17° F 84.92° F 54.85% 82.61° F 1012.38mb 4.37mph NNW 9.61mph 0 0.000"
373149 6/14/2024 1:00pm 98.85° F --° F 98.85° F 114.00° F 85.34° F 54.23% 82.93° F 1012.38mb 4.87mph NNW 13.03mph 0 0.000"
373148 6/14/2024 12:54pm 99.48° F --° F 99.48° F 116.62° F 86.14° F 55.17% 83.93° F 1012.35mb 5.17mph NW 11.65mph 0 0.000"
373147 6/14/2024 12:49pm 99.63° F --° F 99.63° F 122.16° F 87.28° F 59.04% 85.77° F 1012.38mb 4.55mph NNW 11.65mph 0 0.000"
373146 6/14/2024 12:44pm 99.23° F --° F 99.23° F 126.94° F 87.94° F 63.15% 87.10° F 1012.29mb 3.36mph NW 6.85mph 0 0.000"
373145 6/14/2024 12:39pm 98.89° F --° F 98.89° F 123.69° F 87.42° F 62.25% 86.42° F 1012.39mb 4.21mph NNW 13.72mph 0 0.000"
373144 6/14/2024 12:34pm 98.98° F --° F 98.98° F 123.91° F 87.49° F 62.18% 86.48° F 1012.45mb 4.23mph NNW 7.54mph 0 0.000"
373143 6/14/2024 12:29pm 99.03° F --° F 99.03° F 122.31° F 87.19° F 60.75% 85.94° F 1012.42mb 4.32mph NNW 10.96mph 0 0.000"
373142 6/14/2024 12:24pm 99.05° F --° F 99.05° F 128.38° F 88.13° F 64.64% 87.53° F 1012.55mb 3.10mph NNW 6.18mph 0 0.000"
373141 6/14/2024 12:19pm 98.92° F --° F 98.92° F 129.66° F 88.50° F 66.74% 88.23° F 1012.58mb 3.91mph NW 8.92mph 0 0.000"
373140 6/14/2024 12:14pm 98.78° F --° F 98.78° F 128.98° F 88.39° F 66.87% 88.14° F 1012.62mb 4.18mph NNW 6.18mph 0 0.000"
373139 6/14/2024 12:09pm 98.42° F --° F 98.42° F 123.78° F 87.36° F 63.83% 86.62° F 1012.69mb 4.28mph NNW 10.30mph 0 0.000"
373138 6/14/2024 12:04pm 98.19° F --° F 98.19° F 122.68° F 87.32° F 64.51% 86.68° F 1012.71mb 5.26mph NW 13.72mph 0 0.000"
373137 6/14/2024 11:59am 98.17° F --° F 98.17° F 123.19° F 87.41° F 64.99% 86.85° F 1012.52mb 5.24mph NNW 11.65mph 0 0.000"
373136 6/14/2024 11:54am 98.04° F --° F 98.04° F 124.91° F 87.54° F 66.06% 87.14° F 1012.64mb 4.37mph NNW 12.34mph 0 0.000"
373135 6/14/2024 11:49am 97.97° F --° F 97.97° F 122.55° F 87.22° F 64.97% 86.65° F 1012.66mb 5.13mph NNW 15.08mph 0 0.000"
373134 6/14/2024 11:44am 97.93° F --° F 97.93° F 120.25° F 86.84° F 63.49% 86.03° F 1012.81mb 5.54mph NW 13.03mph 0 0.000"
373133 6/14/2024 11:38am 97.57° F --° F 97.57° F 124.99° F 87.30° F 66.96% 87.04° F 1012.80mb 3.63mph NNW 6.18mph 0 0.000"
373132 6/14/2024 11:33am 97.14° F --° F 97.14° F 126.74° F 87.48° F 69.70% 87.66° F 1012.95mb 3.47mph NNW 6.18mph 0 0.000"
373131 6/14/2024 11:28am 96.30° F --° F 96.30° F 126.96° F 87.59° F 74.07% 88.42° F 1012.89mb 4.97mph NW 9.61mph 0 0.000"
373130 6/14/2024 11:23am 96.13° F --° F 96.13° F 119.25° F 86.32° F 68.55% 86.28° F 1012.90mb 5.61mph NNW 10.30mph 0 0.000"
373129 6/14/2024 11:18am 97.12° F --° F 97.12° F 122.44° F 86.75° F 66.33% 86.38° F 1012.88mb 3.75mph NNW 8.92mph 0 0.000"
373128 6/14/2024 11:13am 97.21° F --° F 97.21° F 126.02° F 87.32° F 68.57% 87.31° F 1012.90mb 3.15mph NNW 5.49mph 0 0.000"
373127 6/14/2024 11:08am 96.87° F --° F 96.87° F 121.34° F 86.34° F 65.60% 85.87° F 1012.93mb 3.17mph NNW 5.49mph 0 0.000"
373126 6/14/2024 11:03am 96.49° F --° F 96.49° F 123.95° F 86.83° F 69.47% 86.96° F 1013.04mb 3.45mph NNW 8.23mph 0 0.000"
373125 6/14/2024 10:58am 96.12° F --° F 96.12° F 136.29° F 88.54° F 80.03% 90.24° F 1013.02mb 2.48mph NNW 4.80mph 0 0.000"
373124 6/14/2024 10:53am 95.83° F --° F 95.83° F 132.79° F 88.02° F 78.70% 89.53° F 1013.18mb 2.92mph NNW 6.18mph 0 0.000"
373123 6/14/2024 10:48am 95.99° F --° F 95.99° F 131.87° F 87.90° F 77.26% 89.21° F 1013.18mb 2.78mph NNW 5.49mph 0 0.000"
373122 6/14/2024 10:43am 96.03° F --° F 96.03° F 129.96° F 87.72° F 76.07% 88.84° F 1013.24mb 3.36mph NNW 6.18mph 0 0.000"
373121 6/14/2024 10:38am 95.90° F --° F 95.90° F 132.72° F 88.13° F 78.90% 89.66° F 1013.32mb 3.52mph NNW 6.18mph 0 0.000"
373120 6/14/2024 10:33am 95.45° F --° F 95.45° F 137.83° F 88.64° F 84.27% 90.93° F 1013.35mb 3.20mph NNW 4.80mph 0 0.000"
373119 6/14/2024 10:28am 94.68° F --° F 94.68° F 138.62° F 88.45° F 87.76% 91.24° F 1013.32mb 3.10mph S 5.49mph 0 0.000"
373118 6/14/2024 10:23am 94.24° F --° F 94.24° F 138.04° F 88.19° F 88.66% 91.07° F 1013.44mb 2.62mph NNW 5.49mph 0 0.000"
373117 6/14/2024 10:18am 94.66° F --° F 94.66° F 135.46° F 88.09° F 85.68% 90.59° F 1013.38mb 3.47mph NNW 10.30mph 0 0.000"
373116 6/14/2024 10:12am 95.16° F --° F 95.16° F 137.05° F 88.51° F 85.20% 90.94° F 1013.37mb 3.72mph WNW 8.92mph 0 0.000"
373115 6/14/2024 10:07am 94.73° F --° F 94.73° F 142.48° F 88.96° F 90.54% 92.10° F 1013.43mb 3.17mph NW 6.18mph 0 0.000"
373114 6/14/2024 10:02am 93.96° F --° F 93.96° F 145.25° F 88.95° F 95.64% 92.78° F 1013.46mb 3.03mph NW 8.23mph 0 0.000"
373113 6/14/2024 9:57am 93.42° F --° F 93.42° F 144.69° F 88.65° F 97.27% 92.69° F 1013.54mb 2.69mph NNW 4.80mph 0 0.000"
373112 6/14/2024 9:52am 93.49° F --° F 93.49° F 143.69° F 88.50° F 95.76% 92.35° F 1013.49mb 2.14mph NNW 4.11mph 0 0.000"
373111 6/14/2024 9:47am 93.81° F --° F 93.81° F 144.76° F 88.77° F 95.40% 92.57° F 1013.50mb 2.39mph NNW 4.11mph 0 0.000"
373110 6/14/2024 9:42am 93.76° F --° F 93.76° F 144.87° F 88.79° F 95.88% 92.65° F 1013.53mb 2.62mph NNW 4.80mph 0 0.000"
373109 6/14/2024 9:37am 93.09° F --° F 93.09° F 146.50° F 88.73° F 100.00% 93.09° F 1013.58mb 2.57mph NNW 4.11mph 0 0.000"
373108 6/14/2024 9:32am 91.87° F --° F 91.87° F 139.64° F 87.49° F 100.00% 91.87° F 1013.57mb 2.28mph NNW 4.11mph 0 0.000"
373107 6/14/2024 9:27am 91.53° F --° F 91.53° F 137.32° F 87.15° F 100.00% 91.53° F 1013.52mb 2.62mph N 5.49mph 0 0.000"
373106 6/14/2024 9:22am 92.14° F --° F 92.14° F 141.50° F 87.77° F 100.00% 92.14° F 1013.57mb 2.00mph NNW 5.49mph 0 0.000"
373105 6/14/2024 9:17am 92.43° F --° F 92.43° F 143.69° F 88.06° F 100.00% 92.43° F 1013.65mb 1.54mph N 4.80mph 0 0.000"
373104 6/14/2024 9:12am 91.99° F --° F 91.99° F 139.91° F 87.62° F 100.00% 91.99° F 1013.60mb 2.67mph NNW 5.49mph 0 0.000"
373103 6/14/2024 9:07am 91.49° F --° F 91.49° F 137.07° F 87.11° F 100.00% 91.49° F 1013.66mb 2.64mph NNW 5.49mph 0 0.000"
373102 6/14/2024 9:02am 90.43° F --° F 90.43° F 131.19° F 86.04° F 100.00% 90.43° F 1013.60mb 2.60mph NNW 8.23mph 0 0.000"
373101 6/14/2024 8:57am 90.46° F --° F 90.46° F 133.43° F 86.08° F 100.00% 90.46° F 1013.57mb 0.67mph N 2.74mph 0 0.000"
373100 6/14/2024 8:52am 90.50° F --° F 90.50° F 133.15° F 86.12° F 100.00% 90.50° F 1013.61mb 1.13mph N 3.43mph 0 0.000"
373099 6/14/2024 8:46am 90.72° F --° F 90.72° F 132.39° F 86.33° F 100.00% 90.72° F 1013.63mb 2.97mph NNW 5.49mph 0 0.000"
373098 6/14/2024 8:41am 91.35° F --° F 91.35° F 136.32° F 86.97° F 100.00% 91.35° F 1013.53mb 2.60mph NNW 5.49mph 0 0.000"
373097 6/14/2024 8:36am 90.95° F --° F 90.95° F 132.74° F 86.57° F 100.00% 90.95° F 1013.58mb 3.84mph NNW 10.96mph 0 0.000"
373096 6/14/2024 8:31am 89.91° F --° F 89.91° F 125.46° F 85.52° F 100.00% 89.91° F 1013.43mb 5.31mph NW 11.65mph 0 0.000"
373095 6/14/2024 8:26am 88.52° F --° F 88.52° F 122.34° F 84.12° F 100.00% 88.52° F 1013.61mb 1.40mph NNW 4.80mph 0 0.000"
373094 6/14/2024 8:21am 88.59° F --° F 88.59° F 119.37° F 84.20° F 100.00% 88.59° F 1013.61mb 4.51mph NNW 10.30mph 0 0.000"
373093 6/14/2024 8:16am 89.24° F --° F 89.24° F 125.02° F 84.85° F 100.00% 89.24° F 1013.52mb 2.39mph NNW 10.30mph 0 0.000"
373092 6/14/2024 8:11am 89.20° F --° F 89.20° F 122.93° F 84.81° F 100.00% 89.20° F 1013.44mb 4.14mph NNW 11.65mph 0 0.000"
373091 6/14/2024 8:06am 88.12° F --° F 88.12° F 117.75° F 83.72° F 100.00% 88.12° F 1013.37mb 3.79mph NNW 8.23mph 0 0.000"
373090 6/14/2024 8:01am 86.40° F --° F 86.40° F 111.35° F 81.98° F 100.00% 86.40° F 1013.28mb 1.93mph NNW 4.11mph 0 0.000"
373089 6/14/2024 7:56am 85.46° F --° F 85.46° F 106.26° F 81.04° F 100.00% 85.46° F 1013.25mb 2.62mph NNW 7.54mph 0 0.000"
373088 6/14/2024 7:51am 85.24° F --° F 85.24° F 107.49° F 80.82° F 100.00% 85.24° F 1013.28mb 0.55mph NNW 4.11mph 0 0.000"
373087 6/14/2024 7:46am 85.51° F --° F 85.51° F 108.44° F 81.10° F 100.00% 85.51° F 1013.30mb 0.80mph NNW 6.18mph 0 0.000"
373086 6/14/2024 7:41am 85.98° F --° F 85.98° F 111.06° F 81.57° F 100.00% 85.98° F 1013.28mb 0.37mph NNW 2.74mph 0 0.000"
373085 6/14/2024 7:36am 86.52° F --° F 86.52° F 111.42° F 82.11° F 100.00% 86.52° F 1013.20mb 2.39mph NNW 6.18mph 0 0.000"
373084 6/14/2024 7:31am 87.28° F --° F 87.28° F 115.48° F 82.87° F 100.00% 87.28° F 1013.27mb 2.02mph NNW 6.18mph 0 0.000"
373083 6/14/2024 7:26am 86.85° F --° F 86.85° F 113.15° F 82.44° F 100.00% 86.85° F 1013.28mb 2.25mph NNW 5.49mph 0 0.000"
373082 6/14/2024 7:20am 85.26° F --° F 85.26° F 106.86° F 80.84° F 100.00% 85.26° F 1013.24mb 1.22mph NNW 2.74mph 0 0.000"
373081 6/14/2024 7:15am 83.46° F --° F 83.46° F 100.17° F 79.03° F 100.00% 83.46° F 1013.26mb 0.21mph N 2.74mph 0 0.000"
373080 6/14/2024 7:10am 83.48° F --° F 83.48° F 100.45° F 79.05° F 100.00% 83.48° F 1013.07mb 0.02mph N 0.69mph 0 0.000"
373079 6/14/2024 7:05am 83.62° F --° F 83.62° F 101.06° F 79.19° F 100.00% 83.62° F 1012.99mb 0.00mph -- 0.00mph 0 0.000"
373078 6/14/2024 7:00am 83.75° F --° F 83.75° F 99.44° F 79.32° F 100.00% 83.75° F 1013.05mb 2.02mph N 4.80mph 0 0.000"
373077 6/14/2024 6:55am 84.09° F --° F 84.09° F 99.80° F 79.66° F 100.00% 84.09° F 1013.02mb 3.03mph NNW 5.49mph 0 0.000"
373076 6/14/2024 6:50am 84.69° F --° F 84.69° F 101.05° F 80.26° F 100.00% 84.69° F 1013.00mb 4.28mph NNW 6.85mph 0 0.000"
373075 6/14/2024 6:45am 85.68° F --° F 85.68° F 106.11° F 81.26° F 100.00% 85.68° F 1012.88mb 3.70mph NNW 5.49mph 0 0.000"
373074 6/14/2024 6:40am 85.42° F --° F 85.42° F 105.44° F 81.01° F 100.00% 85.42° F 1012.89mb 3.22mph NNW 6.18mph 0 0.000"
373073 6/14/2024 6:35am 84.42° F --° F 84.42° F 102.32° F 79.99° F 100.00% 84.42° F 1012.84mb 2.00mph NNW 4.11mph 0 0.000"
373072 6/14/2024 6:30am 83.17° F --° F 83.17° F 99.20° F 78.74° F 100.00% 83.17° F 1012.77mb 0.00mph -- 0.00mph 0 0.000"
373071 6/14/2024 6:25am 83.46° F --° F 83.46° F 100.39° F 79.03° F 100.00% 83.46° F 1012.75mb 0.00mph -- 0.00mph 0 0.000"
373070 6/14/2024 6:20am 83.86° F --° F 83.86° F 102.07° F 79.43° F 100.00% 83.86° F 1012.81mb 0.00mph -- 0.00mph 0 0.000"
373069 6/14/2024 6:15am 84.38° F --° F 84.38° F 104.29° F 79.95° F 100.00% 84.38° F 1012.72mb 0.00mph -- 0.00mph 0 0.000"
373068 6/14/2024 6:10am 84.88° F --° F 84.88° F 105.05° F 80.46° F 100.00% 84.88° F 1012.70mb 1.33mph NNW 3.43mph 0 0.000"
373067 6/14/2024 6:05am 84.47° F --° F 84.47° F 102.61° F 80.04° F 100.00% 84.47° F 1012.58mb 1.93mph NNW 2.74mph 0 0.000"
373066 6/14/2024 6:00am 83.70° F --° F 83.70° F 99.52° F 79.26° F 100.00% 83.70° F 1012.44mb 1.75mph NNW 2.74mph 0 0.000"
373065 6/14/2024 5:55am 83.05° F --° F 83.05° F 98.71° F 78.61° F 100.00% 83.05° F 1012.41mb 0.00mph -- 0.00mph 0 0.000"
373064 6/14/2024 5:49am 83.34° F --° F 83.34° F 99.90° F 78.90° F 100.00% 83.34° F 1012.37mb 0.00mph -- 0.00mph 0 0.000"
373063 6/14/2024 5:44am 83.68° F --° F 83.68° F 101.31° F 79.25° F 100.00% 83.68° F 1012.26mb 0.00mph -- 0.00mph 0 0.000"
373062 6/14/2024 5:39am 84.09° F --° F 84.09° F 103.04° F 79.66° F 100.00% 84.09° F 1012.31mb 0.00mph -- 0.00mph 0 0.000"
373061 6/14/2024 5:34am 84.60° F --° F 84.60° F 105.25° F 80.17° F 100.00% 84.60° F 1012.20mb 0.00mph -- 0.00mph 0 0.000"
373060 6/14/2024 5:29am 85.19° F --° F 85.19° F 107.53° F 80.77° F 100.00% 85.19° F 1012.21mb 0.30mph NNW 2.74mph 0 0.000"
373059 6/14/2024 5:24am 85.39° F --° F 85.39° F 106.42° F 80.97° F 100.00% 85.39° F 1012.19mb 2.18mph NNW 3.43mph 0 0.000"
373058 6/14/2024 5:19am 84.96° F --° F 84.96° F 104.59° F 80.53° F 100.00% 84.96° F 1012.24mb 2.09mph NNW 2.74mph 0 0.000"
373057 6/14/2024 5:14am 84.02° F --° F 84.02° F 102.40° F 79.59° F 100.00% 84.02° F 1012.24mb 0.32mph NNW 2.07mph 0 0.000"
373056 6/14/2024 5:09am 83.70° F --° F 83.70° F 101.39° F 79.26° F 100.00% 83.70° F 1012.11mb 0.00mph -- 0.00mph 0 0.000"
373055 6/14/2024 5:04am 84.00° F --° F 84.00° F 101.52° F 79.57° F 100.00% 84.00° F 1012.17mb 1.06mph NNW 3.43mph 0 0.000"
373054 6/14/2024 4:59am 84.34° F --° F 84.34° F 104.12° F 79.92° F 100.00% 84.34° F 1012.03mb 0.00mph -- 0.00mph 0 0.000"
373053 6/14/2024 4:54am 84.79° F --° F 84.79° F 106.08° F 80.37° F 100.00% 84.79° F 1012.02mb 0.00mph -- 0.00mph 0 0.000"
373052 6/14/2024 4:49am 85.32° F --° F 85.32° F 108.44° F 80.90° F 100.00% 85.32° F 1012.02mb 0.00mph -- 0.00mph 0 0.000"
373051 6/14/2024 4:44am 85.86° F --° F 85.86° F 110.46° F 81.44° F 100.00% 85.86° F 1011.89mb 0.41mph NNW 2.07mph 0 0.000"
373050 6/14/2024 4:39am 85.66° F --° F 85.66° F 109.98° F 81.24° F 100.00% 85.66° F 1011.87mb 0.00mph -- 0.00mph 0 0.000"
373049 6/14/2024 4:34am 85.21° F --° F 85.21° F 107.95° F 80.79° F 100.00% 85.21° F 1011.92mb 0.00mph -- 0.69mph 0 0.000"
373048 6/14/2024 4:29am 84.90° F --° F 84.90° F 106.57° F 80.48° F 100.00% 84.90° F 1011.91mb 0.00mph -- 0.00mph 0 0.000"
373047 6/14/2024 4:24am 85.39° F --° F 85.39° F 108.76° F 80.97° F 100.00% 85.39° F 1012.03mb 0.00mph -- 0.00mph 0 0.000"
373046 6/14/2024 4:18am 86.04° F --° F 86.04° F 111.74° F 81.62° F 100.00% 86.04° F 1012.06mb 0.00mph -- 0.00mph 0 0.000"
373045 6/14/2024 4:13am 86.77° F --° F 86.77° F 115.18° F 82.36° F 100.00% 86.77° F 1011.93mb 0.00mph -- 0.00mph 0 0.000"
373044 6/14/2024 4:08am 86.90° F --° F 86.90° F 115.80° F 82.49° F 100.00% 86.90° F 1011.96mb 0.00mph -- 0.69mph 0 0.000"
373043 6/14/2024 4:03am 86.14° F --° F 86.14° F 112.20° F 81.73° F 100.00% 86.14° F 1011.91mb 0.00mph -- 0.00mph 0 0.000"
373042 6/14/2024 3:58am 85.32° F --° F 85.32° F 108.44° F 80.90° F 100.00% 85.32° F 1011.77mb 0.00mph -- 0.00mph 0 0.000"
373041 6/14/2024 3:53am 85.35° F --° F 85.35° F 108.58° F 80.93° F 100.00% 85.35° F 1011.80mb 0.00mph -- 0.00mph 0 0.000"
373040 6/14/2024 3:48am 85.80° F --° F 85.80° F 110.63° F 81.39° F 100.00% 85.80° F 1011.79mb 0.00mph -- 0.00mph 0 0.000"
373039 6/14/2024 3:43am 86.38° F --° F 86.38° F 113.33° F 81.97° F 100.00% 86.38° F 1011.86mb 0.00mph -- 0.00mph 0 0.000"
373038 6/14/2024 3:38am 87.03° F --° F 87.03° F 116.43° F 82.62° F 100.00% 87.03° F 1011.91mb 0.00mph -- 0.00mph 0 0.000"
373037 6/14/2024 3:33am 87.26° F --° F 87.26° F 117.54° F 82.85° F 100.00% 87.26° F 1011.87mb 0.00mph -- 0.69mph 0 0.000"
373036 6/14/2024 3:28am 86.70° F --° F 86.70° F 114.84° F 82.29° F 100.00% 86.70° F 1011.90mb 0.00mph -- 0.69mph 0 0.000"
373035 6/14/2024 3:23am 85.93° F --° F 85.93° F 110.93° F 81.51° F 100.00% 85.93° F 1011.93mb 0.28mph N 2.07mph 0 0.000"
373034 6/14/2024 3:18am 86.02° F --° F 86.02° F 111.64° F 81.60° F 100.00% 86.02° F 1011.90mb 0.00mph -- 0.00mph 0 0.000"
373033 6/14/2024 3:13am 86.50° F --° F 86.50° F 113.89° F 82.09° F 100.00% 86.50° F 1011.75mb 0.00mph -- 0.00mph 0 0.000"
373032 6/14/2024 3:08am 87.13° F --° F 87.13° F 116.12° F 82.73° F 100.00% 87.13° F 1011.76mb 0.74mph NNW 2.74mph 0 0.000"
373031 6/14/2024 3:03am 87.91° F --° F 87.91° F 118.67° F 83.51° F 100.00% 87.91° F 1011.65mb 1.95mph NNW 4.11mph 0 0.000"
373030 6/14/2024 2:58am 87.96° F --° F 87.96° F 118.12° F 83.56° F 100.00% 87.96° F 1011.56mb 2.69mph NNW 4.11mph 0 0.000"
373029 6/14/2024 2:52am 87.31° F --° F 87.31° F 115.82° F 82.91° F 100.00% 87.31° F 1011.70mb 1.84mph N 2.74mph 0 0.000"
373028 6/14/2024 2:47am 86.52° F --° F 86.52° F 112.51° F 82.11° F 100.00% 86.52° F 1011.66mb 1.38mph NNW 2.74mph 0 0.000"
373027 6/14/2024 2:42am 86.16° F --° F 86.16° F 112.29° F 81.75° F 100.00% 86.16° F 1011.67mb 0.00mph -- 0.00mph 0 0.000"
373026 6/14/2024 2:37am 86.50° F --° F 86.50° F 113.47° F 82.09° F 100.00% 86.50° F 1011.65mb 0.39mph NNW 2.74mph 0 0.000"
373025 6/14/2024 2:32am 86.99° F --° F 86.99° F 116.18° F 82.58° F 100.00% 86.99° F 1011.65mb 0.05mph NNW 2.74mph 0 0.000"
373024 6/14/2024 2:27am 87.57° F --° F 87.57° F 118.75° F 83.16° F 100.00% 87.57° F 1011.72mb 0.30mph NNW 4.11mph 0 0.000"
373023 6/14/2024 2:22am 88.12° F --° F 88.12° F 120.03° F 83.72° F 100.00% 88.12° F 1011.68mb 1.66mph NW 4.80mph 0 0.000"
373022 6/14/2024 2:17am 87.80° F --° F 87.80° F 117.62° F 83.40° F 100.00% 87.80° F 1011.58mb 2.41mph NW 4.80mph 0 0.000"
373021 6/14/2024 2:12am 87.28° F --° F 87.28° F 114.19° F 82.87° F 100.00% 87.28° F 1011.67mb 3.22mph NW 4.80mph 0 0.000"
373020 6/14/2024 2:07am 86.74° F --° F 86.74° F 115.03° F 82.33° F 100.00% 86.74° F 1011.62mb 0.00mph -- 0.69mph 0 0.000"
373019 6/14/2024 2:02am 87.24° F --° F 87.24° F 116.27° F 82.84° F 100.00% 87.24° F 1011.58mb 1.10mph NW 6.85mph 0 0.000"
373018 6/14/2024 1:57am 87.94° F --° F 87.94° F 119.11° F 83.54° F 100.00% 87.94° F 1011.49mb 1.68mph NNW 5.49mph 0 0.000"
373017 6/14/2024 1:52am 88.77° F --° F 88.77° F 122.49° F 84.38° F 100.00% 88.77° F 1011.45mb 2.46mph NW 6.18mph 0 0.000"
373016 6/14/2024 1:47am 88.77° F --° F 88.77° F 120.58° F 84.38° F 100.00% 88.77° F 1011.51mb 4.25mph WNW 8.23mph 0 0.000"
373015 6/14/2024 1:41am 88.14° F --° F 88.14° F 117.30° F 83.74° F 100.00% 88.14° F 1011.56mb 4.30mph WNW 6.85mph 0 0.000"
373014 6/14/2024 1:36am 87.33° F --° F 87.33° F 115.59° F 82.93° F 100.00% 87.33° F 1011.50mb 2.14mph NW 4.80mph 0 0.000"
373013 6/14/2024 1:31am 87.93° F --° F 87.93° F 120.84° F 83.52° F 100.00% 87.93° F 1011.31mb 0.02mph NNW 0.69mph 0 0.000"
373012 6/14/2024 1:26am 88.65° F --° F 88.65° F 122.88° F 84.25° F 100.00% 88.65° F 1011.34mb 1.52mph NNW 4.11mph 0 0.000"
373011 6/14/2024 1:21am 89.42° F --° F 89.42° F 125.82° F 85.03° F 100.00% 89.42° F 1011.31mb 2.53mph NW 6.85mph 0 0.000"
373010 6/14/2024 1:16am 89.40° F --° F 89.40° F 123.87° F 85.01° F 100.00% 89.40° F 1011.29mb 4.25mph WNW 6.85mph 0 0.000"
373009 6/14/2024 1:11am 88.92° F --° F 88.92° F 122.83° F 84.52° F 100.00% 88.92° F 1011.18mb 2.87mph WNW 4.80mph 0 0.000"
373008 6/14/2024 1:06am 88.00° F --° F 88.00° F 119.24° F 83.60° F 100.00% 88.00° F 1011.26mb 1.84mph NW 4.80mph 0 0.000"
373007 6/14/2024 1:01am 88.50° F --° F 88.50° F 123.48° F 84.10° F 100.00% 88.50° F 1011.21mb 0.25mph NNW 2.07mph 0 0.000"
373006 6/14/2024 12:56am 89.20° F --° F 89.20° F 125.50° F 84.81° F 100.00% 89.20° F 1011.23mb 1.75mph S 4.80mph 0 0.000"
373005 6/14/2024 12:51am 90.05° F --° F 90.05° F 130.37° F 85.66° F 100.00% 90.05° F 1011.10mb 1.43mph NW 4.11mph 0 0.000"
373004 6/14/2024 12:46am 90.03° F --° F 90.03° F 129.43° F 85.65° F 100.00% 90.03° F 1011.19mb 2.21mph W 6.18mph 0 0.000"
373003 6/14/2024 12:40am 89.35° F --° F 89.35° F 127.55° F 84.96° F 100.00% 89.35° F 1011.19mb 0.57mph NNW 3.43mph 0 0.000"
373002 6/14/2024 12:35am 88.38° F --° F 88.38° F 122.12° F 83.98° F 100.00% 88.38° F 1011.20mb 0.94mph NNW 3.43mph 0 0.000"
373001 6/14/2024 12:30am 88.61° F --° F 88.61° F 122.58° F 84.21° F 100.00% 88.61° F 1011.20mb 1.61mph W 4.11mph 0 0.000"
373000 6/14/2024 12:25am 89.40° F --° F 89.40° F 126.23° F 85.01° F 100.00% 89.40° F 1011.35mb 2.05mph S 6.18mph 0 0.000"
372999 6/14/2024 12:20am 89.71° F --° F 89.71° F 128.25° F 85.32° F 100.00% 89.71° F 1011.42mb 1.70mph W 4.80mph 0 0.000"
372998 6/14/2024 12:15am 89.08° F --° F 89.08° F 122.97° F 84.68° F 100.00% 89.08° F 1011.40mb 3.52mph S 6.85mph 0 0.000"
372997 6/14/2024 12:10am 88.36° F --° F 88.36° F 119.29° F 83.96° F 100.00% 88.36° F 1011.35mb 3.49mph S 6.85mph 0 0.000"
372996 6/14/2024 12:05am 89.02° F --° F 89.02° F 122.73° F 84.63° F 100.00% 89.02° F 1011.39mb 3.45mph S 8.23mph 0 0.000"
372995 6/14/2024 12:00am 89.89° F --° F 89.89° F 127.49° F 85.50° F 100.00% 89.89° F 1011.45mb 3.31mph S 6.85mph 0 0.000"
372994 6/13/2024 11:55pm 90.39° F --° F 90.39° F 130.44° F 86.01° F 100.00% 90.39° F 1011.45mb 3.10mph S 8.23mph 0 0.000"
372993 6/13/2024 11:50pm 90.00° F --° F 90.00° F 128.45° F 85.61° F 100.00% 90.00° F 1011.40mb 2.97mph S 6.85mph 0 0.000"
372992 6/13/2024 11:45pm 89.29° F --° F 89.29° F 126.05° F 84.90° F 100.00% 89.29° F 1011.47mb 1.68mph WNW 4.11mph 0 0.000"
372991 6/13/2024 11:39pm 89.19° F --° F 89.19° F 126.73° F 84.79° F 100.00% 89.19° F 1011.49mb 0.55mph NNW 3.43mph 0 0.000"
372990 6/13/2024 11:34pm 89.94° F --° F 89.94° F 129.66° F 85.56° F 100.00% 89.94° F 1011.44mb 1.54mph NW 5.49mph 0 0.000"
372989 6/13/2024 11:29pm 90.77° F --° F 90.77° F 134.13° F 86.39° F 100.00% 90.77° F 1011.41mb 1.61mph WNW 3.43mph 0 0.000"
372988 6/13/2024 11:24pm 90.52° F --° F 90.52° F 131.81° F 86.14° F 100.00% 90.52° F 1011.48mb 2.48mph W 5.49mph 0 0.000"
372987 6/13/2024 11:19pm 89.98° F --° F 89.98° F 128.17° F 85.59° F 100.00% 89.98° F 1011.53mb 3.13mph S 6.85mph 0 0.000"
372986 6/13/2024 11:14pm 89.24° F --° F 89.24° F 126.20° F 84.85° F 100.00% 89.24° F 1011.54mb 1.29mph WNW 2.74mph 0 0.000"
372985 6/13/2024 11:09pm 89.98° F --° F 89.98° F 128.11° F 85.40° F 98.56% 89.60° F 1011.61mb 1.82mph S 5.49mph 0 0.000"
372984 6/13/2024 11:04pm 90.93° F --° F 90.93° F 129.89° F 85.96° F 95.85% 89.83° F 1011.65mb 2.16mph NW 6.85mph 0 0.000"
372983 6/13/2024 10:59pm 91.09° F --° F 91.09° F 132.31° F 86.26° F 96.72% 90.22° F 1011.63mb 1.56mph S 4.11mph 0 0.000"
372982 6/13/2024 10:54pm 90.61° F --° F 90.61° F 130.79° F 86.07° F 98.91% 90.33° F 1011.65mb 2.80mph S 6.85mph 0 0.000"
372981 6/13/2024 10:49pm 89.85° F --° F 89.85° F 127.15° F 85.46° F 100.00% 89.85° F 1011.58mb 3.43mph S 6.85mph 0 0.000"
372980 6/13/2024 10:44pm 89.98° F --° F 89.98° F 128.81° F 85.45° F 98.98% 89.71° F 1011.64mb 1.56mph S 6.18mph 0 0.000"
372979 6/13/2024 10:38pm 90.84° F --° F 90.84° F 130.07° F 86.02° F 96.81% 90.00° F 1011.72mb 2.51mph S 6.18mph 0 0.000"
372978 6/13/2024 10:33pm 91.49° F --° F 91.49° F 132.95° F 86.65° F 96.64% 90.60° F 1011.63mb 2.87mph S 6.18mph 0 0.000"
372977 6/13/2024 10:28pm 91.13° F --° F 91.13° F 134.68° F 86.75° F 100.00% 91.13° F 1011.53mb 2.97mph S 7.54mph 0 0.000"
372976 6/13/2024 10:23pm 90.41° F --° F 90.41° F 132.41° F 86.03° F 100.00% 90.41° F 1011.52mb 1.36mph S 4.11mph 0 0.000"
372975 6/13/2024 10:18pm 89.96° F --° F 89.96° F 129.62° F 85.57° F 100.00% 89.96° F 1011.54mb 1.68mph S 5.49mph 0 0.000"
372974 6/13/2024 10:13pm 90.72° F --° F 90.72° F 133.19° F 86.30° F 99.91% 90.70° F 1011.55mb 2.14mph S 4.80mph 0 0.000"
372973 6/13/2024 10:08pm 91.44° F --° F 91.44° F 133.65° F 86.86° F 98.55% 91.06° F 1011.56mb 4.00mph S 8.92mph 0 0.000"
372972 6/13/2024 10:03pm 91.40° F --° F 91.40° F 131.72° F 86.91° F 99.34% 91.23° F 1011.54mb 6.44mph S 10.30mph 0 0.000"
372971 6/13/2024 9:58pm 91.24° F --° F 91.24° F 133.48° F 86.86° F 100.00% 91.24° F 1011.49mb 4.67mph S 8.23mph 0 0.000"
372970 6/13/2024 9:53pm 90.95° F --° F 90.95° F 130.87° F 86.57° F 100.00% 90.95° F 1011.44mb 5.59mph S 10.96mph 0 0.000"
372969 6/13/2024 9:48pm 90.43° F --° F 90.43° F 128.78° F 86.04° F 100.00% 90.43° F 1011.43mb 4.85mph S 9.61mph 0 0.000"
372968 6/13/2024 9:43pm 91.24° F --° F 91.24° F 127.68° F 86.35° F 96.32% 90.26° F 1011.42mb 6.21mph S 12.34mph 0 0.000"
372967 6/13/2024 9:37pm 92.39° F --° F 92.39° F 131.18° F 87.02° F 93.07% 90.51° F 1011.45mb 5.13mph S 10.96mph 0 0.000"
372966 6/13/2024 9:32pm 92.50° F --° F 92.50° F 133.47° F 87.21° F 93.69% 90.80° F 1011.44mb 4.21mph S 8.23mph 0 0.000"
372965 6/13/2024 9:27pm 92.34° F --° F 92.34° F 136.47° F 87.32° F 95.54% 91.15° F 1011.40mb 2.67mph S 6.85mph 0 0.000"
372964 6/13/2024 9:22pm 91.94° F --° F 91.94° F 136.76° F 87.36° F 98.50% 91.54° F 1011.45mb 3.65mph S 6.85mph 0 0.000"
372963 6/13/2024 9:17pm 91.09° F --° F 91.09° F 134.04° F 86.72° F 100.00% 91.09° F 1011.53mb 3.36mph S 6.85mph 0 0.000"
372962 6/13/2024 9:12pm 91.36° F --° F 91.36° F 130.80° F 86.58° F 97.13% 90.60° F 1011.60mb 4.74mph S 9.61mph 0 0.000"
372961 6/13/2024 9:07pm 92.28° F --° F 92.28° F 133.18° F 87.18° F 94.85% 90.90° F 1011.55mb 4.67mph S 11.65mph 0 0.000"
372960 6/13/2024 9:02pm 92.64° F --° F 92.64° F 134.23° F 87.54° F 94.82% 91.25° F 1011.45mb 5.47mph S 10.96mph 0 0.000"
372959 6/13/2024 8:57pm 92.75° F --° F 92.75° F 133.72° F 87.56° F 94.24% 91.20° F 1011.56mb 5.84mph S 9.61mph 0 0.000"
372958 6/13/2024 8:52pm 92.73° F --° F 92.73° F 133.35° F 87.63° F 94.87% 91.35° F 1011.43mb 6.80mph S 15.77mph 0 0.000"
372957 6/13/2024 8:47pm 92.57° F --° F 92.57° F 133.00° F 87.50° F 95.14% 91.27° F 1011.50mb 6.62mph S 10.96mph 0 0.000"
372956 6/13/2024 8:41pm 91.96° F --° F 91.96° F 133.13° F 87.14° F 96.81% 91.11° F 1011.57mb 5.26mph S 10.30mph 0 0.000"
372955 6/13/2024 8:36pm 92.39° F --° F 92.39° F 121.73° F 86.18° F 87.58% 88.94° F 1011.42mb 8.16mph S 13.03mph 0 0.000"
372954 6/13/2024 8:31pm 93.54° F --° F 93.54° F 120.94° F 86.18° F 80.67% 87.95° F 1011.38mb 6.71mph S 12.34mph 0 0.000"
372953 6/13/2024 8:26pm 94.06° F --° F 94.06° F 119.52° F 86.02° F 76.97% 87.26° F 1011.22mb 6.34mph S 15.77mph 0 0.000"
372952 6/13/2024 8:21pm 93.97° F --° F 93.97° F 117.23° F 84.88° F 71.46% 85.29° F 1011.25mb 2.87mph S 4.80mph 0 0.000"
372951 6/13/2024 8:16pm 93.67° F --° F 93.67° F 112.34° F 83.98° F 68.32% 83.88° F 1011.20mb 3.68mph S 6.18mph 0 0.000"
372950 6/13/2024 8:11pm 93.47° F --° F 93.47° F 113.73° F 83.71° F 67.98% 83.57° F 1011.17mb 1.47mph NNW 3.43mph 0 0.000"
372949 6/13/2024 8:06pm 93.76° F --° F 93.76° F 115.05° F 83.81° F 67.15% 83.53° F 1011.11mb 0.44mph NNW 2.74mph 0 0.000"
372948 6/13/2024 8:01pm 94.01° F --° F 94.01° F 114.55° F 83.63° F 65.17% 83.02° F 1011.12mb 0.02mph NNW 0.69mph 0 0.000"
372947 6/13/2024 7:56pm 94.28° F --° F 94.28° F 114.43° F 83.71° F 64.34% 82.96° F 1011.07mb 0.25mph NNW 2.74mph 0 0.000"
372946 6/13/2024 7:51pm 94.55° F --° F 94.55° F 113.30° F 83.93° F 64.21% 83.16° F 1011.10mb 2.00mph NNW 3.43mph 0 0.000"
372945 6/13/2024 7:46pm 94.78° F --° F 94.78° F 114.76° F 83.98° F 63.55% 83.12° F 1011.08mb 0.76mph NNW 2.74mph 0 0.000"
372944 6/13/2024 7:41pm 95.16° F --° F 95.16° F 114.54° F 84.20° F 62.96% 83.24° F 1011.09mb 1.59mph NNW 3.43mph 0 0.000"
372943 6/13/2024 7:36pm 95.63° F --° F 95.63° F 113.83° F 84.19° F 61.09% 82.93° F 1010.94mb 2.02mph NNW 4.80mph 0 0.000"
372942 6/13/2024 7:30pm 95.79° F --° F 95.79° F 110.53° F 83.69° F 58.32% 81.93° F 1010.98mb 3.20mph NW 6.18mph 0 0.000"
372941 6/13/2024 7:25pm 96.01° F --° F 96.01° F 109.92° F 83.64° F 57.41% 81.74° F 1011.03mb 3.61mph NNW 6.18mph 0 0.000"
372940 6/13/2024 7:20pm 96.12° F --° F 96.12° F 111.49° F 84.01° F 58.48% 82.30° F 1011.10mb 3.36mph NNW 6.18mph 0 0.000"
372939 6/13/2024 7:15pm 96.08° F --° F 96.08° F 110.39° F 83.89° F 58.08% 82.09° F 1011.12mb 3.93mph NNW 6.18mph 0 0.000"
372938 6/13/2024 7:10pm 96.22° F --° F 96.22° F 114.98° F 84.22° F 58.94% 82.59° F 1011.08mb 0.78mph N 2.74mph 0 0.000"
372937 6/13/2024 7:05pm 96.66° F --° F 96.66° F 114.40° F 84.40° F 58.08% 82.63° F 1011.01mb 1.82mph NNW 2.74mph 0 0.000"
372936 6/13/2024 7:00pm 97.07° F --° F 97.07° F 112.87° F 84.31° F 56.26% 82.22° F 1010.99mb 2.80mph NNW 4.80mph 0 0.000"
372935 6/13/2024 6:55pm 97.34° F --° F 97.34° F 111.65° F 84.19° F 54.90% 81.86° F 1011.01mb 3.49mph NNW 7.54mph 0 0.000"
372934 6/13/2024 6:50pm 97.39° F --° F 97.39° F 111.47° F 84.25° F 55.00% 81.95° F 1010.92mb 3.88mph NNW 6.85mph 0 0.000"
372933 6/13/2024 6:45pm 97.38° F --° F 97.38° F 112.82° F 84.45° F 55.84% 82.31° F 1010.96mb 3.33mph NNW 7.54mph 0 0.000"
372932 6/13/2024 6:40pm 97.43° F --° F 97.43° F 111.67° F 84.12° F 54.33% 81.68° F 1010.86mb 3.22mph NNW 11.65mph 0 0.000"
372931 6/13/2024 6:35pm 97.66° F --° F 97.66° F 113.16° F 84.36° F 54.47% 81.96° F 1010.95mb 2.57mph NNW 5.49mph 0 0.000"
372930 6/13/2024 6:30pm 97.83° F --° F 97.83° F 112.86° F 84.41° F 54.10% 81.94° F 1010.91mb 2.99mph NNW 5.49mph 0 0.000"
372929 6/13/2024 6:25pm 97.97° F --° F 97.97° F 114.50° F 84.61° F 54.40% 82.21° F 1010.90mb 2.11mph NNW 4.11mph 0 0.000"
372928 6/13/2024 6:20pm 98.17° F --° F 98.17° F 113.42° F 84.46° F 53.24% 81.86° F 1010.85mb 2.62mph NNW 6.85mph 0 0.000"
372927 6/13/2024 6:15pm 98.28° F --° F 98.28° F 114.43° F 84.56° F 53.29% 81.98° F 1010.88mb 2.02mph NNW 4.11mph 0 0.000"
372926 6/13/2024 6:09pm 98.38° F --° F 98.38° F 113.44° F 84.56° F 52.91% 81.89° F 1010.90mb 2.87mph NNW 7.54mph 0 0.000"
372925 6/13/2024 6:04pm 98.60° F --° F 98.60° F 111.39° F 84.16° F 50.82% 81.10° F 1010.90mb 3.52mph NNW 8.92mph 0 0.000"
372924 6/13/2024 5:59pm 98.67° F --° F 98.67° F 109.32° F 83.84° F 49.55% 80.54° F 1010.79mb 4.53mph NW 7.54mph 0 0.000"
372923 6/13/2024 5:54pm 98.83° F --° F 98.83° F 108.20° F 83.70° F 48.58% 80.20° F 1010.77mb 5.15mph NW 8.92mph 0 0.000"
372922 6/13/2024 5:49pm 99.07° F --° F 99.07° F 109.73° F 83.96° F 48.77% 80.51° F 1010.70mb 4.48mph NNW 8.92mph 0 0.000"
372921 6/13/2024 5:44pm 99.16° F --° F 99.16° F 113.67° F 84.58° F 50.61% 81.50° F 1010.67mb 2.67mph NNW 6.18mph 0 0.000"
372920 6/13/2024 5:39pm 99.27° F --° F 99.27° F 111.09° F 84.29° F 49.33% 80.97° F 1010.75mb 4.21mph NNW 9.61mph 0 0.000"
372919 6/13/2024 5:34pm 99.37° F --° F 99.37° F 114.97° F 84.88° F 51.02% 81.89° F 1010.79mb 2.39mph NNW 4.11mph 0 0.000"
372918 6/13/2024 5:29pm 99.34° F --° F 99.34° F 112.64° F 84.63° F 50.22% 81.48° F 1010.80mb 3.75mph NW 8.23mph 0 0.000"
372917 6/13/2024 5:24pm 99.37° F --° F 99.37° F 110.30° F 84.30° F 49.06% 80.93° F 1010.75mb 4.97mph NW 9.61mph 0 0.000"
372916 6/13/2024 5:19pm 99.43° F --° F 99.43° F 113.82° F 84.92° F 51.01% 81.94° F 1010.74mb 3.61mph NW 8.23mph 0 0.000"
372915 6/13/2024 5:14pm 99.30° F --° F 99.30° F 111.15° F 84.41° F 49.66% 81.16° F 1010.67mb 4.53mph NNW 10.96mph 0 0.000"
372914 6/13/2024 5:09pm 99.41° F --° F 99.41° F 112.25° F 84.65° F 50.09% 81.47° F 1010.72mb 4.18mph NW 9.61mph 0 0.000"
372913 6/13/2024 5:04pm 99.57° F --° F 99.57° F 116.45° F 85.31° F 51.94% 82.51° F 1010.81mb 2.41mph NNW 4.11mph 0 0.000"
372912 6/13/2024 4:59pm 99.61° F --° F 99.61° F 116.31° F 85.39° F 52.05% 82.60° F 1010.80mb 2.76mph NNW 4.80mph 0 0.000"
372911 6/13/2024 4:53pm 99.72° F --° F 99.72° F 113.74° F 84.95° F 50.21% 81.81° F 1010.91mb 3.72mph NNW 7.54mph 0 0.000"
372910 6/13/2024 4:48pm 99.86° F --° F 99.86° F 115.77° F 85.49° F 51.69% 82.66° F 1010.98mb 3.61mph NW 12.34mph 0 0.000"
372909 6/13/2024 4:43pm 99.95° F --° F 99.95° F 115.76° F 85.37° F 50.97% 82.39° F 1011.00mb 3.17mph NNW 5.49mph 0 0.000"
372908 6/13/2024 4:38pm 99.75° F --° F 99.75° F 116.26° F 85.23° F 51.10% 82.27° F 1011.02mb 2.28mph NNW 4.80mph 0 0.000"
372907 6/13/2024 4:33pm 99.68° F --° F 99.68° F 114.76° F 85.05° F 50.68% 82.01° F 1011.01mb 3.10mph NNW 7.54mph 0 0.000"
372906 6/13/2024 4:28pm 99.59° F --° F 99.59° F 112.74° F 84.87° F 50.30% 81.74° F 1011.04mb 4.39mph NNW 9.61mph 0 0.000"
372905 6/13/2024 4:23pm 99.57° F --° F 99.57° F 113.02° F 84.96° F 50.69% 81.91° F 1011.14mb 4.44mph NW 10.30mph 0 0.000"
372904 6/13/2024 4:18pm 99.75° F --° F 99.75° F 111.27° F 84.51° F 48.67% 81.07° F 1011.16mb 4.69mph NNW 13.72mph 0 0.000"
372903 6/13/2024 4:13pm 99.82° F --° F 99.82° F 114.75° F 85.16° F 50.62% 82.10° F 1011.14mb 3.43mph NNW 9.61mph 0 0.000"
372902 6/13/2024 4:08pm 99.84° F --° F 99.84° F 110.27° F 84.52° F 48.44% 81.04° F 1011.04mb 5.65mph NW 14.41mph 0 0.000"
372901 6/13/2024 4:03pm 100.17° F --° F 100.17° F 113.52° F 85.10° F 49.48% 81.85° F 1011.11mb 4.44mph NW 8.23mph 0 0.000"
372900 6/13/2024 3:58pm 99.75° F --° F 99.75° F 114.84° F 85.23° F 51.10% 82.27° F 1011.21mb 3.61mph NW 7.54mph 0 0.000"
372899 6/13/2024 3:53pm 99.55° F --° F 99.55° F 113.78° F 84.90° F 50.52% 81.81° F 1011.11mb 3.52mph NNW 9.61mph 0 0.000"
372898 6/13/2024 3:48pm 99.52° F --° F 99.52° F 110.84° F 84.32° F 48.70% 80.88° F 1011.09mb 4.53mph NNW 12.34mph 0 0.000"
372897 6/13/2024 3:43pm 99.73° F --° F 99.73° F 109.14° F 83.90° F 46.74% 80.07° F 1011.23mb 4.92mph NNW 13.72mph 0 0.000"
372896 6/13/2024 3:38pm 99.66° F --° F 99.66° F 110.72° F 84.67° F 49.48% 81.40° F 1011.22mb 5.70mph WNW 13.03mph 0 0.000"
372895 6/13/2024 3:32pm 99.77° F --° F 99.77° F 111.60° F 84.87° F 49.83% 81.67° F 1011.20mb 5.49mph WNW 10.96mph 0 0.000"
372894 6/13/2024 3:27pm 99.68° F --° F 99.68° F 115.04° F 85.24° F 51.37% 82.34° F 1011.18mb 3.49mph NNW 5.49mph 0 0.000"
372893 6/13/2024 3:22pm 99.59° F --° F 99.59° F 117.47° F 85.90° F 53.99% 83.49° F 1011.21mb 3.52mph NW 8.23mph 0 0.000"
372892 6/13/2024 3:17pm 99.46° F --° F 99.46° F 116.35° F 85.70° F 53.64% 83.21° F 1011.19mb 3.84mph NNW 8.23mph 0 0.000"
372891 6/13/2024 3:12pm 99.30° F --° F 99.30° F 114.73° F 85.27° F 52.58% 82.57° F 1011.18mb 3.88mph NW 9.61mph 0 0.000"
372890 6/13/2024 3:07pm 99.27° F --° F 99.27° F 111.83° F 84.76° F 50.90% 81.74° F 1011.37mb 4.94mph NW 10.30mph 0 0.000"
372889 6/13/2024 3:02pm 99.10° F --° F 99.10° F 112.72° F 85.08° F 52.52% 82.36° F 1011.39mb 5.15mph NNW 10.96mph 0 0.000"
372888 6/13/2024 2:57pm 98.96° F --° F 98.96° F 113.37° F 85.11° F 53.09% 82.50° F 1011.46mb 4.69mph NW 13.72mph 0 0.000"
372887 6/13/2024 2:52pm 98.82° F --° F 98.82° F 114.58° F 85.33° F 54.33% 82.95° F 1011.54mb 4.34mph NNW 11.65mph 0 0.000"
372886 6/13/2024 2:47pm 98.78° F --° F 98.78° F 109.01° F 84.20° F 50.41% 81.06° F 1011.51mb 5.84mph NW 15.08mph 0 0.000"
372885 6/13/2024 2:42pm 99.00° F --° F 99.00° F 111.32° F 84.87° F 52.08% 82.06° F 1011.64mb 5.77mph NW 12.34mph 0 0.000"
372884 6/13/2024 2:37pm 98.98° F --° F 98.98° F 116.18° F 85.80° F 55.57% 83.65° F 1011.78mb 4.51mph NW 10.96mph 0 0.000"
372883 6/13/2024 2:32pm 98.60° F --° F 98.60° F 118.68° F 86.13° F 58.05% 84.40° F 1011.73mb 3.52mph NNW 7.54mph 0 0.000"
372882 6/13/2024 2:27pm 98.55° F --° F 98.55° F 111.09° F 85.18° F 54.66% 82.85° F 1011.75mb 7.15mph NW 13.72mph 0 0.000"
372881 6/13/2024 2:21pm 98.55° F --° F 98.55° F 115.48° F 85.73° F 56.72% 83.77° F 1011.91mb 5.03mph NW 9.61mph 0 0.000"
372880 6/13/2024 2:16pm 98.47° F --° F 98.47° F 121.78° F 86.71° F 60.85% 85.46° F 1011.98mb 3.10mph NNW 6.85mph 0 0.000"
372879 6/13/2024 2:11pm 98.33° F --° F 98.33° F 122.21° F 87.00° F 62.61% 86.05° F 1012.03mb 4.11mph NNW 8.23mph 0 0.000"
372878 6/13/2024 2:06pm 98.31° F --° F 98.31° F 121.96° F 86.91° F 62.30% 85.91° F 1012.09mb 3.95mph NNW 8.23mph 0 0.000"
372877 6/13/2024 2:01pm 98.13° F --° F 98.13° F 120.85° F 86.81° F 62.57% 85.85° F 1012.22mb 4.67mph NNW 11.65mph 0 0.000"
372876 6/13/2024 1:56pm 97.83° F --° F 97.83° F 122.33° F 86.82° F 63.88% 86.09° F 1012.11mb 3.68mph NNW 7.54mph 0 0.000"
372875 6/13/2024 1:51pm 97.61° F --° F 97.61° F 116.41° F 85.93° F 60.85% 84.66° F 1012.24mb 5.38mph NW 17.84mph 0 0.000"
372874 6/13/2024 1:46pm 97.45° F --° F 97.45° F 117.90° F 85.90° F 61.37% 84.73° F 1012.39mb 4.00mph NNW 8.23mph 0 0.000"
372873 6/13/2024 1:41pm 97.20° F --° F 97.20° F 120.72° F 86.55° F 65.19% 86.02° F 1012.41mb 4.44mph NNW 12.34mph 0 0.000"
372872 6/13/2024 1:36pm 96.82° F --° F 96.82° F 115.96° F 86.10° F 64.67% 85.46° F 1012.50mb 7.08mph NW 13.72mph 0 0.000"
372871 6/13/2024 1:31pm 96.44° F --° F 96.44° F 117.16° F 85.97° F 65.69% 85.50° F 1012.60mb 5.72mph NNW 11.65mph 0 0.000"
372870 6/13/2024 1:26pm 95.97° F --° F 95.97° F 116.41° F 85.66° F 66.19% 85.25° F 1012.64mb 5.36mph NW 10.96mph 0 0.000"
372869 6/13/2024 1:21pm 95.02° F --° F 95.02° F 110.13° F 84.70° F 65.86% 84.23° F 1012.77mb 7.84mph WNW 15.77mph 0 0.000"
372868 6/13/2024 1:16pm 95.59° F --° F 95.59° F 111.92° F 85.04° F 64.94% 84.41° F 1012.68mb 7.13mph NW 18.53mph 0 0.000"
372867 6/13/2024 1:11pm 96.71° F --° F 96.71° F 114.74° F 85.62° F 63.04% 84.72° F 1012.79mb 6.25mph NW 14.41mph 0 0.000"
372866 6/13/2024 1:05pm 97.02° F --° F 97.02° F 121.95° F 86.73° F 66.69% 86.42° F 1012.72mb 4.25mph NNW 8.92mph 0 0.000"
372865 6/13/2024 1:00pm 96.53° F --° F 96.53° F 119.69° F 86.63° F 68.30% 86.57° F 1012.80mb 6.34mph NW 14.41mph 0 0.000"
372864 6/13/2024 12:55pm 96.60° F --° F 96.60° F 114.26° F 85.72° F 63.94% 84.97° F 1012.95mb 7.22mph NW 15.08mph 0 0.000"
372863 6/13/2024 12:50pm 96.48° F --° F 96.48° F 120.87° F 86.57° F 68.25% 86.50° F 1012.97mb 5.01mph NNW 8.92mph 0 0.000"
372862 6/13/2024 12:45pm 96.39° F --° F 96.39° F 116.57° F 85.88° F 65.51% 85.38° F 1012.89mb 5.93mph NNW 14.41mph 0 0.000"
372861 6/13/2024 12:40pm 95.94° F --° F 95.94° F 122.96° F 86.93° F 72.45% 87.51° F 1012.88mb 5.54mph NNW 11.65mph 0 0.000"
372860 6/13/2024 12:35pm 95.45° F --° F 95.45° F 120.91° F 86.49° F 72.51% 87.07° F 1012.81mb 5.70mph NNW 15.08mph 0 0.000"
372859 6/13/2024 12:30pm 94.66° F --° F 94.66° F 119.69° F 86.16° F 74.68% 87.06° F 1012.92mb 6.14mph NW 15.77mph 0 0.000"
372858 6/13/2024 12:25pm 93.52° F --° F 93.52° F 121.87° F 85.92° F 79.33% 87.51° F 1012.92mb 4.41mph NNW 8.23mph 0 0.000"
372857 6/13/2024 12:20pm 94.01° F --° F 94.01° F 113.76° F 85.25° F 73.20% 85.93° F 1012.84mb 7.86mph NW 14.41mph 0 0.000"
372856 6/13/2024 12:15pm 95.31° F --° F 95.31° F 114.59° F 85.56° F 68.63% 85.54° F 1012.97mb 7.22mph NW 15.08mph 0 0.000"
372855 6/13/2024 12:10pm 95.45° F --° F 95.45° F 119.32° F 86.61° F 73.18% 87.30° F 1012.99mb 7.88mph NW 15.08mph 0 0.000"
372854 6/13/2024 12:05pm 95.36° F --° F 95.36° F 123.17° F 87.27° F 77.12% 88.55° F 1012.99mb 8.18mph NW 14.41mph 0 0.000"
372853 6/13/2024 11:59am 95.31° F --° F 95.31° F 123.44° F 86.92° F 75.53% 87.97° F 1013.02mb 6.00mph NW 13.72mph 0 0.000"
372852 6/13/2024 11:54am 95.14° F --° F 95.14° F 121.72° F 86.97° F 76.54% 88.15° F 1013.08mb 8.02mph NW 15.08mph 0 0.000"
372851 6/13/2024 11:49am 95.04° F --° F 95.04° F 129.72° F 87.86° F 82.06% 89.85° F 1013.01mb 6.30mph NW 14.41mph 0 0.000"
372850 6/13/2024 11:44am 94.59° F --° F 94.59° F 133.86° F 88.30° F 87.35% 91.03° F 1013.13mb 6.62mph NW 16.46mph 0 0.000"
372849 6/13/2024 11:39am 94.15° F --° F 94.15° F 138.02° F 88.37° F 90.37% 91.48° F 1013.08mb 4.25mph NW 8.92mph 0 0.000"
372848 6/13/2024 11:34am 93.13° F --° F 93.13° F 140.47° F 88.26° F 96.46% 92.18° F 1013.19mb 4.09mph NNW 11.65mph 0 0.000"
372847 6/13/2024 11:29am 92.75° F --° F 92.75° F 133.96° F 87.57° F 94.27% 91.20° F 1013.22mb 5.65mph NNW 14.41mph 0 0.000"
372846 6/13/2024 11:24am 93.45° F --° F 93.45° F 137.50° F 88.13° F 93.49% 91.68° F 1013.13mb 4.97mph NNW 11.65mph 0 0.000"
372845 6/13/2024 11:19am 94.51° F --° F 94.51° F 136.15° F 88.67° F 90.00% 91.73° F 1013.18mb 7.31mph NW 14.41mph 0 0.000"
372844 6/13/2024 11:14am 94.37° F --° F 94.37° F 146.82° F 89.57° F 97.00% 93.56° F 1013.11mb 5.56mph NW 13.03mph 0 0.000"
372843 6/13/2024 11:09am 93.83° F --° F 93.83° F 145.21° F 89.19° F 98.04% 93.31° F 1013.23mb 5.42mph NW 13.03mph 0 0.000"
372842 6/13/2024 11:04am 92.82° F --° F 92.82° F 142.10° F 88.46° F 100.00% 92.82° F 1013.18mb 5.17mph NW 12.34mph 0 0.000"
372841 6/13/2024 10:59am 91.47° F --° F 91.47° F 133.63° F 87.10° F 100.00% 91.47° F 1013.20mb 5.75mph NNW 10.96mph 0 0.000"
372840 6/13/2024 10:53am 91.81° F --° F 91.81° F 135.74° F 87.44° F 100.00% 91.81° F 1013.11mb 5.59mph NNW 13.03mph 0 0.000"
372839 6/13/2024 10:48am 92.19° F --° F 92.19° F 137.90° F 87.82° F 100.00% 92.19° F 1013.14mb 5.63mph NNW 12.34mph 0 0.000"
372838 6/13/2024 10:43am 92.73° F --° F 92.73° F 141.74° F 88.36° F 100.00% 92.73° F 1013.10mb 5.01mph NNW 13.03mph 0 0.000"
372837 6/13/2024 10:38am 91.90° F --° F 91.90° F 134.86° F 87.53° F 100.00% 91.90° F 1013.11mb 6.90mph NW 13.72mph 0 0.000"
372836 6/13/2024 10:33am 90.55° F --° F 90.55° F 125.94° F 86.17° F 100.00% 90.55° F 1013.15mb 8.11mph NW 15.08mph 0 0.000"
372835 6/13/2024 10:28am 90.03° F --° F 90.03° F 124.31° F 85.65° F 100.00% 90.03° F 1013.07mb 6.99mph NW 15.08mph 0 0.000"
372834 6/13/2024 10:23am 90.70° F --° F 90.70° F 128.89° F 86.32° F 100.00% 90.70° F 1013.17mb 6.14mph NW 13.03mph 0 0.000"
372833 6/13/2024 10:18am 91.60° F --° F 91.60° F 132.60° F 87.22° F 100.00% 91.60° F 1013.08mb 7.40mph NW 12.34mph 0 0.000"
372832 6/13/2024 10:13am 92.34° F --° F 92.34° F 137.32° F 87.97° F 100.00% 92.34° F 1013.07mb 6.99mph NW 14.41mph 0 0.000"
372831 6/13/2024 10:08am 91.76° F --° F 91.76° F 137.65° F 87.39° F 100.00% 91.76° F 1013.06mb 3.54mph NNW 6.18mph 0 0.000"
372830 6/13/2024 10:03am 90.52° F --° F 90.52° F 127.72° F 86.14° F 100.00% 90.52° F 1013.18mb 6.30mph NW 13.03mph 0 0.000"
372829 6/13/2024 9:58am 89.76° F --° F 89.76° F 126.06° F 85.37° F 100.00% 89.76° F 1013.05mb 4.00mph NNW 9.61mph 0 0.000"
372828 6/13/2024 9:53am 90.12° F --° F 90.12° F 125.09° F 85.74° F 100.00% 90.12° F 1013.02mb 6.71mph NW 15.08mph 0 0.000"
372827 6/13/2024 9:47am 91.29° F --° F 91.29° F 133.44° F 86.91° F 100.00% 91.29° F 1013.01mb 4.97mph NNW 10.30mph 0 0.000"
372826 6/13/2024 9:42am 91.06° F --° F 91.06° F 130.74° F 86.68° F 100.00% 91.06° F 1012.99mb 6.28mph NW 12.34mph 0 0.000"
372825 6/13/2024 9:37am 90.00° F --° F 90.00° F 125.09° F 85.61° F 100.00% 90.00° F 1012.99mb 6.11mph NW 15.08mph 0 0.000"
372824 6/13/2024 9:32am 89.01° F --° F 89.01° F 118.79° F 84.61° F 100.00% 89.01° F 1013.05mb 7.08mph NW 13.72mph 0 0.000"
372823 6/13/2024 9:27am 90.05° F --° F 90.05° F 127.20° F 85.66° F 100.00% 90.05° F 1012.98mb 4.39mph NNW 11.65mph 0 0.000"
372822 6/13/2024 9:22am 90.48° F --° F 90.48° F 131.14° F 86.10° F 100.00% 90.48° F 1013.06mb 2.90mph NNW 8.92mph 0 0.000"
372821 6/13/2024 9:17am 90.14° F --° F 90.14° F 125.35° F 85.75° F 100.00% 90.14° F 1013.06mb 6.57mph NW 15.77mph 0 0.000"
372820 6/13/2024 9:12am 89.35° F --° F 89.35° F 123.06° F 84.96° F 100.00% 89.35° F 1013.02mb 4.76mph NNW 13.03mph 0 0.000"
372819 6/13/2024 9:07am 88.50° F --° F 88.50° F 119.19° F 84.10° F 100.00% 88.50° F 1013.04mb 4.25mph NNW 9.61mph 0 0.000"
372818 6/13/2024 9:02am 88.83° F --° F 88.83° F 120.76° F 84.43° F 100.00% 88.83° F 1013.11mb 4.37mph NW 8.92mph 0 0.000"
372817 6/13/2024 8:57am 89.44° F --° F 89.44° F 123.66° F 85.05° F 100.00% 89.44° F 1013.05mb 4.64mph NNW 12.34mph 0 0.000"
372816 6/13/2024 8:52am 90.00° F --° F 90.00° F 127.35° F 85.61° F 100.00% 90.00° F 1012.93mb 4.00mph NNW 8.92mph 0 0.000"
372815 6/13/2024 8:47am 89.33° F --° F 89.33° F 122.10° F 84.94° F 100.00% 89.33° F 1012.88mb 5.56mph NW 13.03mph 0 0.000"
372814 6/13/2024 8:42am 88.21° F --° F 88.21° F 118.70° F 83.81° F 100.00% 88.21° F 1012.89mb 3.33mph NNW 9.61mph 0 0.000"
372813 6/13/2024 8:37am 87.15° F --° F 87.15° F 114.45° F 82.75° F 100.00% 87.15° F 1012.88mb 2.39mph NNW 8.23mph 0 0.000"
372812 6/13/2024 8:31am 87.28° F --° F 87.28° F 114.74° F 82.87° F 100.00% 87.28° F 1012.83mb 2.71mph NNW 5.49mph 0 0.000"
372811 6/13/2024 8:26am 87.44° F --° F 87.44° F 114.93° F 83.04° F 100.00% 87.44° F 1012.76mb 3.26mph NNW 8.23mph 0 0.000"
372810 6/13/2024 8:21am 87.85° F --° F 87.85° F 116.64° F 83.45° F 100.00% 87.85° F 1012.79mb 3.56mph NNW 7.54mph 0 0.000"
372809 6/13/2024 8:16am 88.57° F --° F 88.57° F 119.87° F 84.18° F 100.00% 88.57° F 1012.71mb 3.95mph NNW 8.23mph 0 0.000"
372808 6/13/2024 8:11am 88.14° F --° F 88.14° F 118.31° F 83.74° F 100.00% 88.14° F 1012.61mb 3.36mph NNW 10.30mph 0 0.000"
372807 6/13/2024 8:06am 87.06° F --° F 87.06° F 113.46° F 82.65° F 100.00% 87.06° F 1012.52mb 2.90mph NNW 9.61mph 0 0.000"
372806 6/13/2024 8:01am 85.59° F --° F 85.59° F 106.53° F 81.17° F 100.00% 85.59° F 1012.58mb 2.92mph NNW 4.80mph 0 0.000"
372805 6/13/2024 7:56am 85.15° F --° F 85.15° F 104.30° F 80.73° F 100.00% 85.15° F 1012.53mb 3.15mph NNW 6.85mph 0 0.000"
372804 6/13/2024 7:51am 85.26° F --° F 85.26° F 101.42° F 80.84° F 100.00% 85.26° F 1012.49mb 6.30mph NW 11.65mph 0 0.000"
372803 6/13/2024 7:46am 85.82° F --° F 85.82° F 107.00° F 81.40° F 100.00% 85.82° F 1012.41mb 3.47mph NNW 8.23mph 0 0.000"
372802 6/13/2024 7:41am 86.41° F --° F 86.41° F 108.93° F 82.00° F 100.00% 86.41° F 1012.39mb 4.23mph NNW 7.54mph 0 0.000"
372801 6/13/2024 7:36am 86.68° F --° F 86.68° F 111.62° F 82.27° F 100.00% 86.68° F 1012.40mb 2.92mph NNW 6.18mph 0 0.000"
372800 6/13/2024 7:31am 85.46° F --° F 85.46° F 104.12° F 81.04° F 100.00% 85.46° F 1012.32mb 4.62mph WNW 12.34mph 0 0.000"
372799 6/13/2024 7:26am 83.48° F --° F 83.48° F 96.68° F 79.05° F 100.00% 83.48° F 1012.37mb 3.54mph NNW 10.30mph 0 0.000"
372798 6/13/2024 7:21am 82.49° F --° F 82.49° F 95.07° F 78.05° F 100.00% 82.49° F 1012.31mb 1.29mph N 3.43mph 0 0.000"
372797 6/13/2024 7:16am 82.49° F --° F 82.49° F 94.61° F 78.05° F 100.00% 82.49° F 1012.31mb 1.72mph NNW 8.23mph 0 0.000"
372796 6/13/2024 7:10am 82.53° F --° F 82.53° F 96.62° F 78.09° F 100.00% 82.53° F 1012.30mb 0.00mph -- 0.69mph 0 0.000"
372795 6/13/2024 7:05am 82.65° F --° F 82.65° F 95.31° F 78.21° F 100.00% 82.65° F 1012.17mb 1.66mph NNW 4.11mph 0 0.000"
372794 6/13/2024 7:00am 82.87° F --° F 82.87° F 94.55° F 78.43° F 100.00% 82.87° F 1012.09mb 3.20mph NNW 8.23mph 0 0.000"
372793 6/13/2024 6:55am 83.28° F --° F 83.28° F 98.49° F 78.85° F 100.00% 83.28° F 1012.16mb 1.08mph NNW 5.49mph 0 0.000"
372792 6/13/2024 6:50am 83.73° F --° F 83.73° F 101.52° F 79.30° F 100.00% 83.73° F 1012.12mb 0.00mph -- 0.00mph 0 0.000"
372791 6/13/2024 6:45am 84.29° F --° F 84.29° F 103.90° F 79.86° F 100.00% 84.29° F 1012.09mb 0.00mph -- 0.69mph 0 0.000"
372790 6/13/2024 6:40am 83.91° F --° F 83.91° F 102.20° F 79.48° F 100.00% 83.91° F 1012.00mb 0.07mph N 1.38mph 0 0.000"
372789 6/13/2024 6:35am 82.67° F --° F 82.67° F 97.17° F 78.23° F 100.00% 82.67° F 1011.91mb 0.00mph -- 0.00mph 0 0.000"
372788 6/13/2024 6:30am 82.22° F --° F 82.22° F 95.39° F 77.78° F 100.00% 82.22° F 1011.94mb 0.00mph -- 0.00mph 0 0.000"
372787 6/13/2024 6:25am 82.51° F --° F 82.51° F 96.54° F 78.07° F 100.00% 82.51° F 1011.87mb 0.00mph -- 0.00mph 0 0.000"
372786 6/13/2024 6:20am 82.94° F --° F 82.94° F 98.26° F 78.50° F 100.00% 82.94° F 1011.76mb 0.00mph -- 0.00mph 0 0.000"
372785 6/13/2024 6:15am 83.50° F --° F 83.50° F 100.56° F 79.07° F 100.00% 83.50° F 1011.72mb 0.00mph -- 0.00mph 0 0.000"
372784 6/13/2024 6:10am 84.13° F --° F 84.13° F 103.21° F 79.70° F 100.00% 84.13° F 1011.67mb 0.00mph -- 0.00mph 0 0.000"
372783 6/13/2024 6:05am 83.66° F --° F 83.66° F 101.23° F 79.23° F 100.00% 83.66° F 1011.58mb 0.00mph -- 0.00mph 0 0.000"
372782 6/13/2024 6:00am 82.74° F --° F 82.74° F 97.45° F 78.30° F 100.00% 82.74° F 1011.54mb 0.00mph -- 0.00mph 0 0.000"
372781 6/13/2024 5:55am 81.77° F --° F 81.77° F 93.65° F 77.33° F 100.00% 81.77° F 1011.49mb 0.00mph -- 0.00mph 0 0.000"
372780 6/13/2024 5:50am 81.93° F --° F 81.93° F 94.27° F 77.49° F 100.00% 81.93° F 1011.42mb 0.00mph -- 0.00mph 0 0.000"
372779 6/13/2024 5:45am 82.15° F --° F 82.15° F 95.12° F 77.71° F 100.00% 82.15° F 1011.40mb 0.00mph -- 0.00mph 0 0.000"
372778 6/13/2024 5:40am 82.42° F --° F 82.42° F 96.18° F 77.98° F 100.00% 82.42° F 1011.35mb 0.00mph -- 0.00mph 0 0.000"
372777 6/13/2024 5:34am 82.74° F --° F 82.74° F 97.45° F 78.30° F 100.00% 82.74° F 1011.32mb 0.00mph -- 0.00mph 0 0.000"
372776 6/13/2024 5:29am 83.16° F --° F 83.16° F 99.16° F 78.72° F 100.00% 83.16° F 1011.35mb 0.00mph -- 0.00mph 0 0.000"
372775 6/13/2024 5:24am 83.70° F --° F 83.70° F 101.39° F 79.26° F 100.00% 83.70° F 1011.31mb 0.00mph -- 0.00mph 0 0.000"
372774 6/13/2024 5:19am 84.31° F --° F 84.31° F 103.10° F 79.88° F 100.00% 84.31° F 1011.22mb 0.83mph N 2.07mph 0 0.000"
372773 6/13/2024 5:14am 84.15° F --° F 84.15° F 101.28° F 79.72° F 100.00% 84.15° F 1011.14mb 1.88mph NNW 2.74mph 0 0.000"
372772 6/13/2024 5:09am 83.44° F --° F 83.44° F 98.05° F 79.01° F 100.00% 83.44° F 1011.07mb 2.11mph NNW 3.43mph 0 0.000"
372771 6/13/2024 5:04am 82.42° F --° F 82.42° F 95.78° F 77.98° F 100.00% 82.42° F 1011.08mb 0.37mph NNW 2.74mph 0 0.000"
372770 6/13/2024 4:59am 82.29° F --° F 82.29° F 95.67° F 77.85° F 100.00% 82.29° F 1010.99mb 0.00mph -- 0.00mph 0 0.000"
372769 6/13/2024 4:54am 82.58° F --° F 82.58° F 96.82° F 78.14° F 100.00% 82.58° F 1010.89mb 0.00mph -- 0.00mph 0 0.000"
372768 6/13/2024 4:49am 82.96° F --° F 82.96° F 98.34° F 78.52° F 100.00% 82.96° F 1010.79mb 0.00mph -- 0.00mph 0 0.000"
372767 6/13/2024 4:44am 83.37° F --° F 83.37° F 100.02° F 78.94° F 100.00% 83.37° F 1010.78mb 0.00mph -- 0.00mph 0 0.000"
372766 6/13/2024 4:39am 83.93° F --° F 83.93° F 102.36° F 79.50° F 100.00% 83.93° F 1010.77mb 0.00mph -- 0.00mph 0 0.000"
372765 6/13/2024 4:34am 84.47° F --° F 84.47° F 104.68° F 80.04° F 100.00% 84.47° F 1010.71mb 0.00mph -- 0.69mph 0 0.000"
372764 6/13/2024 4:29am 84.15° F --° F 84.15° F 103.25° F 79.72° F 100.00% 84.15° F 1010.67mb 0.05mph N 1.38mph 0 0.000"
372763 6/13/2024 4:24am 83.26° F --° F 83.26° F 99.07° F 78.83° F 100.00% 83.26° F 1010.65mb 0.46mph NNW 2.07mph 0 0.000"
372762 6/13/2024 4:19am 82.83° F --° F 82.83° F 97.82° F 78.39° F 100.00% 82.83° F 1010.60mb 0.00mph -- 0.00mph 0 0.000"
372761 6/13/2024 4:14am 83.12° F --° F 83.12° F 98.99° F 78.68° F 100.00% 83.12° F 1010.60mb 0.00mph -- 0.00mph 0 0.000"
372760 6/13/2024 4:09am 83.43° F --° F 83.43° F 100.27° F 78.99° F 100.00% 83.43° F 1010.55mb 0.00mph -- 0.00mph 0 0.000"
372759 6/13/2024 4:03am 83.80° F --° F 83.80° F 101.81° F 79.37° F 100.00% 83.80° F 1010.55mb 0.00mph -- 0.00mph 0 0.000"
372758 6/13/2024 3:58am 84.24° F --° F 84.24° F 103.69° F 79.81° F 100.00% 84.24° F 1010.55mb 0.00mph -- 0.00mph 0 0.000"
372757 6/13/2024 3:53am 84.76° F --° F 84.76° F 105.95° F 80.33° F 100.00% 84.76° F 1010.53mb 0.00mph -- 0.00mph 0 0.000"
372756 6/13/2024 3:48am 85.35° F --° F 85.35° F 108.58° F 80.93° F 100.00% 85.35° F 1010.51mb 0.00mph -- 0.00mph 0 0.000"
372755 6/13/2024 3:43am 85.60° F --° F 85.60° F 109.71° F 81.19° F 100.00% 85.60° F 1010.51mb 0.00mph -- 0.00mph 0 0.000"
372754 6/13/2024 3:38am 85.32° F --° F 85.32° F 108.44° F 80.90° F 100.00% 85.32° F 1010.47mb 0.00mph -- 0.00mph 0 0.000"
372753 6/13/2024 3:33am 84.61° F --° F 84.61° F 105.29° F 80.19° F 100.00% 84.61° F 1010.62mb 0.00mph -- 0.00mph 0 0.000"
372752 6/13/2024 3:28am 84.97° F --° F 84.97° F 106.88° F 80.55° F 100.00% 84.97° F 1010.55mb 0.00mph -- 0.00mph 0 0.000"
372751 6/13/2024 3:23am 85.50° F --° F 85.50° F 109.26° F 81.08° F 100.00% 85.50° F 1010.69mb 0.00mph -- 0.00mph 0 0.000"
372750 6/13/2024 3:18am 86.16° F --° F 86.16° F 112.29° F 81.75° F 100.00% 86.16° F 1010.68mb 0.00mph -- 0.00mph 0 0.000"
372749 6/13/2024 3:13am 86.95° F --° F 86.95° F 116.04° F 82.55° F 100.00% 86.95° F 1010.65mb 0.00mph -- 0.00mph 0 0.000"
372748 6/13/2024 3:08am 86.88° F --° F 86.88° F 115.68° F 82.47° F 100.00% 86.88° F 1010.64mb 0.02mph NNW 0.69mph 0 0.000"
372747 6/13/2024 3:03am 86.18° F --° F 86.18° F 112.33° F 81.77° F 100.00% 86.18° F 1010.63mb 0.05mph NW 1.38mph 0 0.000"
372746 6/13/2024 2:58am 84.78° F --° F 84.78° F 105.71° F 80.35° F 100.00% 84.78° F 1010.66mb 0.30mph NNW 4.11mph 0 0.000"
372745 6/13/2024 2:53am 84.47° F --° F 84.47° F 104.66° F 80.04° F 100.00% 84.47° F 1010.69mb 0.02mph NNW 0.69mph 0 0.000"
372744 6/13/2024 2:48am 84.76° F --° F 84.76° F 105.55° F 80.33° F 100.00% 84.76° F 1010.78mb 0.37mph NNW 4.80mph 0 0.000"
372743 6/13/2024 2:43am 85.06° F --° F 85.06° F 106.66° F 80.64° F 100.00% 85.06° F 1010.74mb 0.57mph NNW 2.74mph 0 0.000"
372742 6/13/2024 2:38am 85.46° F --° F 85.46° F 108.81° F 81.04° F 100.00% 85.46° F 1010.85mb 0.25mph NNW 2.74mph 0 0.000"
372741 6/13/2024 2:32am 86.00° F --° F 86.00° F 109.90° F 81.59° F 100.00% 86.00° F 1010.86mb 1.54mph NNW 6.18mph 0 0.000"
372740 6/13/2024 2:27am 86.74° F --° F 86.74° F 114.24° F 82.33° F 100.00% 86.74° F 1010.86mb 0.74mph NNW 3.43mph 0 0.000"
372739 6/13/2024 2:22am 86.92° F --° F 86.92° F 115.58° F 82.51° F 100.00% 86.92° F 1010.80mb 0.30mph NNW 2.07mph 0 0.000"
372738 6/13/2024 2:17am 86.29° F --° F 86.29° F 109.85° F 81.88° F 100.00% 86.29° F 1010.95mb 2.85mph NW 4.80mph 0 0.000"
372737 6/13/2024 2:12am 85.55° F --° F 85.55° F 107.04° F 81.13° F 100.00% 85.55° F 1011.00mb 2.28mph NW 4.80mph 0 0.000"
372736 6/13/2024 2:07am 85.14° F --° F 85.14° F 107.19° F 80.72° F 100.00% 85.14° F 1011.03mb 0.41mph NNW 4.11mph 0 0.000"
372735 6/13/2024 2:02am 85.51° F --° F 85.51° F 109.15° F 81.10° F 100.00% 85.51° F 1011.03mb 0.14mph NNW 1.38mph 0 0.000"
372734 6/13/2024 1:57am 86.00° F --° F 86.00° F 110.56° F 81.59° F 100.00% 86.00° F 1011.08mb 0.92mph NNW 4.11mph 0 0.000"
372733 6/13/2024 1:52am 86.70° F --° F 86.70° F 114.10° F 82.29° F 100.00% 86.70° F 1011.13mb 0.69mph NNW 3.43mph 0 0.000"
372732 6/13/2024 1:47am 87.46° F --° F 87.46° F 115.57° F 83.05° F 100.00% 87.46° F 1011.01mb 2.76mph NNW 5.49mph 0 0.000"
372731 6/13/2024 1:42am 87.57° F --° F 87.57° F 116.45° F 83.16° F 100.00% 87.57° F 1011.04mb 2.44mph NW 4.11mph 0 0.000"
372730 6/13/2024 1:37am 86.99° F --° F 86.99° F 113.67° F 82.58° F 100.00% 86.99° F 1011.02mb 2.39mph NW 4.80mph 0 0.000"
372729 6/13/2024 1:32am 85.80° F --° F 85.80° F 107.27° F 81.39° F 100.00% 85.80° F 1011.12mb 3.13mph NW 7.54mph 0 0.000"
372728 6/13/2024 1:27am 85.69° F --° F 85.69° F 109.70° F 81.28° F 100.00% 85.69° F 1011.13mb 0.39mph NNW 2.74mph 0 0.000"
372727 6/13/2024 1:22am 86.13° F --° F 86.13° F 112.15° F 81.71° F 100.00% 86.13° F 1011.25mb 0.00mph -- 0.00mph 0 0.000"
372726 6/13/2024 1:16am 86.65° F --° F 86.65° F 114.53° F 82.24° F 100.00% 86.65° F 1011.32mb 0.07mph NNW 1.38mph 0 0.000"
372725 6/13/2024 1:11am 87.33° F --° F 87.33° F 117.89° F 82.93° F 100.00% 87.33° F 1011.33mb 0.00mph -- 0.69mph 0 0.000"
372724 6/13/2024 1:06am 87.75° F --° F 87.75° F 119.91° F 83.34° F 100.00% 87.75° F 1011.34mb 0.05mph NNW 0.69mph 0 0.000"
372723 6/13/2024 1:01am 87.33° F --° F 87.33° F 117.17° F 82.93° F 100.00% 87.33° F 1011.39mb 0.67mph WNW 3.43mph 0 0.000"
372722 6/13/2024 12:56am 86.56° F --° F 86.56° F 113.17° F 82.15° F 100.00% 86.56° F 1011.41mb 0.94mph NNW 3.43mph 0 0.000"
372721 6/13/2024 12:51am 86.25° F --° F 86.25° F 112.41° F 81.84° F 100.00% 86.25° F 1011.44mb 0.28mph NNW 2.07mph 0 0.000"
372720 6/13/2024 12:46am 86.76° F --° F 86.76° F 115.11° F 82.35° F 100.00% 86.76° F 1011.45mb 0.02mph N 0.69mph 0 0.000"
372719 6/13/2024 12:41am 87.39° F --° F 87.39° F 116.75° F 82.81° F 98.71% 87.06° F 1011.49mb 0.39mph NNW 2.07mph 0 0.000"
372718 6/13/2024 12:36am 88.12° F --° F 88.12° F 119.29° F 83.32° F 97.00% 87.34° F 1011.49mb 0.00mph -- 0.00mph 0 0.000"
372717 6/13/2024 12:31am 88.59° F --° F 88.59° F 121.82° F 83.83° F 97.31% 87.89° F 1011.50mb 0.00mph -- 0.00mph 0 0.000"
372716 6/13/2024 12:26am 88.02° F --° F 88.02° F 120.99° F 83.62° F 100.00% 88.02° F 1011.50mb 0.30mph NNW 2.74mph 0 0.000"
372715 6/13/2024 12:21am 87.22° F --° F 87.22° F 117.35° F 82.82° F 100.00% 87.22° F 1011.56mb 0.00mph -- 0.69mph 0 0.000"
372714 6/13/2024 12:16am 87.03° F --° F 87.03° F 116.43° F 82.62° F 100.00% 87.03° F 1011.66mb 0.00mph -- 0.00mph 0 0.000"
372713 6/13/2024 12:11am 87.58° F --° F 87.58° F 118.32° F 83.04° F 99.01% 87.33° F 1011.68mb 0.00mph -- 0.69mph 0 0.000"
372712 6/13/2024 12:06am 88.25° F --° F 88.25° F 120.07° F 83.47° F 97.19% 87.52° F 1011.65mb 0.00mph -- 0.00mph 0 0.000"
372711 6/13/2024 12:01am 88.56° F --° F 88.56° F 122.11° F 83.85° F 97.81% 87.99° F 1011.76mb 0.00mph -- 0.00mph 0 0.000"
372710 6/12/2024 11:55pm 88.36° F --° F 88.36° F 121.56° F 83.81° F 98.88% 88.07° F 1011.69mb 0.46mph N 2.07mph 0 0.000"
372709 6/12/2024 11:50pm 87.93° F --° F 87.93° F 119.80° F 83.52° F 100.00% 87.93° F 1011.69mb 0.99mph NNW 2.74mph 0 0.000"
372708 6/12/2024 11:45pm 87.67° F --° F 87.67° F 119.47° F 83.23° F 99.89% 87.64° F 1011.80mb 0.00mph -- 0.69mph 0 0.000"
372707 6/12/2024 11:40pm 88.32° F --° F 88.32° F 121.07° F 83.64° F 97.97% 87.80° F 1011.82mb 0.00mph -- 0.00mph 0 0.000"
372706 6/12/2024 11:35pm 89.08° F --° F 89.08° F 123.49° F 84.22° F 96.49% 88.16° F 1011.78mb 0.00mph -- 0.00mph 0 0.000"
372705 6/12/2024 11:30pm 89.49° F --° F 89.49° F 124.92° F 84.67° F 96.84% 88.66° F 1011.79mb 0.87mph NNW 3.43mph 0 0.000"
372704 6/12/2024 11:25pm 89.26° F --° F 89.26° F 127.32° F 84.87° F 100.00% 89.26° F 1011.88mb 0.34mph NNW 2.07mph 0 0.000"
372703 6/12/2024 11:20pm 88.41° F --° F 88.41° F 122.72° F 84.01° F 100.00% 88.41° F 1011.96mb 0.53mph NNW 2.74mph 0 0.000"
372702 6/12/2024 11:15pm 88.12° F --° F 88.12° F 121.02° F 83.72° F 100.00% 88.12° F 1011.99mb 0.74mph NW 2.74mph 0 0.000"
372701 6/12/2024 11:10pm 88.77° F --° F 88.77° F 124.21° F 84.24° F 98.99% 88.51° F 1011.95mb 0.00mph -- 0.00mph 0 0.000"
372700 6/12/2024 11:05pm 89.47° F --° F 89.47° F 126.36° F 84.73° F 97.50% 88.82° F 1011.92mb 0.02mph NNW 0.69mph 0 0.000"
372699 6/12/2024 11:00pm 89.49° F --° F 89.49° F 125.98° F 84.72° F 97.23% 88.77° F 1011.98mb 0.23mph NNW 2.74mph 0 0.000"
372698 6/12/2024 10:55pm 89.06° F --° F 89.06° F 124.71° F 84.59° F 99.60% 88.96° F 1012.04mb 1.45mph S 4.11mph 0 0.000"
372697 6/12/2024 10:50pm 88.66° F --° F 88.66° F 122.23° F 83.93° F 97.58% 88.03° F 1011.97mb 0.16mph NNW 2.07mph 0 0.000"
372696 6/12/2024 10:45pm 89.29° F --° F 89.29° F 121.97° F 84.22° F 94.94% 87.96° F 1012.02mb 1.06mph NNW 2.74mph 0 0.000"
372695 6/12/2024 10:39pm 90.12° F --° F 90.12° F 125.24° F 84.81° F 93.34% 88.34° F 1012.02mb 0.34mph NNW 4.11mph 0 0.000"
372694 6/12/2024 10:34pm 90.32° F --° F 90.32° F 126.42° F 85.06° F 93.79% 88.67° F 1012.02mb 0.55mph NW 2.74mph 0 0.000"
372693 6/12/2024 10:29pm 89.94° F --° F 89.94° F 123.75° F 84.78° F 94.32% 88.43° F 1012.04mb 1.79mph S 6.85mph 0 0.000"
372692 6/12/2024 10:24pm 89.13° F --° F 89.13° F 122.90° F 84.30° F 96.73% 88.28° F 1012.11mb 0.99mph WNW 6.18mph 0 0.000"
372691 6/12/2024 10:19pm 89.15° F --° F 89.15° F 118.18° F 83.63° F 91.87% 86.98° F 1012.04mb 1.45mph S 4.80mph 0 0.000"
372690 6/12/2024 10:14pm 89.85° F --° F 89.85° F 121.09° F 84.03° F 89.85% 87.10° F 1011.97mb 0.00mph -- 0.00mph 0 0.000"
372689 6/12/2024 10:09pm 90.37° F --° F 90.37° F 122.46° F 84.62° F 90.22% 87.72° F 1011.90mb 1.24mph NW 4.11mph 0 0.000"
372688 6/12/2024 10:04pm 90.19° F --° F 90.19° F 119.73° F 84.49° F 90.53% 87.63° F 1011.84mb 3.29mph WNW 5.49mph 0 0.000"
372687 6/12/2024 9:59pm 89.71° F --° F 89.71° F 118.51° F 83.97° F 90.25% 87.08° F 1011.75mb 2.16mph WNW 5.49mph 0 0.000"
372686 6/12/2024 9:54pm 89.94° F --° F 89.94° F 111.73° F 82.74° F 80.80% 84.51° F 1011.66mb 1.88mph S 6.85mph 0 0.000"
372685 6/12/2024 9:49pm 90.82° F --° F 90.82° F 112.39° F 82.96° F 77.19% 84.22° F 1011.68mb 1.54mph S 5.49mph 0 0.000"
372684 6/12/2024 9:44pm 91.60° F --° F 91.60° F 114.27° F 83.43° F 75.69% 84.47° F 1011.63mb 1.24mph W 5.49mph 0 0.000"
372683 6/12/2024 9:39pm 91.56° F --° F 91.56° F 112.04° F 83.18° F 74.41% 84.01° F 1011.54mb 2.16mph W 4.80mph 0 0.000"
372682 6/12/2024 9:34pm 91.56° F --° F 91.56° F 111.37° F 83.04° F 73.73% 83.78° F 1011.60mb 2.25mph S 4.11mph 0 0.000"
372681 6/12/2024 9:28pm 91.72° F --° F 91.72° F 110.98° F 83.12° F 73.30% 83.79° F 1011.64mb 2.80mph S 4.80mph 0 0.000"
372680 6/12/2024 9:23pm 91.83° F --° F 91.83° F 110.26° F 83.19° F 73.14% 83.84° F 1011.54mb 3.70mph S 8.23mph 0 0.000"
372679 6/12/2024 9:18pm 91.99° F --° F 91.99° F 111.51° F 83.34° F 73.11% 83.98° F 1011.43mb 3.03mph S 5.49mph 0 0.000"
372678 6/12/2024 9:13pm 91.99° F --° F 91.99° F 113.26° F 83.36° F 73.23% 84.02° F 1011.44mb 1.49mph S 2.74mph 0 0.000"
372677 6/12/2024 9:08pm 91.96° F --° F 91.96° F 113.61° F 83.45° F 73.93% 84.23° F 1011.45mb 1.63mph S 4.11mph 0 0.000"
372676 6/12/2024 9:03pm 91.74° F --° F 91.74° F 112.07° F 83.43° F 74.87% 84.34° F 1011.43mb 3.10mph S 6.18mph 0 0.000"
372675 6/12/2024 8:58pm 91.47° F --° F 91.47° F 110.58° F 83.30° F 75.62% 84.33° F 1011.42mb 4.18mph S 8.23mph 0 0.000"
372674 6/12/2024 8:53pm 90.84° F --° F 90.84° F 109.60° F 83.03° F 77.51% 84.34° F 1011.39mb 4.46mph S 9.61mph 0 0.000"
372673 6/12/2024 8:48pm 90.90° F --° F 90.90° F 107.18° F 82.51° F 74.12% 83.28° F 1011.31mb 4.34mph S 7.54mph 0 0.000"
372672 6/12/2024 8:43pm 91.74° F --° F 91.74° F 108.72° F 82.95° F 72.20% 83.43° F 1011.38mb 4.11mph S 9.61mph 0 0.000"
372671 6/12/2024 8:38pm 92.32° F --° F 92.32° F 110.58° F 83.40° F 71.83% 83.85° F 1011.36mb 3.93mph S 8.92mph 0 0.000"
372670 6/12/2024 8:33pm 92.35° F --° F 92.35° F 111.06° F 83.32° F 71.23% 83.67° F 1011.36mb 3.10mph S 6.18mph 0 0.000"
372669 6/12/2024 8:28pm 92.50° F --° F 92.50° F 108.63° F 83.30° F 70.34% 83.50° F 1011.38mb 5.13mph S 8.23mph 0 0.000"
372668 6/12/2024 8:22pm 92.68° F --° F 92.68° F 109.95° F 83.45° F 70.23% 83.63° F 1011.43mb 4.37mph S 8.23mph 0 0.000"
372667 6/12/2024 8:17pm 92.86° F --° F 92.86° F 111.72° F 83.59° F 70.08% 83.75° F 1011.38mb 3.17mph S 6.18mph 0 0.000"
372666 6/12/2024 8:12pm 93.04° F --° F 93.04° F 110.51° F 83.76° F 70.12% 83.93° F 1011.34mb 4.90mph S 10.30mph 0 0.000"
372665 6/12/2024 8:07pm 93.09° F --° F 93.09° F 113.28° F 83.92° F 70.71% 84.19° F 1011.41mb 2.97mph S 5.49mph 0 0.000"
372664 6/12/2024 8:02pm 93.24° F --° F 93.24° F 113.20° F 83.97° F 70.26% 84.17° F 1011.43mb 3.15mph S 6.18mph 0 0.000"
372663 6/12/2024 7:57pm 93.31° F --° F 93.31° F 112.15° F 84.00° F 70.03% 84.16° F 1011.32mb 4.16mph S 9.61mph 0 0.000"
372662 6/12/2024 7:52pm 93.36° F --° F 93.36° F 110.88° F 83.75° F 68.57% 83.68° F 1011.37mb 4.28mph S 8.23mph 0 0.000"
372661 6/12/2024 7:47pm 93.52° F --° F 93.52° F 111.04° F 83.68° F 67.54% 83.45° F 1011.25mb 3.77mph S 8.23mph 0 0.000"
372660 6/12/2024 7:42pm 93.38° F --° F 93.38° F 109.00° F 83.27° F 66.12% 82.79° F 1011.12mb 4.09mph S 7.54mph 0 0.000"
372659 6/12/2024 7:37pm 93.04° F --° F 93.04° F 104.07° F 80.77° F 56.39% 78.58° F 1011.09mb 0.76mph NNW 3.43mph 0 0.000"
372658 6/12/2024 7:32pm 93.42° F --° F 93.42° F 103.16° F 80.12° F 52.46% 77.19° F 1011.07mb 0.00mph -- 0.00mph 0 0.000"
372657 6/12/2024 7:27pm 94.06° F --° F 94.06° F 103.70° F 80.66° F 52.39% 77.74° F 1011.09mb 0.87mph NNW 2.74mph 0 0.000"
372656 6/12/2024 7:22pm 94.66° F --° F 94.66° F 104.00° F 80.99° F 51.74% 77.98° F 1011.16mb 1.52mph NNW 3.43mph 0 0.000"
372655 6/12/2024 7:16pm 94.93° F --° F 94.93° F 101.65° F 80.48° F 49.01% 76.93° F 1011.10mb 2.53mph NNW 4.80mph 0 0.000"
372654 6/12/2024 7:11pm 95.34° F --° F 95.34° F 100.69° F 80.19° F 46.76% 76.17° F 1010.97mb 2.87mph NNW 4.80mph 0 0.000"
372653 6/12/2024 7:06pm 95.47° F --° F 95.47° F 99.87° F 80.16° F 46.28% 76.04° F 1010.94mb 3.61mph NNW 6.85mph 0 0.000"
372652 6/12/2024 7:01pm 95.70° F --° F 95.70° F 101.15° F 80.81° F 47.88% 77.06° F 1011.01mb 3.93mph NNW 8.92mph 0 0.000"
372651 6/12/2024 6:56pm 95.79° F --° F 95.79° F 102.17° F 80.85° F 47.72% 77.06° F 1011.09mb 3.06mph NNW 7.54mph 0 0.000"
372650 6/12/2024 6:51pm 95.99° F --° F 95.99° F 103.71° F 81.31° F 48.71% 77.73° F 1010.93mb 2.74mph NNW 5.49mph 0 0.000"
372649 6/12/2024 6:46pm 96.15° F --° F 96.15° F 104.70° F 81.38° F 48.46% 77.75° F 1010.96mb 2.00mph NNW 4.80mph 0 0.000"
372648 6/12/2024 6:41pm 96.44° F --° F 96.44° F 103.50° F 81.36° F 47.58% 77.57° F 1010.82mb 3.15mph NNW 7.54mph 0 0.000"
372647 6/12/2024 6:36pm 96.67° F --° F 96.67° F 107.85° F 82.67° F 51.46% 79.67° F 1010.91mb 2.48mph NNW 4.11mph 0 0.000"
372646 6/12/2024 6:31pm 96.80° F --° F 96.80° F 106.90° F 82.43° F 50.17% 79.17° F 1010.81mb 2.69mph NNW 6.18mph 0 0.000"
372645 6/12/2024 6:26pm 96.87° F --° F 96.87° F 106.59° F 82.77° F 51.21% 79.73° F 1010.82mb 3.95mph NW 8.23mph 0 0.000"
372644 6/12/2024 6:21pm 96.78° F --° F 96.78° F 103.60° F 82.03° F 48.85% 78.51° F 1010.90mb 4.74mph NW 9.61mph 0 0.000"
372643 6/12/2024 6:16pm 96.94° F --° F 96.94° F 106.14° F 82.60° F 50.36% 79.39° F 1010.88mb 3.88mph NW 8.92mph 0 0.000"
372642 6/12/2024 6:11pm 96.96° F --° F 96.96° F 107.07° F 82.88° F 51.34% 79.87° F 1011.00mb 3.82mph NW 7.54mph 0 0.000"
372641 6/12/2024 6:06pm 97.02° F --° F 97.02° F 108.30° F 83.17° F 52.15% 80.31° F 1011.00mb 3.47mph NW 6.85mph 0 0.000"
372640 6/12/2024 6:00pm 96.87° F --° F 96.87° F 109.06° F 83.18° F 52.67% 80.41° F 1010.99mb 2.80mph NNW 8.92mph 0 0.000"
372639 6/12/2024 5:55pm 96.93° F --° F 96.93° F 108.87° F 83.19° F 52.54% 80.41° F 1010.97mb 3.03mph NNW 6.18mph 0 0.000"
372638 6/12/2024 5:50pm 96.93° F --° F 96.93° F 108.34° F 83.03° F 51.99% 80.15° F 1010.94mb 3.08mph NNW 8.23mph 0 0.000"
372637 6/12/2024 5:45pm 97.02° F --° F 97.02° F 109.15° F 83.25° F 52.45% 80.45° F 1010.94mb 2.92mph NNW 7.54mph 0 0.000"
372636 6/12/2024 5:40pm 96.98° F --° F 96.98° F 107.98° F 82.86° F 51.21% 79.83° F 1010.96mb 2.92mph NNW 5.49mph 0 0.000"
372635 6/12/2024 5:35pm 96.84° F --° F 96.84° F 108.91° F 82.86° F 51.64% 79.91° F 1011.03mb 2.05mph NNW 5.49mph 0 0.000"
372634 6/12/2024 5:30pm 96.91° F --° F 96.91° F 105.11° F 82.06° F 48.58% 78.49° F 1010.95mb 3.43mph NNW 6.18mph 0 0.000"
372633 6/12/2024 5:25pm 97.11° F --° F 97.11° F 106.23° F 82.42° F 49.28% 79.01° F 1010.96mb 3.38mph NNW 6.85mph 0 0.000"
372632 6/12/2024 5:20pm 97.48° F --° F 97.48° F 105.10° F 82.52° F 48.47% 78.94° F 1011.11mb 4.69mph NW 10.30mph 0 0.000"
372631 6/12/2024 5:15pm 97.84° F --° F 97.84° F 107.69° F 83.20° F 49.79% 79.92° F 1011.18mb 4.18mph NNW 10.30mph 0 0.000"
372630 6/12/2024 5:10pm 97.92° F --° F 97.92° F 108.34° F 83.22° F 49.64% 79.92° F 1011.13mb 3.65mph NW 10.96mph 0 0.000"
372629 6/12/2024 5:05pm 97.86° F --° F 97.86° F 107.76° F 83.26° F 49.94% 80.01° F 1011.14mb 4.28mph NW 10.30mph 0 0.000"
372628 6/12/2024 5:00pm 98.13° F --° F 98.13° F 106.43° F 83.05° F 48.40% 79.49° F 1011.13mb 4.94mph NW 8.23mph 0 0.000"
372627 6/12/2024 4:55pm 98.42° F --° F 98.42° F 109.50° F 83.80° F 50.08% 80.58° F 1011.12mb 4.18mph NNW 8.23mph 0 0.000"
372626 6/12/2024 4:50pm 98.31° F --° F 98.31° F 109.07° F 83.69° F 50.02% 80.45° F 1011.14mb 4.25mph NW 10.30mph 0 0.000"
372625 6/12/2024 4:44pm 98.15° F --° F 98.15° F 111.87° F 83.93° F 51.41% 80.98° F 1011.28mb 2.41mph WNW 7.54mph 0 0.000"
372624 6/12/2024 4:39pm 97.43° F --° F 97.43° F 105.52° F 82.88° F 49.93% 79.62° F 1011.26mb 5.31mph NW 10.96mph 0 0.000"
372623 6/12/2024 4:34pm 97.47° F --° F 97.47° F 103.21° F 82.47° F 48.36% 78.88° F 1011.24mb 6.34mph NW 12.34mph 0 0.000"
372622 6/12/2024 4:29pm 98.46° F --° F 98.46° F 105.39° F 82.97° F 47.26% 79.20° F 1011.16mb 5.79mph NW 11.65mph 0 0.000"
372621 6/12/2024 4:24pm 98.46° F --° F 98.46° F 106.87° F 83.40° F 48.63% 79.90° F 1011.33mb 5.52mph NW 10.96mph 0 0.000"
372620 6/12/2024 4:19pm 98.60° F --° F 98.60° F 107.53° F 83.15° F 47.45% 79.43° F 1011.32mb 4.28mph NNW 12.34mph 0 0.000"
372619 6/12/2024 4:14pm 98.69° F --° F 98.69° F 107.17° F 83.75° F 49.19% 80.38° F 1011.37mb 6.28mph NW 11.65mph 0 0.000"
372618 6/12/2024 4:09pm 98.62° F --° F 98.62° F 110.66° F 84.03° F 50.29% 80.86° F 1011.42mb 3.79mph NNW 6.85mph 0 0.000"
372617 6/12/2024 4:04pm 98.40° F --° F 98.40° F 108.70° F 83.57° F 49.40% 80.23° F 1011.51mb 4.30mph NNW 13.03mph 0 0.000"
372616 6/12/2024 3:59pm 98.55° F --° F 98.55° F 111.31° F 83.83° F 49.87% 80.59° F 1011.52mb 2.64mph NNW 5.49mph 0 0.000"
372615 6/12/2024 3:54pm 98.37° F --° F 98.37° F 111.87° F 84.05° F 51.17% 81.06° F 1011.59mb 2.78mph NW 4.80mph 0 0.000"
372614 6/12/2024 3:49pm 98.20° F --° F 98.20° F 109.80° F 83.49° F 49.74% 80.22° F 1011.56mb 3.06mph NNW 5.49mph 0 0.000"
372613 6/12/2024 3:44pm 98.26° F --° F 98.26° F 110.53° F 83.79° F 50.56% 80.67° F 1011.48mb 3.22mph NNW 8.92mph 0 0.000"
372612 6/12/2024 3:39pm 98.26° F --° F 98.26° F 109.48° F 83.35° F 49.09% 79.95° F 1011.48mb 2.97mph NNW 8.92mph 0 0.000"
372611 6/12/2024 3:34pm 98.58° F --° F 98.58° F 107.43° F 83.18° F 47.60% 79.49° F 1011.44mb 4.44mph NNW 10.96mph 0 0.000"
372610 6/12/2024 3:29pm 98.83° F --° F 98.83° F 111.55° F 83.93° F 49.38% 80.60° F 1011.44mb 2.71mph NNW 4.80mph 0 0.000"
372609 6/12/2024 3:23pm 98.92° F --° F 98.92° F 109.54° F 83.69° F 48.27% 80.13° F 1011.57mb 3.86mph NNW 6.85mph 0 0.000"
372608 6/12/2024 3:18pm 98.96° F --° F 98.96° F 110.70° F 83.77° F 48.43% 80.25° F 1011.55mb 3.01mph NNW 4.80mph 0 0.000"
372607 6/12/2024 3:13pm 99.07° F --° F 99.07° F 110.49° F 84.08° F 49.21% 80.73° F 1011.59mb 4.16mph NNW 8.23mph 0 0.000"
372606 6/12/2024 3:08pm 98.89° F --° F 98.89° F 112.94° F 84.46° F 51.03% 81.46° F 1011.77mb 3.01mph NNW 5.49mph 0 0.000"
372605 6/12/2024 3:03pm 98.78° F --° F 98.78° F 112.59° F 84.37° F 51.04% 81.37° F 1011.81mb 3.06mph NNW 6.18mph 0 0.000"
372604 6/12/2024 2:58pm 98.49° F --° F 98.49° F 112.68° F 84.31° F 51.70% 81.42° F 1011.95mb 2.80mph NNW 6.18mph 0 0.000"
372603 6/12/2024 2:53pm 98.28° F --° F 98.28° F 111.41° F 84.06° F 51.48% 81.13° F 1011.89mb 3.24mph NNW 5.49mph 0 0.000"
372602 6/12/2024 2:48pm 98.11° F --° F 98.11° F 111.48° F 84.24° F 52.60% 81.50° F 1012.03mb 3.70mph NNW 8.92mph 0 0.000"
372601 6/12/2024 2:43pm 97.72° F --° F 97.72° F 110.49° F 83.76° F 52.09% 80.91° F 1011.95mb 3.17mph NNW 7.54mph 0 0.000"
372600 6/12/2024 2:38pm 97.25° F --° F 97.25° F 110.11° F 83.70° F 53.40% 81.10° F 1011.96mb 3.40mph NNW 8.23mph 0 0.000"
372599 6/12/2024 2:33pm 96.73° F --° F 96.73° F 108.93° F 83.21° F 53.29% 80.57° F 1012.03mb 3.06mph NW 5.49mph 0 0.000"
372598 6/12/2024 2:28pm 97.32° F --° F 97.32° F 109.20° F 83.28° F 51.66% 80.35° F 1012.00mb 2.99mph NNW 5.49mph 0 0.000"
372597 6/12/2024 2:23pm 97.74° F --° F 97.74° F 111.20° F 84.09° F 53.26% 81.48° F 1011.98mb 3.56mph NNW 6.18mph 0 0.000"
372596 6/12/2024 2:18pm 97.70° F --° F 97.70° F 112.46° F 84.42° F 54.58% 82.04° F 1012.07mb 3.43mph NNW 5.49mph 0 0.000"
372595 6/12/2024 2:13pm 97.59° F --° F 97.59° F 111.55° F 84.32° F 54.55% 81.93° F 1012.17mb 3.95mph NNW 5.49mph 0 0.000"
372594 6/12/2024 2:08pm 97.65° F --° F 97.65° F 110.53° F 84.03° F 53.35% 81.44° F 1012.22mb 4.02mph NNW 6.85mph 0 0.000"
372593 6/12/2024 2:03pm 97.74° F --° F 97.74° F 114.46° F 84.93° F 56.38% 82.88° F 1012.31mb 3.31mph NNW 6.85mph 0 0.000"
372592 6/12/2024 1:57pm 97.68° F --° F 97.68° F 116.87° F 85.59° F 59.24% 84.06° F 1012.31mb 3.59mph W 7.54mph 0 0.000"
372591 6/12/2024 1:52pm 97.63° F --° F 97.63° F 114.26° F 85.17° F 57.78% 83.39° F 1012.26mb 4.48mph NNW 13.03mph 0 0.000"
372590 6/12/2024 1:47pm 97.59° F --° F 97.59° F 117.94° F 85.90° F 60.80% 84.63° F 1012.48mb 3.84mph NNW 6.18mph 0 0.000"
372589 6/12/2024 1:42pm 97.43° F --° F 97.43° F 121.20° F 86.52° F 64.06% 85.79° F 1012.53mb 3.59mph WNW 6.85mph 0 0.000"
372588 6/12/2024 1:37pm 97.12° F --° F 97.12° F 117.96° F 85.89° F 62.55% 84.90° F 1012.66mb 4.07mph NNW 7.54mph 0 0.000"
372587 6/12/2024 1:32pm 97.03° F --° F 97.03° F 121.74° F 86.60° F 66.00% 86.17° F 1012.68mb 3.75mph NNW 6.85mph 0 0.000"
372586 6/12/2024 1:27pm 96.91° F --° F 96.91° F 123.67° F 86.93° F 68.05% 86.83° F 1012.90mb 3.70mph NNW 5.49mph 0 0.000"
372585 6/12/2024 1:22pm 96.30° F --° F 96.30° F 128.68° F 87.59° F 74.07% 88.42° F 1012.86mb 3.36mph NNW 6.85mph 0 0.000"
372584 6/12/2024 1:17pm 95.52° F --° F 95.52° F 123.68° F 86.80° F 73.85% 87.60° F 1012.91mb 4.78mph NNW 11.65mph 0 0.000"
372583 6/12/2024 1:12pm 94.73° F --° F 94.73° F 120.59° F 85.76° F 72.25% 86.29° F 1012.85mb 3.13mph NNW 5.49mph 0 0.000"
372582 6/12/2024 1:07pm 95.41° F --° F 95.41° F 120.64° F 86.10° F 70.76% 86.41° F 1012.81mb 4.02mph NNW 7.54mph 0 0.000"
372581 6/12/2024 1:02pm 95.81° F --° F 95.81° F 126.37° F 87.05° F 73.74% 87.84° F 1012.77mb 3.26mph NNW 5.49mph 0 0.000"
372580 6/12/2024 12:57pm 95.32° F --° F 95.32° F 126.88° F 87.10° F 76.32% 88.25° F 1012.84mb 3.68mph NNW 7.54mph 0 0.000"
372579 6/12/2024 12:52pm 95.05° F --° F 95.05° F 122.19° F 86.28° F 73.45% 87.01° F 1012.88mb 4.00mph NNW 6.18mph 0 0.000"
372578 6/12/2024 12:47pm 95.36° F --° F 95.36° F 127.07° F 87.17° F 76.52% 88.35° F 1012.96mb 3.88mph NNW 6.85mph 0 0.000"
372577 6/12/2024 12:42pm 95.29° F --° F 95.29° F 131.31° F 87.65° F 79.59% 89.30° F 1012.95mb 3.06mph NNW 6.18mph 0 0.000"
372576 6/12/2024 12:37pm 95.07° F --° F 95.07° F 126.87° F 86.91° F 76.58% 88.10° F 1012.84mb 2.99mph NNW 5.49mph 0 0.000"
372575 6/12/2024 12:31pm 95.22° F --° F 95.22° F 124.06° F 86.61° F 74.28% 87.46° F 1012.91mb 3.75mph NNW 6.18mph 0 0.000"
372574 6/12/2024 12:26pm 95.02° F --° F 95.02° F 130.12° F 87.53° F 80.28% 89.26° F 1012.95mb 3.82mph NNW 6.18mph 0 0.000"
372573 6/12/2024 12:21pm 94.53° F --° F 94.53° F 131.66° F 87.53° F 83.03% 89.65° F 1013.03mb 3.38mph NNW 5.49mph 0 0.000"
372572 6/12/2024 12:16pm 93.92° F --° F 93.92° F 132.62° F 87.61° F 87.14% 90.31° F 1013.09mb 4.41mph NNW 11.65mph 0 0.000"
372571 6/12/2024 12:11pm 92.84° F --° F 92.84° F 134.55° F 87.46° F 92.95% 90.93° F 1013.20mb 4.05mph NNW 6.85mph 0 0.000"
372570 6/12/2024 12:06pm 91.44° F --° F 91.44° F 128.44° F 86.14° F 93.54% 89.70° F 1013.27mb 3.63mph N 6.18mph 0 0.000"
372569 6/12/2024 12:01pm 91.58° F --° F 91.58° F 122.63° F 85.48° F 88.06% 88.29° F 1013.34mb 4.28mph NNW 7.54mph 0 0.000"
372568 6/12/2024 11:56am 92.37° F --° F 92.37° F 125.33° F 86.13° F 87.31% 88.84° F 1013.27mb 4.44mph NNW 8.23mph 0 0.000"
372567 6/12/2024 11:51am 92.57° F --° F 92.57° F 127.15° F 86.34° F 87.45% 89.08° F 1013.34mb 3.77mph NNW 6.18mph 0 0.000"
372566 6/12/2024 11:46am 92.46° F --° F 92.46° F 126.53° F 86.08° F 86.40% 88.66° F 1013.36mb 2.80mph NNW 4.11mph 0 0.000"
372565 6/12/2024 11:41am 92.57° F --° F 92.57° F 126.66° F 86.09° F 85.90% 88.62° F 1013.28mb 2.64mph NNW 4.80mph 0 0.000"
372564 6/12/2024 11:36am 92.50° F --° F 92.50° F 125.15° F 85.87° F 84.84% 88.23° F 1013.44mb 2.69mph NW 4.80mph 0 0.000"
372563 6/12/2024 11:31am 92.52° F --° F 92.52° F 122.75° F 85.50° F 82.48% 87.53° F 1013.45mb 2.71mph WNW 6.18mph 0 0.000"
372562 6/12/2024 11:26am 93.20° F --° F 93.20° F 120.28° F 85.55° F 79.01% 87.09° F 1013.40mb 4.34mph S 8.92mph 0 0.000"
372561 6/12/2024 11:21am 93.94° F --° F 93.94° F 123.52° F 85.98° F 77.46% 87.30° F 1013.33mb 2.64mph NW 6.85mph 0 0.000"
372560 6/12/2024 11:16am 94.57° F --° F 94.57° F 127.56° F 86.88° F 79.11% 88.45° F 1013.28mb 3.06mph NNW 6.85mph 0 0.000"
372559 6/12/2024 11:10am 94.62° F --° F 94.62° F 124.59° F 86.48° F 76.58% 87.66° F 1013.33mb 3.36mph W 9.61mph 0 0.000"
372558 6/12/2024 11:05am 94.21° F --° F 94.21° F 126.77° F 86.97° F 81.60% 88.90° F 1013.35mb 4.99mph S 10.96mph 0 0.000"
372557 6/12/2024 11:00am 93.11° F --° F 93.11° F 123.79° F 86.33° F 84.00% 88.57° F 1013.40mb 5.68mph S 11.65mph 0 0.000"
372556 6/12/2024 10:55am 93.00° F --° F 93.00° F 118.89° F 85.59° F 80.24% 87.30° F 1013.36mb 6.05mph S 13.72mph 0 0.000"
372555 6/12/2024 10:50am 93.45° F --° F 93.45° F 116.38° F 85.54° F 77.62% 86.88° F 1013.24mb 7.59mph S 13.72mph 0 0.000"
372554 6/12/2024 10:45am 94.10° F --° F 94.10° F 119.77° F 86.33° F 78.48% 87.79° F 1013.15mb 7.79mph S 18.53mph 0 0.000"
372553 6/12/2024 10:40am 93.90° F --° F 93.90° F 129.95° F 87.31° F 85.38% 89.76° F 1013.19mb 4.83mph S 14.41mph 0 0.000"
372552 6/12/2024 10:35am 92.95° F --° F 92.95° F 126.07° F 86.50° F 86.00% 89.02° F 1013.22mb 4.94mph S 12.34mph 0 0.000"
372551 6/12/2024 10:30am 91.42° F --° F 91.42° F 123.14° F 86.09° F 93.29% 89.62° F 1013.31mb 8.23mph S 13.72mph 0 0.000"
372550 6/12/2024 10:25am 91.35° F --° F 91.35° F 117.75° F 85.21° F 87.90% 88.02° F 1013.30mb 7.70mph S 19.22mph 0 0.000"
372549 6/12/2024 10:20am 91.78° F --° F 91.78° F 122.00° F 85.60° F 87.70% 88.38° F 1013.30mb 5.38mph S 13.03mph 0 0.000"
372548 6/12/2024 10:15am 92.48° F --° F 92.48° F 121.20° F 85.84° F 84.79% 88.20° F 1013.37mb 6.25mph S 13.03mph 0 0.000"
372547 6/12/2024 10:09am 92.05° F --° F 92.05° F 120.99° F 85.85° F 87.61% 88.62° F 1013.34mb 7.40mph S 17.84mph 0 0.000"
372546 6/12/2024 10:04am 91.13° F --° F 91.13° F 125.37° F 86.00° F 94.56% 89.68° F 1013.38mb 6.05mph S 10.96mph 0 0.000"
372545 6/12/2024 9:59am 89.19° F --° F 89.19° F 124.07° F 84.79° F 100.00% 89.19° F 1013.42mb 3.03mph NNW 8.23mph 0 0.000"
372544 6/12/2024 9:54am 88.90° F --° F 88.90° F 118.71° F 84.17° F 97.63% 88.28° F 1013.49mb 4.60mph S 15.77mph 0 0.000"
372543 6/12/2024 9:49am 89.11° F --° F 89.11° F 119.20° F 84.08° F 95.29% 87.87° F 1013.47mb 3.13mph NNW 6.85mph 0 0.000"
372542 6/12/2024 9:44am 89.40° F --° F 89.40° F 114.21° F 83.98° F 92.45% 87.39° F 1013.39mb 6.69mph S 15.77mph 0 0.000"
372541 6/12/2024 9:39am 90.07° F --° F 90.07° F 121.96° F 84.69° F 92.80% 88.15° F 1013.39mb 2.69mph NNW 4.80mph 0 0.000"
372540 6/12/2024 9:34am 89.42° F --° F 89.42° F 121.36° F 84.73° F 97.93% 88.88° F 1013.45mb 4.83mph S 9.61mph 0 0.000"
372539 6/12/2024 9:29am 87.55° F --° F 87.55° F 113.25° F 83.14° F 100.00% 87.55° F 1013.42mb 5.33mph S 12.34mph 0 0.000"
372538 6/12/2024 9:24am 86.47° F --° F 86.47° F 111.11° F 82.06° F 100.00% 86.47° F 1013.51mb 2.46mph NNW 12.34mph 0 0.000"
372537 6/12/2024 9:19am 86.34° F --° F 86.34° F 110.40° F 81.93° F 100.00% 86.34° F 1013.48mb 2.55mph NNW 6.18mph 0 0.000"
372536 6/12/2024 9:14am 85.91° F --° F 85.91° F 108.52° F 81.49° F 100.00% 85.91° F 1013.46mb 2.44mph N 5.49mph 0 0.000"
372535 6/12/2024 9:08am 86.47° F --° F 86.47° F 109.22° F 81.95° F 99.31% 86.29° F 1013.48mb 3.77mph S 10.30mph 0 0.000"
372534 6/12/2024 9:03am 87.33° F --° F 87.33° F 113.05° F 82.68° F 98.04% 86.83° F 1013.41mb 3.10mph N 6.85mph 0 0.000"
372533 6/12/2024 8:58am 87.76° F --° F 87.76° F 113.33° F 83.17° F 98.51% 87.38° F 1013.34mb 5.10mph S 10.30mph 0 0.000"
372532 6/12/2024 8:53am 86.58° F --° F 86.58° F 111.46° F 82.17° F 100.00% 86.58° F 1013.36mb 2.62mph S 4.80mph 0 0.000"
372531 6/12/2024 8:48am 85.14° F --° F 85.14° F 103.52° F 80.72° F 100.00% 85.14° F 1013.34mb 3.84mph S 7.54mph 0 0.000"
372530 6/12/2024 8:43am 83.48° F --° F 83.48° F 93.23° F 79.05° F 100.00% 83.48° F 1013.33mb 6.76mph S 14.41mph 0 0.000"
372529 6/12/2024 8:38am 83.35° F --° F 83.35° F 94.13° F 78.92° F 100.00% 83.35° F 1013.13mb 5.42mph S 13.03mph 0 0.000"
372528 6/12/2024 8:33am 83.21° F --° F 83.21° F 94.92° F 78.78° F 100.00% 83.21° F 1013.16mb 4.14mph S 10.96mph 0 0.000"
372527 6/12/2024 8:28am 83.35° F --° F 83.35° F 95.89° F 78.92° F 100.00% 83.35° F 1013.19mb 3.77mph NNW 10.30mph 0 0.000"
372526 6/12/2024 8:23am 83.44° F --° F 83.44° F 95.80° F 79.01° F 100.00% 83.44° F 1013.02mb 4.21mph S 13.72mph 0 0.000"
372525 6/12/2024 8:18am 83.59° F --° F 83.59° F 98.64° F 79.16° F 100.00% 83.59° F 1013.06mb 2.14mph NNW 6.85mph 0 0.000"
372524 6/12/2024 8:13am 82.74° F --° F 82.74° F 95.21° F 78.30° F 100.00% 82.74° F 1012.89mb 2.09mph NNW 3.43mph 0 0.000"
372523 6/12/2024 8:08am 81.34° F --° F 81.34° F 89.83° F 76.89° F 100.00% 81.34° F 1012.86mb 2.05mph NNW 4.11mph 0 0.000"
372522 6/12/2024 8:03am 80.83° F --° F 80.83° F 88.08° F 76.38° F 100.00% 80.83° F 1012.75mb 1.93mph NNW 4.11mph 0 0.000"
372521 6/12/2024 7:58am 81.03° F --° F 81.03° F 88.98° F 76.58° F 100.00% 81.03° F 1012.81mb 1.77mph NNW 7.54mph 0 0.000"
372520 6/12/2024 7:52am 81.48° F --° F 81.48° F 88.71° F 77.04° F 100.00% 81.48° F 1012.72mb 3.59mph S 7.54mph 0 0.000"
372519 6/12/2024 7:47am 82.11° F --° F 82.11° F 91.59° F 77.67° F 100.00% 82.11° F 1012.74mb 3.15mph S 6.85mph 0 0.000"
372518 6/12/2024 7:42am 82.29° F --° F 82.29° F 91.28° F 77.85° F 100.00% 82.29° F 1012.67mb 4.09mph S 13.72mph 0 0.000"
372517 6/12/2024 7:37am 81.00° F --° F 81.00° F 88.32° F 76.55° F 100.00% 81.00° F 1012.55mb 2.28mph WNW 4.80mph 0 0.000"
372516 6/12/2024 7:32am 79.39° F --° F 79.39° F 83.67° F 74.93° F 100.00% 79.39° F 1012.58mb 1.33mph NNW 3.43mph 0 0.000"
372515 6/12/2024 7:27am 79.45° F --° F 79.45° F 83.33° F 74.99° F 100.00% 79.45° F 1012.54mb 1.84mph N 4.11mph 0 0.000"
372514 6/12/2024 7:22am 79.66° F --° F 79.66° F 86.01° F 75.20° F 100.00% 79.66° F 1012.49mb 0.00mph -- 0.69mph 0 0.000"
372513 6/12/2024 7:17am 79.97° F --° F 79.97° F 87.08° F 75.51° F 100.00% 79.97° F 1012.36mb 0.00mph -- 0.00mph 0 0.000"
372512 6/12/2024 7:12am 80.35° F --° F 80.35° F 88.42° F 75.89° F 100.00% 80.35° F 1012.36mb 0.00mph -- 0.69mph 0 0.000"
372511 6/12/2024 7:07am 80.83° F --° F 80.83° F 89.92° F 76.38° F 100.00% 80.83° F 1012.20mb 0.21mph N 2.74mph 0 0.000"
372510 6/12/2024 7:02am 81.37° F --° F 81.37° F 92.14° F 76.93° F 100.00% 81.37° F 1012.24mb 0.00mph -- 0.00mph 0 0.000"
372509 6/12/2024 6:57am 80.87° F --° F 80.87° F 90.24° F 76.42° F 100.00% 80.87° F 1012.22mb 0.05mph N 0.69mph 0 0.000"
372508 6/12/2024 6:52am 79.54° F --° F 79.54° F 85.55° F 75.08° F 100.00% 79.54° F 1012.12mb 0.05mph N 0.69mph 0 0.000"
372507 6/12/2024 6:47am 79.00° F --° F 79.00° F 83.63° F 74.53° F 100.00% 79.00° F 1012.03mb 0.16mph N 2.07mph 0 0.000"
372506 6/12/2024 6:42am 79.03° F --° F 79.03° F 83.90° F 74.57° F 100.00% 79.03° F 1012.06mb 0.00mph -- 0.69mph 0 0.000"
372505 6/12/2024 6:37am 79.16° F --° F 79.16° F 83.84° F 74.70° F 100.00% 79.16° F 1011.95mb 0.46mph NNW 3.43mph 0 0.000"
372504 6/12/2024 6:32am 79.30° F --° F 79.30° F 83.89° F 74.84° F 100.00% 79.30° F 1011.95mb 0.85mph N 3.43mph 0 0.000"
372503 6/12/2024 6:27am 79.52° F --° F 79.52° F 83.79° F 75.06° F 100.00% 79.52° F 1011.89mb 1.63mph N 3.43mph 0 0.000"
372502 6/12/2024 6:21am 79.75° F --° F 79.75° F 83.49° F 75.30° F 100.00% 79.75° F 1011.77mb 2.64mph S 7.54mph 0 0.000"
372501 6/12/2024 6:16am 80.20° F --° F 80.20° F 83.65° F 75.75° F 100.00% 80.20° F 1011.70mb 3.95mph S 9.61mph 0 0.000"
372500 6/12/2024 6:11am 80.91° F --° F 80.91° F 86.60° F 76.31° F 98.74% 80.60° F 1011.81mb 3.31mph WNW 7.54mph 0 0.000"
372499 6/12/2024 6:06am 81.63° F --° F 81.63° F 89.11° F 77.00° F 98.46% 81.25° F 1011.63mb 3.33mph NW 5.49mph 0 0.000"
372498 6/12/2024 6:01am 80.87° F --° F 80.87° F 87.31° F 76.42° F 100.00% 80.87° F 1011.56mb 2.78mph S 6.18mph 0 0.000"
372497 6/12/2024 5:56am 79.61° F --° F 79.61° F 82.30° F 75.15° F 100.00% 79.61° F 1011.56mb 3.31mph S 8.92mph 0 0.000"
372496 6/12/2024 5:51am 79.68° F --° F 79.68° F 82.76° F 75.22° F 100.00% 79.68° F 1011.60mb 3.10mph S 8.92mph 0 0.000"
372495 6/12/2024 5:46am 79.88° F --° F 79.88° F 83.37° F 75.42° F 100.00% 79.88° F 1011.55mb 3.17mph WNW 5.49mph 0 0.000"
372494 6/12/2024 5:41am 80.13° F --° F 80.13° F 85.08° F 75.68° F 100.00% 80.13° F 1011.57mb 2.39mph S 6.85mph 0 0.000"
372493 6/12/2024 5:36am 80.46° F --° F 80.46° F 86.19° F 76.00° F 100.00% 80.46° F 1011.44mb 2.44mph N 4.80mph 0 0.000"
372492 6/12/2024 5:31am 80.91° F --° F 80.91° F 87.90° F 76.46° F 100.00% 80.91° F 1011.37mb 2.37mph N 5.49mph 0 0.000"
372491 6/12/2024 5:26am 81.59° F --° F 81.59° F 91.09° F 77.14° F 100.00% 81.59° F 1011.32mb 1.75mph N 5.49mph 0 0.000"
372490 6/12/2024 5:21am 82.38° F --° F 82.38° F 92.64° F 77.91° F 99.97% 82.37° F 1011.37mb 3.15mph S 7.54mph 0 0.000"
372489 6/12/2024 5:16am 82.62° F --° F 82.62° F 94.32° F 78.18° F 100.00% 82.62° F 1011.36mb 2.48mph S 5.49mph 0 0.000"
372488 6/12/2024 5:11am 81.66° F --° F 81.66° F 90.16° F 77.22° F 100.00% 81.66° F 1011.28mb 2.87mph S 6.85mph 0 0.000"
372487 6/12/2024 5:06am 80.26° F --° F 80.26° F 85.27° F 75.80° F 100.00% 80.26° F 1011.34mb 2.64mph S 5.49mph 0 0.000"
372486 6/12/2024 5:00am 80.38° F --° F 80.38° F 86.75° F 75.93° F 100.00% 80.38° F 1011.13mb 1.66mph S 4.80mph 0 0.000"
372485 6/12/2024 4:55am 80.60° F --° F 80.60° F 85.54° F 76.15° F 100.00% 80.60° F 1011.08mb 3.52mph S 7.54mph 0 0.000"
372484 6/12/2024 4:50am 80.89° F --° F 80.89° F 88.79° F 76.44° F 100.00% 80.89° F 1011.13mb 1.47mph NNW 3.43mph 0 0.000"
372483 6/12/2024 4:45am 81.27° F --° F 81.27° F 88.03° F 76.82° F 100.00% 81.27° F 1011.09mb 3.49mph NNW 8.23mph 0 0.000"
372482 6/12/2024 4:40am 81.70° F --° F 81.70° F 89.65° F 77.25° F 100.00% 81.70° F 1011.06mb 3.49mph S 6.85mph 0 0.000"
372481 6/12/2024 4:35am 82.26° F --° F 82.26° F 93.35° F 77.81° F 100.00% 82.26° F 1011.09mb 2.05mph N 4.11mph 0 0.000"
372480 6/12/2024 4:30am 82.98° F --° F 82.98° F 95.94° F 78.54° F 100.00% 82.98° F 1010.99mb 2.32mph NNW 6.85mph 0 0.000"
372479 6/12/2024 4:25am 82.78° F --° F 82.78° F 96.23° F 78.34° F 100.00% 82.78° F 1011.02mb 1.29mph NNW 2.74mph 0 0.000"
372478 6/12/2024 4:20am 81.68° F --° F 81.68° F 91.36° F 77.23° F 100.00% 81.68° F 1011.14mb 1.82mph NNW 6.18mph 0 0.000"
372477 6/12/2024 4:15am 81.19° F --° F 81.19° F 89.38° F 76.75° F 100.00% 81.19° F 1011.03mb 1.95mph NNW 4.80mph 0 0.000"
372476 6/12/2024 4:10am 81.46° F --° F 81.46° F 91.76° F 77.02° F 100.00% 81.46° F 1011.06mb 0.67mph N 2.74mph 0 0.000"
372475 6/12/2024 4:05am 81.77° F --° F 81.77° F 92.74° F 77.33° F 100.00% 81.77° F 1010.99mb 0.85mph N 3.43mph 0 0.000"
372474 6/12/2024 4:00am 82.17° F --° F 82.17° F 93.99° F 77.72° F 100.00% 82.17° F 1011.03mb 1.13mph N 2.74mph 0 0.000"
372473 6/12/2024 3:55am 82.72° F --° F 82.72° F 97.37° F 78.29° F 100.00% 82.72° F 1011.03mb 0.00mph -- 0.00mph 0 0.000"
372472 6/12/2024 3:50am 83.30° F --° F 83.30° F 99.53° F 78.79° F 99.54% 83.19° F 1010.99mb 0.00mph -- 0.00mph 0 0.000"
372471 6/12/2024 3:45am 83.97° F --° F 83.97° F 99.91° F 79.25° F 97.83% 83.42° F 1011.02mb 1.47mph NNW 3.43mph 0 0.000"
372470 6/12/2024 3:40am 83.55° F --° F 83.55° F 99.09° F 79.12° F 100.00% 83.55° F 1010.87mb 1.56mph N 2.74mph 0 0.000"
372469 6/12/2024 3:34am 82.54° F --° F 82.54° F 96.24° F 78.10° F 100.00% 82.54° F 1010.94mb 0.39mph N 2.07mph 0 0.000"
372468 6/12/2024 3:29am 82.11° F --° F 82.11° F 94.74° F 77.67° F 100.00% 82.11° F 1010.92mb 0.21mph N 2.07mph 0 0.000"
372467 6/12/2024 3:24am 82.45° F --° F 82.45° F 95.37° F 78.01° F 100.00% 82.45° F 1011.00mb 0.87mph N 4.80mph 0 0.000"
372466 6/12/2024 3:19am 82.89° F --° F 82.89° F 97.32° F 78.45° F 100.00% 82.89° F 1011.08mb 0.69mph NNW 2.07mph 0 0.000"
372465 6/12/2024 3:14am 83.39° F --° F 83.39° F 100.10° F 78.96° F 100.00% 83.39° F 1011.07mb 0.00mph -- 0.00mph 0 0.000"
372464 6/12/2024 3:09am 84.00° F --° F 84.00° F 102.66° F 79.57° F 100.00% 84.00° F 1010.96mb 0.00mph -- 0.00mph 0 0.000"
372463 6/12/2024 3:04am 84.29° F --° F 84.29° F 103.73° F 79.86° F 100.00% 84.29° F 1010.98mb 0.16mph N 2.07mph 0 0.000"
372462 6/12/2024 2:59am 83.77° F --° F 83.77° F 101.67° F 79.34° F 100.00% 83.77° F 1011.02mb 0.02mph N 0.69mph 0 0.000"
372461 6/12/2024 2:54am 82.80° F --° F 82.80° F 97.26° F 78.36° F 100.00% 82.80° F 1011.04mb 0.41mph N 2.07mph 0 0.000"
372460 6/12/2024 2:49am 83.07° F --° F 83.07° F 97.58° F 78.63° F 100.00% 83.07° F 1011.08mb 1.13mph NNW 4.80mph 0 0.000"
372459 6/12/2024 2:44am 83.43° F --° F 83.43° F 99.41° F 78.99° F 100.00% 83.43° F 1010.99mb 0.80mph N 3.43mph 0 0.000"
372458 6/12/2024 2:39am 83.91° F --° F 83.91° F 101.71° F 79.48° F 100.00% 83.91° F 1011.03mb 0.53mph N 3.43mph 0 0.000"
372457 6/12/2024 2:34am 84.49° F --° F 84.49° F 104.75° F 80.06° F 100.00% 84.49° F 1011.00mb 0.02mph N 0.69mph 0 0.000"
372456 6/12/2024 2:29am 85.17° F --° F 85.17° F 106.95° F 80.75° F 100.00% 85.17° F 1011.00mb 0.76mph NNW 3.43mph 0 0.000"
372455 6/12/2024 2:24am 85.03° F --° F 85.03° F 105.54° F 80.61° F 100.00% 85.03° F 1010.98mb 1.49mph NNW 3.43mph 0 0.000"
372454 6/12/2024 2:19am 84.09° F --° F 84.09° F 101.32° F 79.66° F 100.00% 84.09° F 1011.01mb 1.61mph NNW 2.74mph 0 0.000"
372453 6/12/2024 2:14am 83.14° F --° F 83.14° F 98.90° F 78.70° F 100.00% 83.14° F 1010.90mb 0.16mph N 2.07mph 0 0.000"
372452 6/12/2024 2:09am 83.39° F --° F 83.39° F 100.10° F 78.96° F 100.00% 83.39° F 1010.87mb 0.00mph -- 0.00mph 0 0.000"
372451 6/12/2024 2:03am 83.77° F --° F 83.77° F 101.69° F 79.34° F 100.00% 83.77° F 1010.86mb 0.00mph -- 0.00mph 0 0.000"
372450 6/12/2024 1:58am 84.24° F --° F 84.24° F 103.69° F 79.81° F 100.00% 84.24° F 1010.99mb 0.00mph -- 0.00mph 0 0.000"
372449 6/12/2024 1:53am 84.72° F --° F 84.72° F 105.65° F 80.30° F 100.00% 84.72° F 1010.88mb 0.11mph N 2.07mph 0 0.000"
372448 6/12/2024 1:48am 84.97° F --° F 84.97° F 106.19° F 80.55° F 100.00% 84.97° F 1010.93mb 0.64mph N 2.74mph 0 0.000"
372447 6/12/2024 1:43am 84.54° F --° F 84.54° F 103.85° F 80.12° F 100.00% 84.54° F 1010.88mb 1.06mph NNW 2.74mph 0 0.000"
372446 6/12/2024 1:38am 83.77° F --° F 83.77° F 101.67° F 79.34° F 100.00% 83.77° F 1010.89mb 0.02mph NNW 0.69mph 0 0.000"
372445 6/12/2024 1:33am 83.93° F --° F 83.93° F 102.36° F 79.50° F 100.00% 83.93° F 1011.00mb 0.00mph -- 0.00mph 0 0.000"
372444 6/12/2024 1:28am 84.29° F --° F 84.29° F 103.90° F 79.86° F 100.00% 84.29° F 1010.98mb 0.00mph -- 0.00mph 0 0.000"
372443 6/12/2024 1:23am 84.74° F --° F 84.74° F 105.86° F 80.32° F 100.00% 84.74° F 1011.04mb 0.00mph -- 0.00mph 0 0.000"
372442 6/12/2024 1:18am 85.23° F --° F 85.23° F 108.04° F 80.81° F 100.00% 85.23° F 1011.11mb 0.00mph -- 0.00mph 0 0.000"
372441 6/12/2024 1:13am 85.82° F --° F 85.82° F 110.72° F 81.40° F 100.00% 85.82° F 1011.14mb 0.00mph -- 0.00mph 0 0.000"
372440 6/12/2024 1:08am 86.04° F --° F 86.04° F 111.71° F 81.62° F 100.00% 86.04° F 1011.12mb 0.02mph NNW 0.69mph 0 0.000"
372439 6/12/2024 1:03am 85.57° F --° F 85.57° F 108.19° F 81.15° F 100.00% 85.57° F 1011.25mb 1.29mph NNW 2.74mph 0 0.000"
372438 6/12/2024 12:58am 84.78° F --° F 84.78° F 105.45° F 80.35° F 100.00% 84.78° F 1011.23mb 0.55mph N 2.74mph 0 0.000"
372437 6/12/2024 12:53am 84.90° F --° F 84.90° F 106.57° F 80.48° F 100.00% 84.90° F 1011.31mb 0.00mph -- 0.00mph 0 0.000"
372436 6/12/2024 12:48am 85.32° F --° F 85.32° F 108.44° F 80.90° F 100.00% 85.32° F 1011.30mb 0.00mph -- 0.00mph 0 0.000"
372435 6/12/2024 12:43am 85.82° F --° F 85.82° F 110.72° F 81.40° F 100.00% 85.82° F 1011.37mb 0.00mph -- 0.00mph 0 0.000"
372434 6/12/2024 12:38am 86.40° F --° F 86.40° F 113.42° F 81.98° F 100.00% 86.40° F 1011.37mb 0.00mph -- 0.69mph 0 0.000"
372433 6/12/2024 12:32am 86.41° F --° F 86.41° F 113.47° F 82.00° F 100.00% 86.41° F 1011.34mb 0.00mph -- 0.00mph 0 0.000"
372432 6/12/2024 12:27am 85.84° F --° F 85.84° F 110.79° F 81.42° F 100.00% 85.84° F 1011.38mb 0.02mph NNW 0.69mph 0 0.000"
372431 6/12/2024 12:22am 85.57° F --° F 85.57° F 109.57° F 81.15° F 100.00% 85.57° F 1011.41mb 0.00mph -- 0.00mph 0 0.000"
372430 6/12/2024 12:17am 86.00° F --° F 86.00° F 111.55° F 81.59° F 100.00% 86.00° F 1011.41mb 0.00mph -- 0.00mph 0 0.000"
372429 6/12/2024 12:12am 86.54° F --° F 86.54° F 114.08° F 82.13° F 100.00% 86.54° F 1011.37mb 0.00mph -- 0.00mph 0 0.000"
372428 6/12/2024 12:07am 87.19° F --° F 87.19° F 117.09° F 82.78° F 100.00% 87.19° F 1011.37mb 0.11mph NNW 1.38mph 0 0.000"
372427 6/12/2024 12:02am 87.44° F --° F 87.44° F 116.48° F 83.04° F 100.00% 87.44° F 1011.40mb 1.82mph N 2.74mph 0 0.000"
372426 6/11/2024 11:57pm 87.15° F --° F 87.15° F 116.96° F 82.75° F 100.00% 87.15° F 1011.37mb 0.05mph NNW 0.69mph 0 0.000"
372425 6/11/2024 11:52pm 86.29° F --° F 86.29° F 112.90° F 81.88° F 100.00% 86.29° F 1011.50mb 0.00mph -- 0.00mph 0 0.000"
372424 6/11/2024 11:47pm 86.61° F --° F 86.61° F 113.63° F 82.06° F 98.90% 86.33° F 1011.37mb 0.00mph -- 0.00mph 0 0.000"
372423 6/11/2024 11:42pm 87.10° F --° F 87.10° F 114.22° F 82.25° F 96.59% 86.22° F 1011.31mb 0.00mph -- 0.69mph 0 0.000"
372422 6/11/2024 11:37pm 87.69° F --° F 87.69° F 115.50° F 82.60° F 94.74% 86.32° F 1011.20mb 0.00mph -- 0.00mph 0 0.000"
372421 6/11/2024 11:32pm 88.27° F --° F 88.27° F 117.76° F 83.11° F 94.28% 86.77° F 1011.22mb 0.00mph -- 0.69mph 0 0.000"
372420 6/11/2024 11:27pm 88.11° F --° F 88.11° F 117.35° F 83.00° F 94.68% 86.72° F 1011.25mb 0.00mph -- 0.00mph 0 0.000"
372419 6/11/2024 11:22pm 87.73° F --° F 87.73° F 117.28° F 82.92° F 97.01% 86.96° F 1011.24mb 0.16mph N 2.07mph 0 0.000"
372418 6/11/2024 11:17pm 87.67° F --° F 87.67° F 113.02° F 82.13° F 91.56% 85.43° F 1011.32mb 0.00mph -- 0.00mph 0 0.000"
372417 6/11/2024 11:12pm 88.36° F --° F 88.36° F 114.57° F 82.55° F 89.77% 85.62° F 1011.35mb 0.00mph -- 0.00mph 0 0.000"
372416 6/11/2024 11:06pm 88.97° F --° F 88.97° F 116.26° F 83.01° F 88.67% 85.90° F 1011.18mb 0.00mph -- 0.00mph 0 0.000"
372415 6/11/2024 11:01pm 88.84° F --° F 88.84° F 116.98° F 83.11° F 90.22% 86.21° F 1011.13mb 0.00mph -- 0.00mph 0 0.000"
372414 6/11/2024 10:56pm 88.47° F --° F 88.47° F 117.36° F 83.11° F 92.91% 86.59° F 1011.13mb 0.18mph N 2.07mph 0 0.000"
372413 6/11/2024 10:51pm 87.98° F --° F 87.98° F 116.40° F 82.83° F 94.32% 86.49° F 1011.13mb 0.07mph N 2.07mph 0 0.000"
372412 6/11/2024 10:46pm 87.69° F --° F 87.69° F 112.16° F 81.98° F 90.26% 85.09° F 1010.98mb 0.00mph -- 0.00mph 0 0.000"
372411 6/11/2024 10:41pm 88.34° F --° F 88.34° F 112.93° F 82.24° F 87.73% 85.02° F 1010.95mb 0.00mph -- 0.00mph 0 0.000"
372410 6/11/2024 10:36pm 88.99° F --° F 88.99° F 114.32° F 82.67° F 86.24% 85.22° F 1010.92mb 0.07mph NNW 1.38mph 0 0.000"
372409 6/11/2024 10:31pm 89.13° F --° F 89.13° F 114.88° F 82.80° F 86.14% 85.33° F 1010.88mb 0.00mph -- 0.00mph 0 0.000"
372408 6/11/2024 10:26pm 88.92° F --° F 88.92° F 112.10° F 82.62° F 86.40% 85.20° F 1010.81mb 2.00mph N 3.43mph 0 0.000"
372407 6/11/2024 10:21pm 88.43° F --° F 88.43° F 110.50° F 82.20° F 86.74% 84.82° F 1010.78mb 1.91mph NNW 4.11mph 0 0.000"
372406 6/11/2024 10:16pm 88.83° F --° F 88.83° F 106.11° F 81.56° F 80.11% 83.22° F 1010.79mb 2.87mph NNW 6.18mph 0 0.000"
372405 6/11/2024 10:11pm 89.62° F --° F 89.62° F 107.28° F 81.98° F 78.09% 83.35° F 1010.77mb 2.99mph N 4.80mph 0 0.000"
372404 6/11/2024 10:06pm 89.98° F --° F 89.98° F 108.96° F 82.36° F 78.28% 83.76° F 1010.75mb 2.74mph S 4.11mph 0 0.000"
372403 6/11/2024 10:01pm 89.92° F --° F 89.92° F 110.47° F 82.36° F 78.64% 83.82° F 1010.71mb 1.40mph N 3.43mph 0 0.000"
372402 6/11/2024 9:56pm 89.74° F --° F 89.74° F 109.72° F 82.29° F 79.32% 83.86° F 1010.65mb 1.98mph NNW 3.43mph 0 0.000"
372401 6/11/2024 9:51pm 89.28° F --° F 89.28° F 110.12° F 82.21° F 81.61% 84.12° F 1010.63mb 1.68mph N 3.43mph 0 0.000"
372400 6/11/2024 9:45pm 88.63° F --° F 88.63° F 107.68° F 81.76° F 82.58% 83.79° F 1010.61mb 2.39mph NNW 4.80mph 0 0.000"
372399 6/11/2024 9:40pm 89.15° F --° F 89.15° F 105.78° F 81.40° F 77.39% 82.68° F 1010.46mb 2.41mph NNW 4.80mph 0 0.000"
372398 6/11/2024 9:35pm 89.83° F --° F 89.83° F 106.04° F 81.78° F 75.81% 82.82° F 1010.46mb 3.24mph S 6.18mph 0 0.000"
372397 6/11/2024 9:30pm 90.01° F --° F 90.01° F 106.62° F 82.05° F 76.30% 83.15° F 1010.51mb 3.61mph S 9.61mph 0 0.000"
372396 6/11/2024 9:25pm 89.67° F --° F 89.67° F 106.25° F 81.59° F 75.61% 82.60° F 1010.42mb 2.41mph S 4.80mph 0 0.000"
372395 6/11/2024 9:20pm 89.17° F --° F 89.17° F 101.00° F 80.42° F 71.66% 80.80° F 1010.31mb 3.31mph S 5.49mph 0 0.000"
372394 6/11/2024 9:15pm 89.76° F --° F 89.76° F 98.55° F 79.92° F 66.02% 79.36° F 1010.23mb 3.82mph S 5.49mph 0 0.000"
372393 6/11/2024 9:10pm 90.48° F --° F 90.48° F 102.85° F 80.39° F 65.12% 79.70° F 1010.15mb 1.10mph NNW 3.43mph 0 0.000"
372392 6/11/2024 9:05pm 90.72° F --° F 90.72° F 104.36° F 80.52° F 64.70% 79.77° F 1010.07mb 0.05mph N 1.38mph 0 0.000"
372391 6/11/2024 9:00pm 90.84° F --° F 90.84° F 102.52° F 80.51° F 64.03% 79.63° F 1009.97mb 1.66mph N 2.74mph 0 0.000"
372390 6/11/2024 8:55pm 90.99° F --° F 90.99° F 101.90° F 80.32° F 62.54% 79.20° F 1009.92mb 1.70mph N 2.74mph 0 0.000"
372389 6/11/2024 8:50pm 91.11° F --° F 91.11° F 101.97° F 80.29° F 61.91% 79.06° F 1009.79mb 1.54mph NNW 2.74mph 0 0.000"
372388 6/11/2024 8:45pm 91.27° F --° F 91.27° F 101.53° F 80.24° F 60.97% 78.84° F 1009.85mb 1.77mph N 3.43mph 0 0.000"
372387 6/11/2024 8:40pm 91.35° F --° F 91.35° F 102.49° F 80.20° F 60.47% 78.72° F 1009.73mb 0.76mph NNW 2.74mph 0 0.000"
372386 6/11/2024 8:35pm 91.45° F --° F 91.45° F 101.17° F 80.02° F 59.29% 78.33° F 1009.82mb 1.52mph N 2.07mph 0 0.000"
372385 6/11/2024 8:29pm 91.67° F --° F 91.67° F 101.51° F 80.05° F 58.49% 78.21° F 1009.84mb 1.24mph NNW 2.07mph 0 0.000"
372384 6/11/2024 8:24pm 91.92° F --° F 91.92° F 101.54° F 80.03° F 57.51% 78.03° F 1009.76mb 1.20mph NNW 2.74mph 0 0.000"
372383 6/11/2024 8:19pm 92.17° F --° F 92.17° F 101.29° F 80.08° F 56.73% 77.93° F 1009.77mb 1.54mph NNW 5.49mph 0 0.000"
372382 6/11/2024 8:14pm 92.43° F --° F 92.43° F 102.10° F 80.21° F 56.31% 77.99° F 1009.71mb 1.13mph NNW 3.43mph 0 0.000"
372381 6/11/2024 8:09pm 92.75° F --° F 92.75° F 102.54° F 80.30° F 55.56% 77.96° F 1009.74mb 0.99mph NNW 2.74mph 0 0.000"
372380 6/11/2024 8:04pm 93.27° F --° F 93.27° F 101.93° F 80.27° F 53.60% 77.57° F 1009.66mb 1.52mph S 5.49mph 0 0.000"
372379 6/11/2024 7:59pm 93.67° F --° F 93.67° F 100.94° F 80.48° F 53.05% 77.69° F 1009.56mb 2.99mph S 6.85mph 0 0.000"
372378 6/11/2024 7:54pm 93.83° F --° F 93.83° F 101.71° F 80.43° F 52.27% 77.48° F 1009.63mb 2.14mph WNW 4.80mph 0 0.000"
372377 6/11/2024 7:49pm 94.12° F --° F 94.12° F 99.89° F 80.40° F 51.26% 77.27° F 1009.49mb 3.84mph S 7.54mph 0 0.000"
372376 6/11/2024 7:44pm 94.50° F --° F 94.50° F 101.60° F 80.64° F 50.89% 77.44° F 1009.60mb 2.85mph S 6.18mph 0 0.000"
372375 6/11/2024 7:39pm 94.68° F --° F 94.68° F 100.72° F 80.74° F 50.71% 77.52° F 1009.60mb 3.95mph S 8.23mph 0 0.000"
372374 6/11/2024 7:34pm 94.77° F --° F 94.77° F 98.09° F 80.70° F 50.25% 77.38° F 1009.54mb 6.30mph S 12.34mph 0 0.000"
372373 6/11/2024 7:29pm 94.80° F --° F 94.80° F 99.70° F 80.85° F 50.71% 77.63° F 1009.52mb 5.17mph S 10.30mph 0 0.000"
372372 6/11/2024 7:24pm 94.93° F --° F 94.93° F 101.82° F 81.01° F 50.90% 77.83° F 1009.48mb 3.61mph S 11.65mph 0 0.000"
372371 6/11/2024 7:19pm 95.29° F --° F 95.29° F 102.18° F 81.13° F 50.17% 77.81° F 1009.41mb 3.59mph S 9.61mph 0 0.000"
372370 6/11/2024 7:13pm 95.58° F --° F 95.58° F 101.01° F 81.26° F 49.82% 77.90° F 1009.39mb 5.10mph S 7.54mph 0 0.000"
372369 6/11/2024 7:08pm 95.79° F --° F 95.79° F 103.92° F 81.38° F 49.58% 77.98° F 1009.38mb 2.69mph S 7.54mph 0 0.000"
372368 6/11/2024 7:03pm 96.17° F --° F 96.17° F 103.45° F 81.59° F 49.16% 78.11° F 1009.25mb 3.70mph S 8.23mph 0 0.000"
372367 6/11/2024 6:58pm 96.39° F --° F 96.39° F 102.77° F 81.68° F 48.83% 78.15° F 1009.22mb 4.60mph S 7.54mph 0 0.000"
372366 6/11/2024 6:53pm 96.49° F --° F 96.49° F 102.91° F 81.87° F 49.17% 78.40° F 1009.09mb 4.94mph S 10.96mph 0 0.000"
372365 6/11/2024 6:48pm 96.67° F --° F 96.67° F 105.86° F 82.09° F 49.43% 78.69° F 1009.05mb 2.80mph NW 8.92mph 0 0.000"
372364 6/11/2024 6:43pm 96.94° F --° F 96.94° F 102.75° F 82.01° F 48.30% 78.38° F 1009.01mb 5.49mph S 12.34mph 0 0.000"
372363 6/11/2024 6:38pm 97.14° F --° F 97.14° F 103.63° F 82.01° F 47.77% 78.29° F 1008.93mb 4.74mph S 7.54mph 0 0.000"
372362 6/11/2024 6:33pm 97.29° F --° F 97.29° F 105.14° F 82.27° F 48.20% 78.64° F 1008.78mb 4.00mph S 8.23mph 0 0.000"
372361 6/11/2024 6:28pm 97.27° F --° F 97.27° F 105.37° F 82.23° F 48.12% 78.58° F 1008.82mb 3.68mph S 7.54mph 0 0.000"